<?xml version="1.0" encoding="UTF-8" standalone="no" ?>
<gpx xmlns="http://www.topografix.com/GPX/1/1" xmlns:xsi="http://www.w3.org/2001/XMLSchema-instance" xsi:schemaLocation="http://www.topografix.com/GPX/1/1 http://www.topografix.com/GPX/1/1/gpx.xsd" version="1.1" creator="VisuGPX - https://www.visugpx.com">
  <metadata>
    <name>Les gorges de Trevans ** (Estoublon 04)</name>
    <desc><![CDATA[L'Estoublasse - Gîte de Valbonnette - Hameau de Valbonnette ]]></desc>
  </metadata>
  <trk>
    <name><![CDATA[TREVAJS 1715:42:54]]></name>
    <trkseg>
      <trkpt lat="43.94828" lon="6.22222">
        <ele>562.03</ele>
        <time>2017-06-01T08:35:55Z</time>
      </trkpt>
      <trkpt lat="43.94828" lon="6.22222">
        <ele>562.51</ele>
        <time>2017-06-01T08:35:59Z</time>
      </trkpt>
      <trkpt lat="43.94827" lon="6.22221">
        <ele>563.47</ele>
        <time>2017-06-01T08:36:20Z</time>
      </trkpt>
      <trkpt lat="43.94829" lon="6.2222">
        <ele>563.95</ele>
        <time>2017-06-01T08:36:34Z</time>
      </trkpt>
      <trkpt lat="43.9483" lon="6.22217">
        <ele>563.95</ele>
        <time>2017-06-01T08:36:50Z</time>
      </trkpt>
      <trkpt lat="43.94826" lon="6.22221">
        <ele>563.95</ele>
        <time>2017-06-01T08:37:04Z</time>
      </trkpt>
      <trkpt lat="43.94826" lon="6.2222">
        <ele>564.43</ele>
        <time>2017-06-01T08:37:23Z</time>
      </trkpt>
      <trkpt lat="43.94828" lon="6.22222">
        <ele>565.39</ele>
        <time>2017-06-01T08:37:37Z</time>
      </trkpt>
      <trkpt lat="43.94828" lon="6.22222">
        <ele>565.39</ele>
        <time>2017-06-01T08:37:55Z</time>
      </trkpt>
      <trkpt lat="43.94826" lon="6.22225">
        <ele>565.39</ele>
        <time>2017-06-01T08:38:05Z</time>
      </trkpt>
      <trkpt lat="43.94824" lon="6.2223">
        <ele>565.87</ele>
        <time>2017-06-01T08:38:15Z</time>
      </trkpt>
      <trkpt lat="43.94824" lon="6.2223">
        <ele>565.39</ele>
        <time>2017-06-01T08:38:28Z</time>
      </trkpt>
      <trkpt lat="43.94821" lon="6.22236">
        <ele>565.39</ele>
        <time>2017-06-01T08:38:40Z</time>
      </trkpt>
      <trkpt lat="43.94819" lon="6.22238">
        <ele>565.39</ele>
        <time>2017-06-01T08:38:43Z</time>
      </trkpt>
      <trkpt lat="43.94814" lon="6.22244">
        <ele>565.39</ele>
        <time>2017-06-01T08:38:54Z</time>
      </trkpt>
      <trkpt lat="43.94808" lon="6.22261">
        <ele>563.95</ele>
        <time>2017-06-01T08:39:09Z</time>
      </trkpt>
      <trkpt lat="43.94806" lon="6.22268">
        <ele>563.95</ele>
        <time>2017-06-01T08:39:14Z</time>
      </trkpt>
      <trkpt lat="43.94808" lon="6.22273">
        <ele>564.43</ele>
        <time>2017-06-01T08:39:26Z</time>
      </trkpt>
      <trkpt lat="43.94806" lon="6.22275">
        <ele>563.95</ele>
        <time>2017-06-01T08:39:31Z</time>
      </trkpt>
      <trkpt lat="43.94806" lon="6.22276">
        <ele>563.95</ele>
        <time>2017-06-01T08:39:32Z</time>
      </trkpt>
      <trkpt lat="43.94807" lon="6.22284">
        <ele>563.95</ele>
        <time>2017-06-01T08:39:37Z</time>
      </trkpt>
      <trkpt lat="43.94808" lon="6.223">
        <ele>563.47</ele>
        <time>2017-06-01T08:39:51Z</time>
      </trkpt>
      <trkpt lat="43.94806" lon="6.22305">
        <ele>562.99</ele>
        <time>2017-06-01T08:39:55Z</time>
      </trkpt>
      <trkpt lat="43.94802" lon="6.22318">
        <ele>562.51</ele>
        <time>2017-06-01T08:40:08Z</time>
      </trkpt>
      <trkpt lat="43.94802" lon="6.22323">
        <ele>562.51</ele>
        <time>2017-06-01T08:40:11Z</time>
      </trkpt>
      <trkpt lat="43.94801" lon="6.22328">
        <ele>562.51</ele>
        <time>2017-06-01T08:40:14Z</time>
      </trkpt>
      <trkpt lat="43.94801" lon="6.22334">
        <ele>562.51</ele>
        <time>2017-06-01T08:40:18Z</time>
      </trkpt>
      <trkpt lat="43.94801" lon="6.22339">
        <ele>562.51</ele>
        <time>2017-06-01T08:40:21Z</time>
      </trkpt>
      <trkpt lat="43.94805" lon="6.22351">
        <ele>562.03</ele>
        <time>2017-06-01T08:40:30Z</time>
      </trkpt>
      <trkpt lat="43.94805" lon="6.22353">
        <ele>562.03</ele>
        <time>2017-06-01T08:40:31Z</time>
      </trkpt>
      <trkpt lat="43.94806" lon="6.22372">
        <ele>562.51</ele>
        <time>2017-06-01T08:40:43Z</time>
      </trkpt>
      <trkpt lat="43.94808" lon="6.22388">
        <ele>562.51</ele>
        <time>2017-06-01T08:40:56Z</time>
      </trkpt>
      <trkpt lat="43.94809" lon="6.22403">
        <ele>562.99</ele>
        <time>2017-06-01T08:41:10Z</time>
      </trkpt>
      <trkpt lat="43.94808" lon="6.2241">
        <ele>562.99</ele>
        <time>2017-06-01T08:41:15Z</time>
      </trkpt>
      <trkpt lat="43.94806" lon="6.22425">
        <ele>563.47</ele>
        <time>2017-06-01T08:41:26Z</time>
      </trkpt>
      <trkpt lat="43.94805" lon="6.2244">
        <ele>563.47</ele>
        <time>2017-06-01T08:41:38Z</time>
      </trkpt>
      <trkpt lat="43.94803" lon="6.22448">
        <ele>563.95</ele>
        <time>2017-06-01T08:41:44Z</time>
      </trkpt>
      <trkpt lat="43.94802" lon="6.2245">
        <ele>563.95</ele>
        <time>2017-06-01T08:41:45Z</time>
      </trkpt>
      <trkpt lat="43.94799" lon="6.22461">
        <ele>564.43</ele>
        <time>2017-06-01T08:41:52Z</time>
      </trkpt>
      <trkpt lat="43.94793" lon="6.2248">
        <ele>565.39</ele>
        <time>2017-06-01T08:42:04Z</time>
      </trkpt>
      <trkpt lat="43.9479" lon="6.22496">
        <ele>565.87</ele>
        <time>2017-06-01T08:42:14Z</time>
      </trkpt>
      <trkpt lat="43.94783" lon="6.22511">
        <ele>566.83</ele>
        <time>2017-06-01T08:42:27Z</time>
      </trkpt>
      <trkpt lat="43.94773" lon="6.22526">
        <ele>567.32</ele>
        <time>2017-06-01T08:42:39Z</time>
      </trkpt>
      <trkpt lat="43.94764" lon="6.22537">
        <ele>567.8</ele>
        <time>2017-06-01T08:42:50Z</time>
      </trkpt>
      <trkpt lat="43.94759" lon="6.22542">
        <ele>567.8</ele>
        <time>2017-06-01T08:42:55Z</time>
      </trkpt>
      <trkpt lat="43.9475" lon="6.22554">
        <ele>568.76</ele>
        <time>2017-06-01T08:43:07Z</time>
      </trkpt>
      <trkpt lat="43.94748" lon="6.22555">
        <ele>568.76</ele>
        <time>2017-06-01T08:43:08Z</time>
      </trkpt>
      <trkpt lat="43.94741" lon="6.22559">
        <ele>569.24</ele>
        <time>2017-06-01T08:43:16Z</time>
      </trkpt>
      <trkpt lat="43.94737" lon="6.22551">
        <ele>570.2</ele>
        <time>2017-06-01T08:43:25Z</time>
      </trkpt>
      <trkpt lat="43.94737" lon="6.2255">
        <ele>570.2</ele>
        <time>2017-06-01T08:43:26Z</time>
      </trkpt>
      <trkpt lat="43.94736" lon="6.22549">
        <ele>570.2</ele>
        <time>2017-06-01T08:43:27Z</time>
      </trkpt>
      <trkpt lat="43.94734" lon="6.22547">
        <ele>570.68</ele>
        <time>2017-06-01T08:43:29Z</time>
      </trkpt>
      <trkpt lat="43.94734" lon="6.22546">
        <ele>570.68</ele>
        <time>2017-06-01T08:43:30Z</time>
      </trkpt>
      <trkpt lat="43.94728" lon="6.22537">
        <ele>571.16</ele>
        <time>2017-06-01T08:43:40Z</time>
      </trkpt>
      <trkpt lat="43.94726" lon="6.22535">
        <ele>572.6</ele>
        <time>2017-06-01T08:43:58Z</time>
      </trkpt>
      <trkpt lat="43.94728" lon="6.2254">
        <ele>572.12</ele>
        <time>2017-06-01T08:44:20Z</time>
      </trkpt>
      <trkpt lat="43.94724" lon="6.22549">
        <ele>571.64</ele>
        <time>2017-06-01T08:44:36Z</time>
      </trkpt>
      <trkpt lat="43.94717" lon="6.22559">
        <ele>571.64</ele>
        <time>2017-06-01T08:44:48Z</time>
      </trkpt>
      <trkpt lat="43.94708" lon="6.22565">
        <ele>571.64</ele>
        <time>2017-06-01T08:45:00Z</time>
      </trkpt>
      <trkpt lat="43.94701" lon="6.22574">
        <ele>572.12</ele>
        <time>2017-06-01T08:45:14Z</time>
      </trkpt>
      <trkpt lat="43.94697" lon="6.22583">
        <ele>572.12</ele>
        <time>2017-06-01T08:45:20Z</time>
      </trkpt>
      <trkpt lat="43.94696" lon="6.22587">
        <ele>572.12</ele>
        <time>2017-06-01T08:45:22Z</time>
      </trkpt>
      <trkpt lat="43.9469" lon="6.22603">
        <ele>572.6</ele>
        <time>2017-06-01T08:45:31Z</time>
      </trkpt>
      <trkpt lat="43.94687" lon="6.2262">
        <ele>572.6</ele>
        <time>2017-06-01T08:45:44Z</time>
      </trkpt>
      <trkpt lat="43.94689" lon="6.22626">
        <ele>573.08</ele>
        <time>2017-06-01T08:45:49Z</time>
      </trkpt>
      <trkpt lat="43.94689" lon="6.22643">
        <ele>573.08</ele>
        <time>2017-06-01T08:46:00Z</time>
      </trkpt>
      <trkpt lat="43.94698" lon="6.22649">
        <ele>572.12</ele>
        <time>2017-06-01T08:46:13Z</time>
      </trkpt>
      <trkpt lat="43.94702" lon="6.2265">
        <ele>570.2</ele>
        <time>2017-06-01T08:46:28Z</time>
      </trkpt>
      <trkpt lat="43.94702" lon="6.22649">
        <ele>571.64</ele>
        <time>2017-06-01T08:46:39Z</time>
      </trkpt>
      <trkpt lat="43.94697" lon="6.22652">
        <ele>573.08</ele>
        <time>2017-06-01T08:46:48Z</time>
      </trkpt>
      <trkpt lat="43.94697" lon="6.22654">
        <ele>573.08</ele>
        <time>2017-06-01T08:46:49Z</time>
      </trkpt>
      <trkpt lat="43.94699" lon="6.22671">
        <ele>575.97</ele>
        <time>2017-06-01T08:47:05Z</time>
      </trkpt>
      <trkpt lat="43.94701" lon="6.22667">
        <ele>577.41</ele>
        <time>2017-06-01T08:47:16Z</time>
      </trkpt>
      <trkpt lat="43.947" lon="6.22667">
        <ele>577.89</ele>
        <time>2017-06-01T08:47:38Z</time>
      </trkpt>
      <trkpt lat="43.94701" lon="6.2267">
        <ele>576.45</ele>
        <time>2017-06-01T08:47:48Z</time>
      </trkpt>
      <trkpt lat="43.947" lon="6.22674">
        <ele>576.45</ele>
        <time>2017-06-01T08:47:52Z</time>
      </trkpt>
      <trkpt lat="43.94701" lon="6.22675">
        <ele>576.45</ele>
        <time>2017-06-01T08:47:53Z</time>
      </trkpt>
      <trkpt lat="43.94703" lon="6.22676">
        <ele>576.45</ele>
        <time>2017-06-01T08:47:54Z</time>
      </trkpt>
      <trkpt lat="43.94712" lon="6.22689">
        <ele>578.37</ele>
        <time>2017-06-01T08:48:07Z</time>
      </trkpt>
      <trkpt lat="43.94713" lon="6.2269">
        <ele>578.37</ele>
        <time>2017-06-01T08:48:08Z</time>
      </trkpt>
      <trkpt lat="43.94716" lon="6.22697">
        <ele>578.37</ele>
        <time>2017-06-01T08:48:13Z</time>
      </trkpt>
      <trkpt lat="43.94724" lon="6.22715">
        <ele>578.85</ele>
        <time>2017-06-01T08:48:27Z</time>
      </trkpt>
      <trkpt lat="43.94728" lon="6.22732">
        <ele>579.81</ele>
        <time>2017-06-01T08:48:38Z</time>
      </trkpt>
      <trkpt lat="43.94729" lon="6.22734">
        <ele>579.81</ele>
        <time>2017-06-01T08:48:39Z</time>
      </trkpt>
      <trkpt lat="43.9473" lon="6.2274">
        <ele>579.81</ele>
        <time>2017-06-01T08:48:43Z</time>
      </trkpt>
      <trkpt lat="43.94733" lon="6.22747">
        <ele>580.29</ele>
        <time>2017-06-01T08:48:48Z</time>
      </trkpt>
      <trkpt lat="43.94736" lon="6.22756">
        <ele>581.25</ele>
        <time>2017-06-01T08:48:58Z</time>
      </trkpt>
      <trkpt lat="43.94739" lon="6.2276">
        <ele>580.77</ele>
        <time>2017-06-01T08:49:02Z</time>
      </trkpt>
      <trkpt lat="43.94752" lon="6.2278">
        <ele>582.22</ele>
        <time>2017-06-01T08:49:18Z</time>
      </trkpt>
      <trkpt lat="43.94758" lon="6.22792">
        <ele>582.22</ele>
        <time>2017-06-01T08:49:31Z</time>
      </trkpt>
      <trkpt lat="43.94764" lon="6.22797">
        <ele>582.7</ele>
        <time>2017-06-01T08:49:37Z</time>
      </trkpt>
      <trkpt lat="43.94768" lon="6.22801">
        <ele>583.18</ele>
        <time>2017-06-01T08:49:40Z</time>
      </trkpt>
      <trkpt lat="43.9477" lon="6.22806">
        <ele>583.18</ele>
        <time>2017-06-01T08:49:43Z</time>
      </trkpt>
      <trkpt lat="43.94771" lon="6.22807">
        <ele>583.18</ele>
        <time>2017-06-01T08:49:44Z</time>
      </trkpt>
      <trkpt lat="43.94772" lon="6.22808">
        <ele>583.18</ele>
        <time>2017-06-01T08:49:45Z</time>
      </trkpt>
      <trkpt lat="43.94783" lon="6.22825">
        <ele>584.14</ele>
        <time>2017-06-01T08:50:01Z</time>
      </trkpt>
      <trkpt lat="43.94791" lon="6.22839">
        <ele>585.1</ele>
        <time>2017-06-01T08:50:12Z</time>
      </trkpt>
      <trkpt lat="43.94786" lon="6.22854">
        <ele>586.06</ele>
        <time>2017-06-01T08:50:24Z</time>
      </trkpt>
      <trkpt lat="43.9478" lon="6.22866">
        <ele>586.54</ele>
        <time>2017-06-01T08:50:33Z</time>
      </trkpt>
      <trkpt lat="43.94775" lon="6.22875">
        <ele>587.02</ele>
        <time>2017-06-01T08:50:42Z</time>
      </trkpt>
      <trkpt lat="43.94773" lon="6.22877">
        <ele>587.02</ele>
        <time>2017-06-01T08:50:43Z</time>
      </trkpt>
      <trkpt lat="43.94766" lon="6.22898">
        <ele>588.46</ele>
        <time>2017-06-01T08:50:56Z</time>
      </trkpt>
      <trkpt lat="43.94761" lon="6.22915">
        <ele>589.43</ele>
        <time>2017-06-01T08:51:09Z</time>
      </trkpt>
      <trkpt lat="43.94759" lon="6.22923">
        <ele>589.91</ele>
        <time>2017-06-01T08:51:16Z</time>
      </trkpt>
      <trkpt lat="43.94755" lon="6.22943">
        <ele>590.87</ele>
        <time>2017-06-01T08:51:30Z</time>
      </trkpt>
      <trkpt lat="43.94751" lon="6.22955">
        <ele>591.35</ele>
        <time>2017-06-01T08:51:39Z</time>
      </trkpt>
      <trkpt lat="43.9475" lon="6.22964">
        <ele>591.83</ele>
        <time>2017-06-01T08:51:44Z</time>
      </trkpt>
      <trkpt lat="43.94747" lon="6.22975">
        <ele>592.31</ele>
        <time>2017-06-01T08:51:50Z</time>
      </trkpt>
      <trkpt lat="43.94743" lon="6.22989">
        <ele>593.27</ele>
        <time>2017-06-01T08:52:01Z</time>
      </trkpt>
      <trkpt lat="43.9474" lon="6.23011">
        <ele>594.71</ele>
        <time>2017-06-01T08:52:19Z</time>
      </trkpt>
      <trkpt lat="43.94738" lon="6.23026">
        <ele>595.19</ele>
        <time>2017-06-01T08:52:30Z</time>
      </trkpt>
      <trkpt lat="43.94737" lon="6.23048">
        <ele>596.15</ele>
        <time>2017-06-01T08:52:42Z</time>
      </trkpt>
      <trkpt lat="43.94736" lon="6.23072">
        <ele>597.6</ele>
        <time>2017-06-01T08:52:55Z</time>
      </trkpt>
      <trkpt lat="43.94737" lon="6.23088">
        <ele>598.08</ele>
        <time>2017-06-01T08:53:06Z</time>
      </trkpt>
      <trkpt lat="43.94735" lon="6.23107">
        <ele>598.56</ele>
        <time>2017-06-01T08:53:18Z</time>
      </trkpt>
      <trkpt lat="43.94731" lon="6.23123">
        <ele>598.56</ele>
        <time>2017-06-01T08:53:30Z</time>
      </trkpt>
      <trkpt lat="43.9473" lon="6.23133">
        <ele>598.56</ele>
        <time>2017-06-01T08:53:46Z</time>
      </trkpt>
      <trkpt lat="43.94729" lon="6.23135">
        <ele>598.56</ele>
        <time>2017-06-01T08:53:48Z</time>
      </trkpt>
      <trkpt lat="43.94743" lon="6.23156">
        <ele>598.56</ele>
        <time>2017-06-01T08:54:03Z</time>
      </trkpt>
      <trkpt lat="43.94747" lon="6.23159">
        <ele>598.56</ele>
        <time>2017-06-01T08:54:11Z</time>
      </trkpt>
      <trkpt lat="43.94748" lon="6.23162">
        <ele>599.04</ele>
        <time>2017-06-01T08:54:12Z</time>
      </trkpt>
      <trkpt lat="43.9475" lon="6.23166">
        <ele>599.04</ele>
        <time>2017-06-01T08:54:13Z</time>
      </trkpt>
      <trkpt lat="43.94744" lon="6.23181">
        <ele>599.52</ele>
        <time>2017-06-01T08:54:31Z</time>
      </trkpt>
      <trkpt lat="43.94725" lon="6.23183">
        <ele>599.52</ele>
        <time>2017-06-01T08:54:36Z</time>
      </trkpt>
      <trkpt lat="43.94724" lon="6.23184">
        <ele>600</ele>
        <time>2017-06-01T08:54:37Z</time>
      </trkpt>
      <trkpt lat="43.94709" lon="6.23197">
        <ele>600</ele>
        <time>2017-06-01T08:54:48Z</time>
      </trkpt>
      <trkpt lat="43.94705" lon="6.23208">
        <ele>600.96</ele>
        <time>2017-06-01T08:55:05Z</time>
      </trkpt>
      <trkpt lat="43.94705" lon="6.2321">
        <ele>601.44</ele>
        <time>2017-06-01T08:55:16Z</time>
      </trkpt>
      <trkpt lat="43.94705" lon="6.23211">
        <ele>600</ele>
        <time>2017-06-01T08:55:33Z</time>
      </trkpt>
      <trkpt lat="43.94698" lon="6.23217">
        <ele>598.56</ele>
        <time>2017-06-01T08:55:53Z</time>
      </trkpt>
      <trkpt lat="43.94693" lon="6.23221">
        <ele>598.08</ele>
        <time>2017-06-01T08:56:06Z</time>
      </trkpt>
      <trkpt lat="43.9469" lon="6.23221">
        <ele>597.6</ele>
        <time>2017-06-01T08:56:25Z</time>
      </trkpt>
      <trkpt lat="43.94687" lon="6.23222">
        <ele>598.56</ele>
        <time>2017-06-01T08:56:34Z</time>
      </trkpt>
      <trkpt lat="43.94683" lon="6.23227">
        <ele>598.56</ele>
        <time>2017-06-01T08:56:46Z</time>
      </trkpt>
      <trkpt lat="43.94684" lon="6.23228">
        <ele>598.08</ele>
        <time>2017-06-01T08:56:53Z</time>
      </trkpt>
      <trkpt lat="43.94687" lon="6.23233">
        <ele>599.04</ele>
        <time>2017-06-01T08:57:08Z</time>
      </trkpt>
      <trkpt lat="43.94689" lon="6.23241">
        <ele>600</ele>
        <time>2017-06-01T08:57:14Z</time>
      </trkpt>
      <trkpt lat="43.9469" lon="6.23243">
        <ele>600.48</ele>
        <time>2017-06-01T08:57:15Z</time>
      </trkpt>
      <trkpt lat="43.94689" lon="6.2326">
        <ele>600</ele>
        <time>2017-06-01T08:57:24Z</time>
      </trkpt>
      <trkpt lat="43.94688" lon="6.23262">
        <ele>600.48</ele>
        <time>2017-06-01T08:57:25Z</time>
      </trkpt>
      <trkpt lat="43.94687" lon="6.23264">
        <ele>600.96</ele>
        <time>2017-06-01T08:57:26Z</time>
      </trkpt>
      <trkpt lat="43.94681" lon="6.23288">
        <ele>602.4</ele>
        <time>2017-06-01T08:57:37Z</time>
      </trkpt>
      <trkpt lat="43.94677" lon="6.23293">
        <ele>602.88</ele>
        <time>2017-06-01T08:57:52Z</time>
      </trkpt>
      <trkpt lat="43.94677" lon="6.23297">
        <ele>600.48</ele>
        <time>2017-06-01T08:58:09Z</time>
      </trkpt>
      <trkpt lat="43.94678" lon="6.23299">
        <ele>599.52</ele>
        <time>2017-06-01T08:58:22Z</time>
      </trkpt>
      <trkpt lat="43.94678" lon="6.23302">
        <ele>599.04</ele>
        <time>2017-06-01T08:58:45Z</time>
      </trkpt>
      <trkpt lat="43.94679" lon="6.23303">
        <ele>600.48</ele>
        <time>2017-06-01T08:59:01Z</time>
      </trkpt>
      <trkpt lat="43.94681" lon="6.23306">
        <ele>601.44</ele>
        <time>2017-06-01T08:59:13Z</time>
      </trkpt>
      <trkpt lat="43.94679" lon="6.23308">
        <ele>601.44</ele>
        <time>2017-06-01T08:59:32Z</time>
      </trkpt>
      <trkpt lat="43.94677" lon="6.23312">
        <ele>601.44</ele>
        <time>2017-06-01T08:59:52Z</time>
      </trkpt>
      <trkpt lat="43.94678" lon="6.23314">
        <ele>601.44</ele>
        <time>2017-06-01T09:00:09Z</time>
      </trkpt>
      <trkpt lat="43.94679" lon="6.23313">
        <ele>601.92</ele>
        <time>2017-06-01T09:00:29Z</time>
      </trkpt>
      <trkpt lat="43.9468" lon="6.23314">
        <ele>601.92</ele>
        <time>2017-06-01T09:00:45Z</time>
      </trkpt>
      <trkpt lat="43.94685" lon="6.23321">
        <ele>604.81</ele>
        <time>2017-06-01T09:00:57Z</time>
      </trkpt>
      <trkpt lat="43.94687" lon="6.23331">
        <ele>607.21</ele>
        <time>2017-06-01T09:01:11Z</time>
      </trkpt>
      <trkpt lat="43.94691" lon="6.23333">
        <ele>609.13</ele>
        <time>2017-06-01T09:01:26Z</time>
      </trkpt>
      <trkpt lat="43.94694" lon="6.23337">
        <ele>611.06</ele>
        <time>2017-06-01T09:01:40Z</time>
      </trkpt>
      <trkpt lat="43.94717" lon="6.23339">
        <ele>612.98</ele>
        <time>2017-06-01T09:01:55Z</time>
      </trkpt>
      <trkpt lat="43.9473" lon="6.23333">
        <ele>614.9</ele>
        <time>2017-06-01T09:02:08Z</time>
      </trkpt>
      <trkpt lat="43.94727" lon="6.2334">
        <ele>616.82</ele>
        <time>2017-06-01T09:02:20Z</time>
      </trkpt>
      <trkpt lat="43.94728" lon="6.23341">
        <ele>618.26</ele>
        <time>2017-06-01T09:02:31Z</time>
      </trkpt>
      <trkpt lat="43.9473" lon="6.23343">
        <ele>620.67</ele>
        <time>2017-06-01T09:02:44Z</time>
      </trkpt>
      <trkpt lat="43.94731" lon="6.23346">
        <ele>622.11</ele>
        <time>2017-06-01T09:02:57Z</time>
      </trkpt>
      <trkpt lat="43.94731" lon="6.23349">
        <ele>624.51</ele>
        <time>2017-06-01T09:03:10Z</time>
      </trkpt>
      <trkpt lat="43.94731" lon="6.2335">
        <ele>624.99</ele>
        <time>2017-06-01T09:03:13Z</time>
      </trkpt>
      <trkpt lat="43.94731" lon="6.23357">
        <ele>625.96</ele>
        <time>2017-06-01T09:03:22Z</time>
      </trkpt>
      <trkpt lat="43.94733" lon="6.23368">
        <ele>628.36</ele>
        <time>2017-06-01T09:03:37Z</time>
      </trkpt>
      <trkpt lat="43.94734" lon="6.23369">
        <ele>628.36</ele>
        <time>2017-06-01T09:03:38Z</time>
      </trkpt>
      <trkpt lat="43.94736" lon="6.23376">
        <ele>630.28</ele>
        <time>2017-06-01T09:03:50Z</time>
      </trkpt>
      <trkpt lat="43.9474" lon="6.23379">
        <ele>632.2</ele>
        <time>2017-06-01T09:04:04Z</time>
      </trkpt>
      <trkpt lat="43.94742" lon="6.23387">
        <ele>634.13</ele>
        <time>2017-06-01T09:04:16Z</time>
      </trkpt>
      <trkpt lat="43.94741" lon="6.23387">
        <ele>634.13</ele>
        <time>2017-06-01T09:04:20Z</time>
      </trkpt>
      <trkpt lat="43.94739" lon="6.23392">
        <ele>636.05</ele>
        <time>2017-06-01T09:04:31Z</time>
      </trkpt>
      <trkpt lat="43.94739" lon="6.23394">
        <ele>636.53</ele>
        <time>2017-06-01T09:04:39Z</time>
      </trkpt>
      <trkpt lat="43.94739" lon="6.23396">
        <ele>637.49</ele>
        <time>2017-06-01T09:04:44Z</time>
      </trkpt>
      <trkpt lat="43.94737" lon="6.23403">
        <ele>638.45</ele>
        <time>2017-06-01T09:04:51Z</time>
      </trkpt>
      <trkpt lat="43.94733" lon="6.23409">
        <ele>639.41</ele>
        <time>2017-06-01T09:05:01Z</time>
      </trkpt>
      <trkpt lat="43.94731" lon="6.23409">
        <ele>641.34</ele>
        <time>2017-06-01T09:05:14Z</time>
      </trkpt>
      <trkpt lat="43.94723" lon="6.23414">
        <ele>642.78</ele>
        <time>2017-06-01T09:05:26Z</time>
      </trkpt>
      <trkpt lat="43.94724" lon="6.23421">
        <ele>645.18</ele>
        <time>2017-06-01T09:05:38Z</time>
      </trkpt>
      <trkpt lat="43.94726" lon="6.23429">
        <ele>648.07</ele>
        <time>2017-06-01T09:05:53Z</time>
      </trkpt>
      <trkpt lat="43.94727" lon="6.23438">
        <ele>649.03</ele>
        <time>2017-06-01T09:06:05Z</time>
      </trkpt>
      <trkpt lat="43.9473" lon="6.23447">
        <ele>650.95</ele>
        <time>2017-06-01T09:06:18Z</time>
      </trkpt>
      <trkpt lat="43.94728" lon="6.23453">
        <ele>652.87</ele>
        <time>2017-06-01T09:06:32Z</time>
      </trkpt>
      <trkpt lat="43.94725" lon="6.23462">
        <ele>655.28</ele>
        <time>2017-06-01T09:06:46Z</time>
      </trkpt>
      <trkpt lat="43.94728" lon="6.23474">
        <ele>656.72</ele>
        <time>2017-06-01T09:06:57Z</time>
      </trkpt>
      <trkpt lat="43.94729" lon="6.2348">
        <ele>658.16</ele>
        <time>2017-06-01T09:07:09Z</time>
      </trkpt>
      <trkpt lat="43.94731" lon="6.23488">
        <ele>660.56</ele>
        <time>2017-06-01T09:07:24Z</time>
      </trkpt>
      <trkpt lat="43.94743" lon="6.23496">
        <ele>662.49</ele>
        <time>2017-06-01T09:07:40Z</time>
      </trkpt>
      <trkpt lat="43.94745" lon="6.23497">
        <ele>662.01</ele>
        <time>2017-06-01T09:07:57Z</time>
      </trkpt>
      <trkpt lat="43.94744" lon="6.23498">
        <ele>662.01</ele>
        <time>2017-06-01T09:08:20Z</time>
      </trkpt>
      <trkpt lat="43.94744" lon="6.23499">
        <ele>662.49</ele>
        <time>2017-06-01T09:08:46Z</time>
      </trkpt>
      <trkpt lat="43.94744" lon="6.23499">
        <ele>663.93</ele>
        <time>2017-06-01T09:09:15Z</time>
      </trkpt>
      <trkpt lat="43.94744" lon="6.23499">
        <ele>664.41</ele>
        <time>2017-06-01T09:09:35Z</time>
      </trkpt>
      <trkpt lat="43.94744" lon="6.23499">
        <ele>664.89</ele>
        <time>2017-06-01T09:09:59Z</time>
      </trkpt>
      <trkpt lat="43.94744" lon="6.235">
        <ele>664.89</ele>
        <time>2017-06-01T09:10:22Z</time>
      </trkpt>
      <trkpt lat="43.94744" lon="6.23499">
        <ele>665.37</ele>
        <time>2017-06-01T09:10:43Z</time>
      </trkpt>
      <trkpt lat="43.94742" lon="6.235">
        <ele>667.29</ele>
        <time>2017-06-01T09:10:57Z</time>
      </trkpt>
      <trkpt lat="43.94745" lon="6.23508">
        <ele>668.73</ele>
        <time>2017-06-01T09:11:10Z</time>
      </trkpt>
      <trkpt lat="43.94745" lon="6.23518">
        <ele>670.66</ele>
        <time>2017-06-01T09:11:21Z</time>
      </trkpt>
      <trkpt lat="43.94748" lon="6.23532">
        <ele>670.66</ele>
        <time>2017-06-01T09:11:33Z</time>
      </trkpt>
      <trkpt lat="43.9475" lon="6.23543">
        <ele>670.66</ele>
        <time>2017-06-01T09:11:41Z</time>
      </trkpt>
      <trkpt lat="43.94756" lon="6.23557">
        <ele>671.62</ele>
        <time>2017-06-01T09:11:52Z</time>
      </trkpt>
      <trkpt lat="43.94756" lon="6.2356">
        <ele>672.1</ele>
        <time>2017-06-01T09:11:54Z</time>
      </trkpt>
      <trkpt lat="43.94754" lon="6.23573">
        <ele>673.54</ele>
        <time>2017-06-01T09:12:07Z</time>
      </trkpt>
      <trkpt lat="43.94751" lon="6.23579">
        <ele>675.94</ele>
        <time>2017-06-01T09:12:20Z</time>
      </trkpt>
      <trkpt lat="43.9475" lon="6.2358">
        <ele>675.94</ele>
        <time>2017-06-01T09:12:21Z</time>
      </trkpt>
      <trkpt lat="43.94747" lon="6.23587">
        <ele>676.91</ele>
        <time>2017-06-01T09:12:32Z</time>
      </trkpt>
      <trkpt lat="43.94747" lon="6.23595">
        <ele>676.91</ele>
        <time>2017-06-01T09:12:44Z</time>
      </trkpt>
      <trkpt lat="43.94747" lon="6.23597">
        <ele>676.91</ele>
        <time>2017-06-01T09:12:45Z</time>
      </trkpt>
      <trkpt lat="43.94746" lon="6.23601">
        <ele>677.39</ele>
        <time>2017-06-01T09:12:48Z</time>
      </trkpt>
      <trkpt lat="43.94749" lon="6.23619">
        <ele>677.39</ele>
        <time>2017-06-01T09:13:01Z</time>
      </trkpt>
      <trkpt lat="43.9475" lon="6.2363">
        <ele>677.39</ele>
        <time>2017-06-01T09:13:09Z</time>
      </trkpt>
      <trkpt lat="43.94752" lon="6.23649">
        <ele>678.35</ele>
        <time>2017-06-01T09:13:24Z</time>
      </trkpt>
      <trkpt lat="43.94753" lon="6.23653">
        <ele>678.35</ele>
        <time>2017-06-01T09:13:28Z</time>
      </trkpt>
      <trkpt lat="43.94754" lon="6.23656">
        <ele>678.35</ele>
        <time>2017-06-01T09:13:30Z</time>
      </trkpt>
      <trkpt lat="43.94755" lon="6.23667">
        <ele>677.39</ele>
        <time>2017-06-01T09:13:42Z</time>
      </trkpt>
      <trkpt lat="43.94758" lon="6.23675">
        <ele>675.94</ele>
        <time>2017-06-01T09:13:55Z</time>
      </trkpt>
      <trkpt lat="43.94764" lon="6.23687">
        <ele>674.02</ele>
        <time>2017-06-01T09:14:08Z</time>
      </trkpt>
      <trkpt lat="43.94772" lon="6.237">
        <ele>672.1</ele>
        <time>2017-06-01T09:14:21Z</time>
      </trkpt>
      <trkpt lat="43.94774" lon="6.23704">
        <ele>671.14</ele>
        <time>2017-06-01T09:14:33Z</time>
      </trkpt>
      <trkpt lat="43.94775" lon="6.23706">
        <ele>670.66</ele>
        <time>2017-06-01T09:14:44Z</time>
      </trkpt>
      <trkpt lat="43.94777" lon="6.23708">
        <ele>668.73</ele>
        <time>2017-06-01T09:14:56Z</time>
      </trkpt>
      <trkpt lat="43.94776" lon="6.23713">
        <ele>667.29</ele>
        <time>2017-06-01T09:15:08Z</time>
      </trkpt>
      <trkpt lat="43.94778" lon="6.23723">
        <ele>666.33</ele>
        <time>2017-06-01T09:15:19Z</time>
      </trkpt>
      <trkpt lat="43.94779" lon="6.23725">
        <ele>664.89</ele>
        <time>2017-06-01T09:15:31Z</time>
      </trkpt>
      <trkpt lat="43.94781" lon="6.23729">
        <ele>663.45</ele>
        <time>2017-06-01T09:15:43Z</time>
      </trkpt>
      <trkpt lat="43.9478" lon="6.23732">
        <ele>662.01</ele>
        <time>2017-06-01T09:15:55Z</time>
      </trkpt>
      <trkpt lat="43.94783" lon="6.23739">
        <ele>660.56</ele>
        <time>2017-06-01T09:16:06Z</time>
      </trkpt>
      <trkpt lat="43.94784" lon="6.23748">
        <ele>659.6</ele>
        <time>2017-06-01T09:16:20Z</time>
      </trkpt>
      <trkpt lat="43.94786" lon="6.23751">
        <ele>658.16</ele>
        <time>2017-06-01T09:16:33Z</time>
      </trkpt>
      <trkpt lat="43.94789" lon="6.23756">
        <ele>656.72</ele>
        <time>2017-06-01T09:16:43Z</time>
      </trkpt>
      <trkpt lat="43.94791" lon="6.23764">
        <ele>655.28</ele>
        <time>2017-06-01T09:16:56Z</time>
      </trkpt>
      <trkpt lat="43.94789" lon="6.2377">
        <ele>654.31</ele>
        <time>2017-06-01T09:17:10Z</time>
      </trkpt>
      <trkpt lat="43.94788" lon="6.23772">
        <ele>653.35</ele>
        <time>2017-06-01T09:17:18Z</time>
      </trkpt>
      <trkpt lat="43.9479" lon="6.23785">
        <ele>650.95</ele>
        <time>2017-06-01T09:17:30Z</time>
      </trkpt>
      <trkpt lat="43.94794" lon="6.23793">
        <ele>649.51</ele>
        <time>2017-06-01T09:17:44Z</time>
      </trkpt>
      <trkpt lat="43.94798" lon="6.23801">
        <ele>648.07</ele>
        <time>2017-06-01T09:17:58Z</time>
      </trkpt>
      <trkpt lat="43.94799" lon="6.23808">
        <ele>647.1</ele>
        <time>2017-06-01T09:18:03Z</time>
      </trkpt>
      <trkpt lat="43.94799" lon="6.23812">
        <ele>646.62</ele>
        <time>2017-06-01T09:18:05Z</time>
      </trkpt>
      <trkpt lat="43.94804" lon="6.23826">
        <ele>645.66</ele>
        <time>2017-06-01T09:18:16Z</time>
      </trkpt>
      <trkpt lat="43.94807" lon="6.23834">
        <ele>643.74</ele>
        <time>2017-06-01T09:18:30Z</time>
      </trkpt>
      <trkpt lat="43.94814" lon="6.23843">
        <ele>642.3</ele>
        <time>2017-06-01T09:18:42Z</time>
      </trkpt>
      <trkpt lat="43.94816" lon="6.23849">
        <ele>640.86</ele>
        <time>2017-06-01T09:18:54Z</time>
      </trkpt>
      <trkpt lat="43.94812" lon="6.23849">
        <ele>639.41</ele>
        <time>2017-06-01T09:19:08Z</time>
      </trkpt>
      <trkpt lat="43.94814" lon="6.23857">
        <ele>638.45</ele>
        <time>2017-06-01T09:19:20Z</time>
      </trkpt>
      <trkpt lat="43.94818" lon="6.23867">
        <ele>638.93</ele>
        <time>2017-06-01T09:19:33Z</time>
      </trkpt>
      <trkpt lat="43.94821" lon="6.23869">
        <ele>639.41</ele>
        <time>2017-06-01T09:19:46Z</time>
      </trkpt>
      <trkpt lat="43.9482" lon="6.2387">
        <ele>639.41</ele>
        <time>2017-06-01T09:20:02Z</time>
      </trkpt>
      <trkpt lat="43.9482" lon="6.2387">
        <ele>639.41</ele>
        <time>2017-06-01T09:20:20Z</time>
      </trkpt>
      <trkpt lat="43.9482" lon="6.23871">
        <ele>639.89</ele>
        <time>2017-06-01T09:20:39Z</time>
      </trkpt>
      <trkpt lat="43.94818" lon="6.23874">
        <ele>639.89</ele>
        <time>2017-06-01T09:20:56Z</time>
      </trkpt>
      <trkpt lat="43.94822" lon="6.23876">
        <ele>639.89</ele>
        <time>2017-06-01T09:21:23Z</time>
      </trkpt>
      <trkpt lat="43.94824" lon="6.23891">
        <ele>640.38</ele>
        <time>2017-06-01T09:21:39Z</time>
      </trkpt>
      <trkpt lat="43.94822" lon="6.23896">
        <ele>640.86</ele>
        <time>2017-06-01T09:21:48Z</time>
      </trkpt>
      <trkpt lat="43.94821" lon="6.23902">
        <ele>640.38</ele>
        <time>2017-06-01T09:21:51Z</time>
      </trkpt>
      <trkpt lat="43.94818" lon="6.23909">
        <ele>639.89</ele>
        <time>2017-06-01T09:21:58Z</time>
      </trkpt>
      <trkpt lat="43.94816" lon="6.23913">
        <ele>638.93</ele>
        <time>2017-06-01T09:22:13Z</time>
      </trkpt>
      <trkpt lat="43.94816" lon="6.23911">
        <ele>637.49</ele>
        <time>2017-06-01T09:22:27Z</time>
      </trkpt>
      <trkpt lat="43.94815" lon="6.23907">
        <ele>637.97</ele>
        <time>2017-06-01T09:22:43Z</time>
      </trkpt>
      <trkpt lat="43.9481" lon="6.23908">
        <ele>638.45</ele>
        <time>2017-06-01T09:22:57Z</time>
      </trkpt>
      <trkpt lat="43.94807" lon="6.23904">
        <ele>639.41</ele>
        <time>2017-06-01T09:23:06Z</time>
      </trkpt>
      <trkpt lat="43.94805" lon="6.23902">
        <ele>639.41</ele>
        <time>2017-06-01T09:23:07Z</time>
      </trkpt>
      <trkpt lat="43.94806" lon="6.239">
        <ele>639.41</ele>
        <time>2017-06-01T09:23:08Z</time>
      </trkpt>
      <trkpt lat="43.94797" lon="6.23889">
        <ele>641.34</ele>
        <time>2017-06-01T09:23:20Z</time>
      </trkpt>
      <trkpt lat="43.94786" lon="6.23886">
        <ele>643.26</ele>
        <time>2017-06-01T09:23:35Z</time>
      </trkpt>
      <trkpt lat="43.94784" lon="6.23884">
        <ele>645.66</ele>
        <time>2017-06-01T09:23:54Z</time>
      </trkpt>
      <trkpt lat="43.94778" lon="6.23878">
        <ele>647.1</ele>
        <time>2017-06-01T09:24:08Z</time>
      </trkpt>
      <trkpt lat="43.94772" lon="6.23874">
        <ele>648.55</ele>
        <time>2017-06-01T09:24:23Z</time>
      </trkpt>
      <trkpt lat="43.94745" lon="6.23867">
        <ele>650.47</ele>
        <time>2017-06-01T09:24:38Z</time>
      </trkpt>
      <trkpt lat="43.94731" lon="6.23861">
        <ele>652.39</ele>
        <time>2017-06-01T09:24:54Z</time>
      </trkpt>
      <trkpt lat="43.94722" lon="6.23855">
        <ele>654.31</ele>
        <time>2017-06-01T09:25:11Z</time>
      </trkpt>
      <trkpt lat="43.94715" lon="6.23847">
        <ele>655.76</ele>
        <time>2017-06-01T09:25:25Z</time>
      </trkpt>
      <trkpt lat="43.94707" lon="6.23836">
        <ele>657.2</ele>
        <time>2017-06-01T09:25:37Z</time>
      </trkpt>
      <trkpt lat="43.94703" lon="6.23826">
        <ele>658.64</ele>
        <time>2017-06-01T09:25:47Z</time>
      </trkpt>
      <trkpt lat="43.94692" lon="6.23804">
        <ele>660.08</ele>
        <time>2017-06-01T09:26:00Z</time>
      </trkpt>
      <trkpt lat="43.94692" lon="6.23803">
        <ele>660.08</ele>
        <time>2017-06-01T09:26:01Z</time>
      </trkpt>
      <trkpt lat="43.94692" lon="6.23792">
        <ele>661.52</ele>
        <time>2017-06-01T09:26:13Z</time>
      </trkpt>
      <trkpt lat="43.94684" lon="6.23784">
        <ele>662.49</ele>
        <time>2017-06-01T09:26:25Z</time>
      </trkpt>
      <trkpt lat="43.94684" lon="6.2378">
        <ele>662.97</ele>
        <time>2017-06-01T09:26:28Z</time>
      </trkpt>
      <trkpt lat="43.94677" lon="6.23767">
        <ele>664.89</ele>
        <time>2017-06-01T09:26:42Z</time>
      </trkpt>
      <trkpt lat="43.94672" lon="6.23763">
        <ele>666.33</ele>
        <time>2017-06-01T09:26:58Z</time>
      </trkpt>
      <trkpt lat="43.94671" lon="6.23764">
        <ele>666.81</ele>
        <time>2017-06-01T09:27:15Z</time>
      </trkpt>
      <trkpt lat="43.94671" lon="6.23761">
        <ele>668.25</ele>
        <time>2017-06-01T09:27:33Z</time>
      </trkpt>
      <trkpt lat="43.94666" lon="6.23748">
        <ele>670.18</ele>
        <time>2017-06-01T09:27:49Z</time>
      </trkpt>
      <trkpt lat="43.94663" lon="6.23738">
        <ele>670.66</ele>
        <time>2017-06-01T09:27:59Z</time>
      </trkpt>
      <trkpt lat="43.94658" lon="6.23718">
        <ele>672.58</ele>
        <time>2017-06-01T09:28:12Z</time>
      </trkpt>
      <trkpt lat="43.9465" lon="6.23708">
        <ele>674.02</ele>
        <time>2017-06-01T09:28:28Z</time>
      </trkpt>
      <trkpt lat="43.94637" lon="6.23695">
        <ele>675.94</ele>
        <time>2017-06-01T09:28:43Z</time>
      </trkpt>
      <trkpt lat="43.94638" lon="6.23685">
        <ele>677.39</ele>
        <time>2017-06-01T09:28:56Z</time>
      </trkpt>
      <trkpt lat="43.94642" lon="6.23676">
        <ele>679.31</ele>
        <time>2017-06-01T09:29:12Z</time>
      </trkpt>
      <trkpt lat="43.94643" lon="6.23665">
        <ele>681.23</ele>
        <time>2017-06-01T09:29:28Z</time>
      </trkpt>
      <trkpt lat="43.94645" lon="6.23652">
        <ele>682.67</ele>
        <time>2017-06-01T09:29:40Z</time>
      </trkpt>
      <trkpt lat="43.94648" lon="6.23638">
        <ele>684.12</ele>
        <time>2017-06-01T09:29:56Z</time>
      </trkpt>
      <trkpt lat="43.94648" lon="6.23634">
        <ele>686.04</ele>
        <time>2017-06-01T09:30:11Z</time>
      </trkpt>
      <trkpt lat="43.94645" lon="6.23639">
        <ele>687</ele>
        <time>2017-06-01T09:30:20Z</time>
      </trkpt>
      <trkpt lat="43.9464" lon="6.23651">
        <ele>688.44</ele>
        <time>2017-06-01T09:30:37Z</time>
      </trkpt>
      <trkpt lat="43.94635" lon="6.23647">
        <ele>688.44</ele>
        <time>2017-06-01T09:30:54Z</time>
      </trkpt>
      <trkpt lat="43.94634" lon="6.23649">
        <ele>688.92</ele>
        <time>2017-06-01T09:31:22Z</time>
      </trkpt>
      <trkpt lat="43.94636" lon="6.23648">
        <ele>688.92</ele>
        <time>2017-06-01T09:31:51Z</time>
      </trkpt>
      <trkpt lat="43.94635" lon="6.23646">
        <ele>688.92</ele>
        <time>2017-06-01T09:32:20Z</time>
      </trkpt>
      <trkpt lat="43.94635" lon="6.23644">
        <ele>688.92</ele>
        <time>2017-06-01T09:32:51Z</time>
      </trkpt>
      <trkpt lat="43.94635" lon="6.23644">
        <ele>688.92</ele>
        <time>2017-06-01T09:33:17Z</time>
      </trkpt>
      <trkpt lat="43.94635" lon="6.23644">
        <ele>689.4</ele>
        <time>2017-06-01T09:33:34Z</time>
      </trkpt>
      <trkpt lat="43.94631" lon="6.23647">
        <ele>689.88</ele>
        <time>2017-06-01T09:33:49Z</time>
      </trkpt>
      <trkpt lat="43.94626" lon="6.23649">
        <ele>691.33</ele>
        <time>2017-06-01T09:34:08Z</time>
      </trkpt>
      <trkpt lat="43.94617" lon="6.23655">
        <ele>692.77</ele>
        <time>2017-06-01T09:34:22Z</time>
      </trkpt>
      <trkpt lat="43.94603" lon="6.23663">
        <ele>695.17</ele>
        <time>2017-06-01T09:34:41Z</time>
      </trkpt>
      <trkpt lat="43.94596" lon="6.23668">
        <ele>696.13</ele>
        <time>2017-06-01T09:34:54Z</time>
      </trkpt>
      <trkpt lat="43.9459" lon="6.23676">
        <ele>697.57</ele>
        <time>2017-06-01T09:35:07Z</time>
      </trkpt>
      <trkpt lat="43.94584" lon="6.23686">
        <ele>699.02</ele>
        <time>2017-06-01T09:35:21Z</time>
      </trkpt>
      <trkpt lat="43.9458" lon="6.23703">
        <ele>700.46</ele>
        <time>2017-06-01T09:35:37Z</time>
      </trkpt>
      <trkpt lat="43.94582" lon="6.23718">
        <ele>702.38</ele>
        <time>2017-06-01T09:35:51Z</time>
      </trkpt>
      <trkpt lat="43.94573" lon="6.23724">
        <ele>704.3</ele>
        <time>2017-06-01T09:36:05Z</time>
      </trkpt>
      <trkpt lat="43.94566" lon="6.23732">
        <ele>705.75</ele>
        <time>2017-06-01T09:36:18Z</time>
      </trkpt>
      <trkpt lat="43.94558" lon="6.23742">
        <ele>707.67</ele>
        <time>2017-06-01T09:36:33Z</time>
      </trkpt>
      <trkpt lat="43.94552" lon="6.23756">
        <ele>709.11</ele>
        <time>2017-06-01T09:36:47Z</time>
      </trkpt>
      <trkpt lat="43.94547" lon="6.23766">
        <ele>710.55</ele>
        <time>2017-06-01T09:37:01Z</time>
      </trkpt>
      <trkpt lat="43.94541" lon="6.2378">
        <ele>712.47</ele>
        <time>2017-06-01T09:37:16Z</time>
      </trkpt>
      <trkpt lat="43.94527" lon="6.23781">
        <ele>713.92</ele>
        <time>2017-06-01T09:37:31Z</time>
      </trkpt>
      <trkpt lat="43.94514" lon="6.23786">
        <ele>715.36</ele>
        <time>2017-06-01T09:37:45Z</time>
      </trkpt>
      <trkpt lat="43.94507" lon="6.23794">
        <ele>716.8</ele>
        <time>2017-06-01T09:37:57Z</time>
      </trkpt>
      <trkpt lat="43.94506" lon="6.23798">
        <ele>717.28</ele>
        <time>2017-06-01T09:38:02Z</time>
      </trkpt>
      <trkpt lat="43.94498" lon="6.23807">
        <ele>718.72</ele>
        <time>2017-06-01T09:38:14Z</time>
      </trkpt>
      <trkpt lat="43.94488" lon="6.23813">
        <ele>720.16</ele>
        <time>2017-06-01T09:38:27Z</time>
      </trkpt>
      <trkpt lat="43.94479" lon="6.23815">
        <ele>721.61</ele>
        <time>2017-06-01T09:38:40Z</time>
      </trkpt>
      <trkpt lat="43.9447" lon="6.2382">
        <ele>722.57</ele>
        <time>2017-06-01T09:38:52Z</time>
      </trkpt>
      <trkpt lat="43.94467" lon="6.23818">
        <ele>723.05</ele>
        <time>2017-06-01T09:38:56Z</time>
      </trkpt>
      <trkpt lat="43.94457" lon="6.23817">
        <ele>724.01</ele>
        <time>2017-06-01T09:39:08Z</time>
      </trkpt>
      <trkpt lat="43.94448" lon="6.23818">
        <ele>724.97</ele>
        <time>2017-06-01T09:39:21Z</time>
      </trkpt>
      <trkpt lat="43.9444" lon="6.23817">
        <ele>725.93</ele>
        <time>2017-06-01T09:39:31Z</time>
      </trkpt>
      <trkpt lat="43.9443" lon="6.23814">
        <ele>727.37</ele>
        <time>2017-06-01T09:39:44Z</time>
      </trkpt>
      <trkpt lat="43.94424" lon="6.23814">
        <ele>727.86</ele>
        <time>2017-06-01T09:39:52Z</time>
      </trkpt>
      <trkpt lat="43.9442" lon="6.23822">
        <ele>727.86</ele>
        <time>2017-06-01T09:39:59Z</time>
      </trkpt>
      <trkpt lat="43.94412" lon="6.2383">
        <ele>728.34</ele>
        <time>2017-06-01T09:40:12Z</time>
      </trkpt>
      <trkpt lat="43.94411" lon="6.23831">
        <ele>728.34</ele>
        <time>2017-06-01T09:40:13Z</time>
      </trkpt>
      <trkpt lat="43.94405" lon="6.23831">
        <ele>727.86</ele>
        <time>2017-06-01T09:40:20Z</time>
      </trkpt>
      <trkpt lat="43.94401" lon="6.23832">
        <ele>728.34</ele>
        <time>2017-06-01T09:40:25Z</time>
      </trkpt>
      <trkpt lat="43.94388" lon="6.23837">
        <ele>728.34</ele>
        <time>2017-06-01T09:40:39Z</time>
      </trkpt>
      <trkpt lat="43.94384" lon="6.23844">
        <ele>728.82</ele>
        <time>2017-06-01T09:40:50Z</time>
      </trkpt>
      <trkpt lat="43.94381" lon="6.2385">
        <ele>729.3</ele>
        <time>2017-06-01T09:41:01Z</time>
      </trkpt>
      <trkpt lat="43.94378" lon="6.23857">
        <ele>730.26</ele>
        <time>2017-06-01T09:41:07Z</time>
      </trkpt>
      <trkpt lat="43.94366" lon="6.23862">
        <ele>731.22</ele>
        <time>2017-06-01T09:41:21Z</time>
      </trkpt>
      <trkpt lat="43.94359" lon="6.23861">
        <ele>732.18</ele>
        <time>2017-06-01T09:41:29Z</time>
      </trkpt>
      <trkpt lat="43.94351" lon="6.23851">
        <ele>734.1</ele>
        <time>2017-06-01T09:41:43Z</time>
      </trkpt>
      <trkpt lat="43.9435" lon="6.2385">
        <ele>734.1</ele>
        <time>2017-06-01T09:41:44Z</time>
      </trkpt>
      <trkpt lat="43.94342" lon="6.23858">
        <ele>735.55</ele>
        <time>2017-06-01T09:41:57Z</time>
      </trkpt>
      <trkpt lat="43.94332" lon="6.23865">
        <ele>736.99</ele>
        <time>2017-06-01T09:42:13Z</time>
      </trkpt>
      <trkpt lat="43.94332" lon="6.23871">
        <ele>737.47</ele>
        <time>2017-06-01T09:42:23Z</time>
      </trkpt>
      <trkpt lat="43.94336" lon="6.23872">
        <ele>737.47</ele>
        <time>2017-06-01T09:42:27Z</time>
      </trkpt>
      <trkpt lat="43.9434" lon="6.23887">
        <ele>736.99</ele>
        <time>2017-06-01T09:42:39Z</time>
      </trkpt>
      <trkpt lat="43.94343" lon="6.23903">
        <ele>736.51</ele>
        <time>2017-06-01T09:42:48Z</time>
      </trkpt>
      <trkpt lat="43.94349" lon="6.23914">
        <ele>735.55</ele>
        <time>2017-06-01T09:43:01Z</time>
      </trkpt>
      <trkpt lat="43.9435" lon="6.23917">
        <ele>735.55</ele>
        <time>2017-06-01T09:43:04Z</time>
      </trkpt>
      <trkpt lat="43.94357" lon="6.23924">
        <ele>735.55</ele>
        <time>2017-06-01T09:43:15Z</time>
      </trkpt>
      <trkpt lat="43.94363" lon="6.23938">
        <ele>736.51</ele>
        <time>2017-06-01T09:43:28Z</time>
      </trkpt>
      <trkpt lat="43.94364" lon="6.23957">
        <ele>738.43</ele>
        <time>2017-06-01T09:43:41Z</time>
      </trkpt>
      <trkpt lat="43.94364" lon="6.2397">
        <ele>739.39</ele>
        <time>2017-06-01T09:43:50Z</time>
      </trkpt>
      <trkpt lat="43.94363" lon="6.23982">
        <ele>741.31</ele>
        <time>2017-06-01T09:44:03Z</time>
      </trkpt>
      <trkpt lat="43.94362" lon="6.23983">
        <ele>741.31</ele>
        <time>2017-06-01T09:44:04Z</time>
      </trkpt>
      <trkpt lat="43.94358" lon="6.23998">
        <ele>742.76</ele>
        <time>2017-06-01T09:44:17Z</time>
      </trkpt>
      <trkpt lat="43.9435" lon="6.24008">
        <ele>744.68</ele>
        <time>2017-06-01T09:44:31Z</time>
      </trkpt>
      <trkpt lat="43.94341" lon="6.24015">
        <ele>746.12</ele>
        <time>2017-06-01T09:44:45Z</time>
      </trkpt>
      <trkpt lat="43.94338" lon="6.24029">
        <ele>747.08</ele>
        <time>2017-06-01T09:44:59Z</time>
      </trkpt>
      <trkpt lat="43.94333" lon="6.24043">
        <ele>749</ele>
        <time>2017-06-01T09:45:13Z</time>
      </trkpt>
      <trkpt lat="43.94329" lon="6.24055">
        <ele>749.97</ele>
        <time>2017-06-01T09:45:26Z</time>
      </trkpt>
      <trkpt lat="43.94324" lon="6.24065">
        <ele>751.41</ele>
        <time>2017-06-01T09:45:38Z</time>
      </trkpt>
      <trkpt lat="43.94321" lon="6.24073">
        <ele>751.89</ele>
        <time>2017-06-01T09:45:44Z</time>
      </trkpt>
      <trkpt lat="43.94303" lon="6.24073">
        <ele>752.85</ele>
        <time>2017-06-01T09:45:58Z</time>
      </trkpt>
      <trkpt lat="43.94287" lon="6.24071">
        <ele>753.81</ele>
        <time>2017-06-01T09:46:10Z</time>
      </trkpt>
      <trkpt lat="43.94288" lon="6.24076">
        <ele>754.77</ele>
        <time>2017-06-01T09:46:25Z</time>
      </trkpt>
      <trkpt lat="43.94282" lon="6.24081">
        <ele>755.25</ele>
        <time>2017-06-01T09:46:45Z</time>
      </trkpt>
      <trkpt lat="43.94274" lon="6.24085">
        <ele>756.69</ele>
        <time>2017-06-01T09:46:54Z</time>
      </trkpt>
      <trkpt lat="43.94262" lon="6.24092">
        <ele>758.14</ele>
        <time>2017-06-01T09:47:08Z</time>
      </trkpt>
      <trkpt lat="43.94232" lon="6.24099">
        <ele>760.54</ele>
        <time>2017-06-01T09:47:26Z</time>
      </trkpt>
      <trkpt lat="43.94217" lon="6.24103">
        <ele>762.94</ele>
        <time>2017-06-01T09:47:40Z</time>
      </trkpt>
      <trkpt lat="43.94201" lon="6.24102">
        <ele>764.39</ele>
        <time>2017-06-01T09:47:55Z</time>
      </trkpt>
      <trkpt lat="43.94188" lon="6.24103">
        <ele>765.35</ele>
        <time>2017-06-01T09:48:08Z</time>
      </trkpt>
      <trkpt lat="43.94181" lon="6.24103">
        <ele>766.31</ele>
        <time>2017-06-01T09:48:19Z</time>
      </trkpt>
      <trkpt lat="43.9418" lon="6.24103">
        <ele>766.31</ele>
        <time>2017-06-01T09:48:22Z</time>
      </trkpt>
      <trkpt lat="43.94169" lon="6.24104">
        <ele>768.23</ele>
        <time>2017-06-01T09:48:36Z</time>
      </trkpt>
      <trkpt lat="43.94159" lon="6.24104">
        <ele>769.19</ele>
        <time>2017-06-01T09:48:49Z</time>
      </trkpt>
      <trkpt lat="43.94158" lon="6.24105">
        <ele>770.15</ele>
        <time>2017-06-01T09:49:02Z</time>
      </trkpt>
      <trkpt lat="43.94157" lon="6.24104">
        <ele>770.15</ele>
        <time>2017-06-01T09:49:25Z</time>
      </trkpt>
      <trkpt lat="43.94156" lon="6.24102">
        <ele>770.15</ele>
        <time>2017-06-01T09:49:41Z</time>
      </trkpt>
      <trkpt lat="43.94154" lon="6.24104">
        <ele>770.15</ele>
        <time>2017-06-01T09:50:05Z</time>
      </trkpt>
      <trkpt lat="43.94155" lon="6.24105">
        <ele>769.67</ele>
        <time>2017-06-01T09:50:25Z</time>
      </trkpt>
      <trkpt lat="43.94155" lon="6.24106">
        <ele>770.15</ele>
        <time>2017-06-01T09:50:44Z</time>
      </trkpt>
      <trkpt lat="43.94155" lon="6.24106">
        <ele>770.15</ele>
        <time>2017-06-01T09:51:07Z</time>
      </trkpt>
      <trkpt lat="43.94154" lon="6.24106">
        <ele>770.15</ele>
        <time>2017-06-01T09:51:35Z</time>
      </trkpt>
      <trkpt lat="43.94152" lon="6.24105">
        <ele>770.15</ele>
        <time>2017-06-01T09:51:57Z</time>
      </trkpt>
      <trkpt lat="43.94153" lon="6.24105">
        <ele>770.15</ele>
        <time>2017-06-01T09:52:28Z</time>
      </trkpt>
      <trkpt lat="43.94153" lon="6.24106">
        <ele>770.63</ele>
        <time>2017-06-01T09:52:49Z</time>
      </trkpt>
      <trkpt lat="43.94153" lon="6.24106">
        <ele>770.63</ele>
        <time>2017-06-01T09:53:07Z</time>
      </trkpt>
      <trkpt lat="43.94149" lon="6.24105">
        <ele>771.6</ele>
        <time>2017-06-01T09:53:22Z</time>
      </trkpt>
      <trkpt lat="43.94145" lon="6.24104">
        <ele>772.08</ele>
        <time>2017-06-01T09:53:33Z</time>
      </trkpt>
      <trkpt lat="43.9414" lon="6.24105">
        <ele>773.04</ele>
        <time>2017-06-01T09:53:43Z</time>
      </trkpt>
      <trkpt lat="43.94138" lon="6.24113">
        <ele>774.48</ele>
        <time>2017-06-01T09:53:52Z</time>
      </trkpt>
      <trkpt lat="43.94125" lon="6.24131">
        <ele>775.92</ele>
        <time>2017-06-01T09:54:07Z</time>
      </trkpt>
      <trkpt lat="43.94116" lon="6.24138">
        <ele>776.88</ele>
        <time>2017-06-01T09:54:15Z</time>
      </trkpt>
      <trkpt lat="43.94109" lon="6.24152">
        <ele>778.32</ele>
        <time>2017-06-01T09:54:29Z</time>
      </trkpt>
      <trkpt lat="43.94108" lon="6.24155">
        <ele>778.81</ele>
        <time>2017-06-01T09:54:33Z</time>
      </trkpt>
      <trkpt lat="43.94102" lon="6.24172">
        <ele>780.73</ele>
        <time>2017-06-01T09:54:48Z</time>
      </trkpt>
      <trkpt lat="43.94097" lon="6.24179">
        <ele>781.21</ele>
        <time>2017-06-01T09:54:56Z</time>
      </trkpt>
      <trkpt lat="43.94086" lon="6.24188">
        <ele>783.13</ele>
        <time>2017-06-01T09:55:11Z</time>
      </trkpt>
      <trkpt lat="43.94078" lon="6.24202">
        <ele>784.57</ele>
        <time>2017-06-01T09:55:26Z</time>
      </trkpt>
      <trkpt lat="43.94067" lon="6.24207">
        <ele>786.02</ele>
        <time>2017-06-01T09:55:39Z</time>
      </trkpt>
      <trkpt lat="43.9406" lon="6.24204">
        <ele>786.98</ele>
        <time>2017-06-01T09:55:47Z</time>
      </trkpt>
      <trkpt lat="43.94048" lon="6.24196">
        <ele>788.42</ele>
        <time>2017-06-01T09:56:00Z</time>
      </trkpt>
      <trkpt lat="43.94043" lon="6.24198">
        <ele>788.9</ele>
        <time>2017-06-01T09:56:05Z</time>
      </trkpt>
      <trkpt lat="43.94041" lon="6.24201">
        <ele>788.42</ele>
        <time>2017-06-01T09:56:07Z</time>
      </trkpt>
      <trkpt lat="43.94038" lon="6.24208">
        <ele>788.42</ele>
        <time>2017-06-01T09:56:13Z</time>
      </trkpt>
      <trkpt lat="43.94038" lon="6.2422">
        <ele>787.94</ele>
        <time>2017-06-01T09:56:22Z</time>
      </trkpt>
      <trkpt lat="43.94037" lon="6.24226">
        <ele>787.94</ele>
        <time>2017-06-01T09:56:27Z</time>
      </trkpt>
      <trkpt lat="43.94037" lon="6.24228">
        <ele>787.94</ele>
        <time>2017-06-01T09:56:28Z</time>
      </trkpt>
      <trkpt lat="43.94034" lon="6.24232">
        <ele>787.94</ele>
        <time>2017-06-01T09:56:32Z</time>
      </trkpt>
      <trkpt lat="43.94029" lon="6.24243">
        <ele>787.46</ele>
        <time>2017-06-01T09:56:41Z</time>
      </trkpt>
      <trkpt lat="43.94017" lon="6.24258">
        <ele>786.5</ele>
        <time>2017-06-01T09:56:54Z</time>
      </trkpt>
      <trkpt lat="43.94017" lon="6.2426">
        <ele>786.5</ele>
        <time>2017-06-01T09:56:56Z</time>
      </trkpt>
      <trkpt lat="43.94016" lon="6.24264">
        <ele>786.5</ele>
        <time>2017-06-01T09:56:58Z</time>
      </trkpt>
      <trkpt lat="43.94014" lon="6.2427">
        <ele>786.02</ele>
        <time>2017-06-01T09:57:05Z</time>
      </trkpt>
      <trkpt lat="43.94013" lon="6.24273">
        <ele>786.02</ele>
        <time>2017-06-01T09:57:06Z</time>
      </trkpt>
      <trkpt lat="43.94011" lon="6.24279">
        <ele>785.53</ele>
        <time>2017-06-01T09:57:11Z</time>
      </trkpt>
      <trkpt lat="43.93996" lon="6.24287">
        <ele>784.57</ele>
        <time>2017-06-01T09:57:22Z</time>
      </trkpt>
      <trkpt lat="43.93992" lon="6.24288">
        <ele>784.57</ele>
        <time>2017-06-01T09:57:24Z</time>
      </trkpt>
      <trkpt lat="43.93983" lon="6.24288">
        <ele>784.09</ele>
        <time>2017-06-01T09:57:32Z</time>
      </trkpt>
      <trkpt lat="43.93967" lon="6.24291">
        <ele>783.61</ele>
        <time>2017-06-01T09:57:47Z</time>
      </trkpt>
      <trkpt lat="43.93956" lon="6.24293">
        <ele>783.61</ele>
        <time>2017-06-01T09:57:58Z</time>
      </trkpt>
      <trkpt lat="43.9394" lon="6.24289">
        <ele>782.65</ele>
        <time>2017-06-01T09:58:14Z</time>
      </trkpt>
      <trkpt lat="43.93932" lon="6.24301">
        <ele>782.17</ele>
        <time>2017-06-01T09:58:28Z</time>
      </trkpt>
      <trkpt lat="43.9393" lon="6.24303">
        <ele>782.17</ele>
        <time>2017-06-01T09:58:33Z</time>
      </trkpt>
      <trkpt lat="43.93919" lon="6.24312">
        <ele>781.69</ele>
        <time>2017-06-01T09:58:46Z</time>
      </trkpt>
      <trkpt lat="43.93916" lon="6.24313">
        <ele>781.69</ele>
        <time>2017-06-01T09:58:51Z</time>
      </trkpt>
      <trkpt lat="43.93914" lon="6.24313">
        <ele>781.69</ele>
        <time>2017-06-01T09:58:53Z</time>
      </trkpt>
      <trkpt lat="43.93899" lon="6.24319">
        <ele>780.73</ele>
        <time>2017-06-01T09:59:06Z</time>
      </trkpt>
      <trkpt lat="43.93891" lon="6.24332">
        <ele>780.25</ele>
        <time>2017-06-01T09:59:17Z</time>
      </trkpt>
      <trkpt lat="43.93889" lon="6.24336">
        <ele>780.25</ele>
        <time>2017-06-01T09:59:20Z</time>
      </trkpt>
      <trkpt lat="43.93879" lon="6.24346">
        <ele>779.77</ele>
        <time>2017-06-01T09:59:30Z</time>
      </trkpt>
      <trkpt lat="43.93868" lon="6.24362">
        <ele>778.81</ele>
        <time>2017-06-01T09:59:44Z</time>
      </trkpt>
      <trkpt lat="43.93865" lon="6.24365">
        <ele>778.81</ele>
        <time>2017-06-01T09:59:48Z</time>
      </trkpt>
      <trkpt lat="43.93855" lon="6.24377">
        <ele>778.32</ele>
        <time>2017-06-01T09:59:59Z</time>
      </trkpt>
      <trkpt lat="43.93848" lon="6.24386">
        <ele>777.84</ele>
        <time>2017-06-01T10:00:07Z</time>
      </trkpt>
      <trkpt lat="43.93838" lon="6.24398">
        <ele>777.36</ele>
        <time>2017-06-01T10:00:18Z</time>
      </trkpt>
      <trkpt lat="43.93826" lon="6.24411">
        <ele>776.4</ele>
        <time>2017-06-01T10:00:31Z</time>
      </trkpt>
      <trkpt lat="43.93815" lon="6.24419">
        <ele>775.92</ele>
        <time>2017-06-01T10:00:44Z</time>
      </trkpt>
      <trkpt lat="43.93805" lon="6.24426">
        <ele>775.44</ele>
        <time>2017-06-01T10:00:59Z</time>
      </trkpt>
      <trkpt lat="43.93802" lon="6.24427">
        <ele>774.96</ele>
        <time>2017-06-01T10:01:02Z</time>
      </trkpt>
      <trkpt lat="43.93796" lon="6.24428">
        <ele>774.96</ele>
        <time>2017-06-01T10:01:08Z</time>
      </trkpt>
      <trkpt lat="43.9378" lon="6.24432">
        <ele>774.48</ele>
        <time>2017-06-01T10:01:21Z</time>
      </trkpt>
      <trkpt lat="43.93773" lon="6.24436">
        <ele>774.48</ele>
        <time>2017-06-01T10:01:29Z</time>
      </trkpt>
      <trkpt lat="43.93766" lon="6.24439">
        <ele>774</ele>
        <time>2017-06-01T10:01:37Z</time>
      </trkpt>
      <trkpt lat="43.93763" lon="6.24441">
        <ele>774</ele>
        <time>2017-06-01T10:01:40Z</time>
      </trkpt>
      <trkpt lat="43.93753" lon="6.24444">
        <ele>774</ele>
        <time>2017-06-01T10:01:53Z</time>
      </trkpt>
      <trkpt lat="43.93746" lon="6.24441">
        <ele>772.56</ele>
        <time>2017-06-01T10:02:09Z</time>
      </trkpt>
      <trkpt lat="43.93742" lon="6.24439">
        <ele>773.04</ele>
        <time>2017-06-01T10:02:13Z</time>
      </trkpt>
      <trkpt lat="43.93722" lon="6.24441">
        <ele>772.08</ele>
        <time>2017-06-01T10:02:29Z</time>
      </trkpt>
      <trkpt lat="43.9372" lon="6.24443">
        <ele>771.6</ele>
        <time>2017-06-01T10:02:32Z</time>
      </trkpt>
      <trkpt lat="43.93712" lon="6.24449">
        <ele>771.11</ele>
        <time>2017-06-01T10:02:41Z</time>
      </trkpt>
      <trkpt lat="43.93708" lon="6.2445">
        <ele>771.11</ele>
        <time>2017-06-01T10:02:56Z</time>
      </trkpt>
      <trkpt lat="43.93706" lon="6.24452">
        <ele>771.11</ele>
        <time>2017-06-01T10:03:04Z</time>
      </trkpt>
      <trkpt lat="43.93702" lon="6.24454">
        <ele>771.11</ele>
        <time>2017-06-01T10:03:09Z</time>
      </trkpt>
      <trkpt lat="43.93693" lon="6.2446">
        <ele>770.63</ele>
        <time>2017-06-01T10:03:23Z</time>
      </trkpt>
      <trkpt lat="43.93686" lon="6.24465">
        <ele>770.63</ele>
        <time>2017-06-01T10:03:34Z</time>
      </trkpt>
      <trkpt lat="43.93681" lon="6.2447">
        <ele>770.15</ele>
        <time>2017-06-01T10:03:44Z</time>
      </trkpt>
      <trkpt lat="43.93675" lon="6.24478">
        <ele>769.67</ele>
        <time>2017-06-01T10:03:57Z</time>
      </trkpt>
      <trkpt lat="43.93671" lon="6.24489">
        <ele>769.19</ele>
        <time>2017-06-01T10:04:08Z</time>
      </trkpt>
      <trkpt lat="43.93662" lon="6.24505">
        <ele>768.71</ele>
        <time>2017-06-01T10:04:21Z</time>
      </trkpt>
      <trkpt lat="43.93659" lon="6.24506">
        <ele>768.23</ele>
        <time>2017-06-01T10:04:37Z</time>
      </trkpt>
      <trkpt lat="43.93658" lon="6.24508">
        <ele>767.75</ele>
        <time>2017-06-01T10:04:41Z</time>
      </trkpt>
      <trkpt lat="43.93653" lon="6.2452">
        <ele>767.75</ele>
        <time>2017-06-01T10:04:52Z</time>
      </trkpt>
      <trkpt lat="43.93645" lon="6.24528">
        <ele>767.27</ele>
        <time>2017-06-01T10:05:05Z</time>
      </trkpt>
      <trkpt lat="43.93642" lon="6.24532">
        <ele>767.27</ele>
        <time>2017-06-01T10:05:08Z</time>
      </trkpt>
      <trkpt lat="43.9363" lon="6.24547">
        <ele>766.31</ele>
        <time>2017-06-01T10:05:21Z</time>
      </trkpt>
      <trkpt lat="43.93625" lon="6.24553">
        <ele>765.83</ele>
        <time>2017-06-01T10:05:32Z</time>
      </trkpt>
      <trkpt lat="43.93621" lon="6.24556">
        <ele>765.83</ele>
        <time>2017-06-01T10:05:37Z</time>
      </trkpt>
      <trkpt lat="43.93618" lon="6.2456">
        <ele>765.83</ele>
        <time>2017-06-01T10:05:40Z</time>
      </trkpt>
      <trkpt lat="43.93598" lon="6.24566">
        <ele>766.79</ele>
        <time>2017-06-01T10:05:53Z</time>
      </trkpt>
      <trkpt lat="43.93596" lon="6.24566">
        <ele>766.31</ele>
        <time>2017-06-01T10:05:54Z</time>
      </trkpt>
      <trkpt lat="43.93575" lon="6.2457">
        <ele>765.83</ele>
        <time>2017-06-01T10:06:09Z</time>
      </trkpt>
      <trkpt lat="43.93567" lon="6.24572">
        <ele>764.87</ele>
        <time>2017-06-01T10:06:18Z</time>
      </trkpt>
      <trkpt lat="43.93556" lon="6.24574">
        <ele>763.42</ele>
        <time>2017-06-01T10:06:33Z</time>
      </trkpt>
      <trkpt lat="43.93547" lon="6.24568">
        <ele>761.98</ele>
        <time>2017-06-01T10:06:46Z</time>
      </trkpt>
      <trkpt lat="43.93546" lon="6.24568">
        <ele>761.5</ele>
        <time>2017-06-01T10:06:48Z</time>
      </trkpt>
      <trkpt lat="43.93536" lon="6.24567">
        <ele>760.06</ele>
        <time>2017-06-01T10:06:58Z</time>
      </trkpt>
      <trkpt lat="43.93522" lon="6.24562">
        <ele>758.62</ele>
        <time>2017-06-01T10:07:11Z</time>
      </trkpt>
      <trkpt lat="43.93511" lon="6.24551">
        <ele>756.21</ele>
        <time>2017-06-01T10:07:24Z</time>
      </trkpt>
      <trkpt lat="43.93505" lon="6.24544">
        <ele>755.73</ele>
        <time>2017-06-01T10:07:36Z</time>
      </trkpt>
      <trkpt lat="43.93499" lon="6.24535">
        <ele>754.77</ele>
        <time>2017-06-01T10:07:45Z</time>
      </trkpt>
      <trkpt lat="43.93491" lon="6.24532">
        <ele>752.85</ele>
        <time>2017-06-01T10:07:56Z</time>
      </trkpt>
      <trkpt lat="43.93483" lon="6.24529">
        <ele>751.89</ele>
        <time>2017-06-01T10:08:05Z</time>
      </trkpt>
      <trkpt lat="43.93471" lon="6.24526">
        <ele>750.45</ele>
        <time>2017-06-01T10:08:19Z</time>
      </trkpt>
      <trkpt lat="43.93471" lon="6.24527">
        <ele>750.45</ele>
        <time>2017-06-01T10:08:20Z</time>
      </trkpt>
      <trkpt lat="43.93463" lon="6.24536">
        <ele>748.52</ele>
        <time>2017-06-01T10:08:31Z</time>
      </trkpt>
      <trkpt lat="43.93455" lon="6.24542">
        <ele>747.08</ele>
        <time>2017-06-01T10:08:46Z</time>
      </trkpt>
      <trkpt lat="43.93453" lon="6.24543">
        <ele>746.6</ele>
        <time>2017-06-01T10:08:50Z</time>
      </trkpt>
      <trkpt lat="43.93444" lon="6.24549">
        <ele>745.16</ele>
        <time>2017-06-01T10:09:02Z</time>
      </trkpt>
      <trkpt lat="43.93438" lon="6.24555">
        <ele>743.24</ele>
        <time>2017-06-01T10:09:13Z</time>
      </trkpt>
      <trkpt lat="43.93434" lon="6.24559">
        <ele>742.76</ele>
        <time>2017-06-01T10:09:17Z</time>
      </trkpt>
      <trkpt lat="43.93425" lon="6.24564">
        <ele>741.79</ele>
        <time>2017-06-01T10:09:27Z</time>
      </trkpt>
      <trkpt lat="43.93421" lon="6.24567">
        <ele>740.83</ele>
        <time>2017-06-01T10:09:31Z</time>
      </trkpt>
      <trkpt lat="43.93411" lon="6.24571">
        <ele>739.87</ele>
        <time>2017-06-01T10:09:42Z</time>
      </trkpt>
      <trkpt lat="43.93408" lon="6.24572">
        <ele>739.87</ele>
        <time>2017-06-01T10:09:45Z</time>
      </trkpt>
      <trkpt lat="43.93403" lon="6.24572">
        <ele>738.91</ele>
        <time>2017-06-01T10:09:52Z</time>
      </trkpt>
      <trkpt lat="43.934" lon="6.24575">
        <ele>738.91</ele>
        <time>2017-06-01T10:09:55Z</time>
      </trkpt>
      <trkpt lat="43.9339" lon="6.24585">
        <ele>738.43</ele>
        <time>2017-06-01T10:10:09Z</time>
      </trkpt>
      <trkpt lat="43.93387" lon="6.24595">
        <ele>738.91</ele>
        <time>2017-06-01T10:10:22Z</time>
      </trkpt>
      <trkpt lat="43.93383" lon="6.24597">
        <ele>738.43</ele>
        <time>2017-06-01T10:10:36Z</time>
      </trkpt>
      <trkpt lat="43.93379" lon="6.24599">
        <ele>737.47</ele>
        <time>2017-06-01T10:10:52Z</time>
      </trkpt>
      <trkpt lat="43.93375" lon="6.24601">
        <ele>736.03</ele>
        <time>2017-06-01T10:11:08Z</time>
      </trkpt>
      <trkpt lat="43.93378" lon="6.24607">
        <ele>736.03</ele>
        <time>2017-06-01T10:11:29Z</time>
      </trkpt>
      <trkpt lat="43.93381" lon="6.24607">
        <ele>736.03</ele>
        <time>2017-06-01T10:11:44Z</time>
      </trkpt>
      <trkpt lat="43.93379" lon="6.24608">
        <ele>736.03</ele>
        <time>2017-06-01T10:12:01Z</time>
      </trkpt>
      <trkpt lat="43.93379" lon="6.24608">
        <ele>736.03</ele>
        <time>2017-06-01T10:12:17Z</time>
      </trkpt>
      <trkpt lat="43.93376" lon="6.24609">
        <ele>737.47</ele>
        <time>2017-06-01T10:12:35Z</time>
      </trkpt>
      <trkpt lat="43.93371" lon="6.24605">
        <ele>737.95</ele>
        <time>2017-06-01T10:12:48Z</time>
      </trkpt>
      <trkpt lat="43.9337" lon="6.24601">
        <ele>737.95</ele>
        <time>2017-06-01T10:13:08Z</time>
      </trkpt>
      <trkpt lat="43.9337" lon="6.24597">
        <ele>737.95</ele>
        <time>2017-06-01T10:13:12Z</time>
      </trkpt>
      <trkpt lat="43.93369" lon="6.24592">
        <ele>737.47</ele>
        <time>2017-06-01T10:13:20Z</time>
      </trkpt>
      <trkpt lat="43.93366" lon="6.24583">
        <ele>736.99</ele>
        <time>2017-06-01T10:13:27Z</time>
      </trkpt>
      <trkpt lat="43.93356" lon="6.24576">
        <ele>736.99</ele>
        <time>2017-06-01T10:13:40Z</time>
      </trkpt>
      <trkpt lat="43.93355" lon="6.24573">
        <ele>736.51</ele>
        <time>2017-06-01T10:14:02Z</time>
      </trkpt>
      <trkpt lat="43.93357" lon="6.24572">
        <ele>736.51</ele>
        <time>2017-06-01T10:14:30Z</time>
      </trkpt>
      <trkpt lat="43.93357" lon="6.24571">
        <ele>736.51</ele>
        <time>2017-06-01T10:14:53Z</time>
      </trkpt>
      <trkpt lat="43.93359" lon="6.2457">
        <ele>736.99</ele>
        <time>2017-06-01T10:15:23Z</time>
      </trkpt>
      <trkpt lat="43.93361" lon="6.24567">
        <ele>736.51</ele>
        <time>2017-06-01T10:15:48Z</time>
      </trkpt>
      <trkpt lat="43.9336" lon="6.24569">
        <ele>736.99</ele>
        <time>2017-06-01T10:16:13Z</time>
      </trkpt>
      <trkpt lat="43.93363" lon="6.24564">
        <ele>738.43</ele>
        <time>2017-06-01T10:16:29Z</time>
      </trkpt>
      <trkpt lat="43.93369" lon="6.24558">
        <ele>738.91</ele>
        <time>2017-06-01T10:16:40Z</time>
      </trkpt>
      <trkpt lat="43.9337" lon="6.24557">
        <ele>739.39</ele>
        <time>2017-06-01T10:16:42Z</time>
      </trkpt>
      <trkpt lat="43.93376" lon="6.24546">
        <ele>739.87</ele>
        <time>2017-06-01T10:16:55Z</time>
      </trkpt>
      <trkpt lat="43.93377" lon="6.24545">
        <ele>739.87</ele>
        <time>2017-06-01T10:16:56Z</time>
      </trkpt>
      <trkpt lat="43.93386" lon="6.2454">
        <ele>738.91</ele>
        <time>2017-06-01T10:17:08Z</time>
      </trkpt>
      <trkpt lat="43.93382" lon="6.24534">
        <ele>739.39</ele>
        <time>2017-06-01T10:17:21Z</time>
      </trkpt>
      <trkpt lat="43.9338" lon="6.24531">
        <ele>739.39</ele>
        <time>2017-06-01T10:17:33Z</time>
      </trkpt>
      <trkpt lat="43.93379" lon="6.2454">
        <ele>738.91</ele>
        <time>2017-06-01T10:17:47Z</time>
      </trkpt>
      <trkpt lat="43.93373" lon="6.24546">
        <ele>737.95</ele>
        <time>2017-06-01T10:18:00Z</time>
      </trkpt>
      <trkpt lat="43.93363" lon="6.24544">
        <ele>738.43</ele>
        <time>2017-06-01T10:18:18Z</time>
      </trkpt>
      <trkpt lat="43.93366" lon="6.24546">
        <ele>738.91</ele>
        <time>2017-06-01T10:18:28Z</time>
      </trkpt>
      <trkpt lat="43.93366" lon="6.24549">
        <ele>738.43</ele>
        <time>2017-06-01T10:18:45Z</time>
      </trkpt>
      <trkpt lat="43.93365" lon="6.24553">
        <ele>738.43</ele>
        <time>2017-06-01T10:18:58Z</time>
      </trkpt>
      <trkpt lat="43.93364" lon="6.24556">
        <ele>738.43</ele>
        <time>2017-06-01T10:19:10Z</time>
      </trkpt>
      <trkpt lat="43.93363" lon="6.24557">
        <ele>738.43</ele>
        <time>2017-06-01T10:19:13Z</time>
      </trkpt>
      <trkpt lat="43.9336" lon="6.24559">
        <ele>738.91</ele>
        <time>2017-06-01T10:19:28Z</time>
      </trkpt>
      <trkpt lat="43.93358" lon="6.24553">
        <ele>739.87</ele>
        <time>2017-06-01T10:19:40Z</time>
      </trkpt>
      <trkpt lat="43.9336" lon="6.24553">
        <ele>738.91</ele>
        <time>2017-06-01T10:19:53Z</time>
      </trkpt>
      <trkpt lat="43.93361" lon="6.24562">
        <ele>738.91</ele>
        <time>2017-06-01T10:20:17Z</time>
      </trkpt>
      <trkpt lat="43.93358" lon="6.24563">
        <ele>739.39</ele>
        <time>2017-06-01T10:20:44Z</time>
      </trkpt>
      <trkpt lat="43.93364" lon="6.24564">
        <ele>738.91</ele>
        <time>2017-06-01T10:21:04Z</time>
      </trkpt>
      <trkpt lat="43.93371" lon="6.24569">
        <ele>738.91</ele>
        <time>2017-06-01T10:21:19Z</time>
      </trkpt>
      <trkpt lat="43.93372" lon="6.24565">
        <ele>738.91</ele>
        <time>2017-06-01T10:21:41Z</time>
      </trkpt>
      <trkpt lat="43.93372" lon="6.24563">
        <ele>739.39</ele>
        <time>2017-06-01T10:22:06Z</time>
      </trkpt>
      <trkpt lat="43.93371" lon="6.24562">
        <ele>739.39</ele>
        <time>2017-06-01T10:22:33Z</time>
      </trkpt>
      <trkpt lat="43.9337" lon="6.2456">
        <ele>739.39</ele>
        <time>2017-06-01T10:23:03Z</time>
      </trkpt>
      <trkpt lat="43.93371" lon="6.2456">
        <ele>739.39</ele>
        <time>2017-06-01T10:23:28Z</time>
      </trkpt>
      <trkpt lat="43.93375" lon="6.24562">
        <ele>739.87</ele>
        <time>2017-06-01T10:23:55Z</time>
      </trkpt>
      <trkpt lat="43.93374" lon="6.24561">
        <ele>739.87</ele>
        <time>2017-06-01T10:24:19Z</time>
      </trkpt>
      <trkpt lat="43.93373" lon="6.2456">
        <ele>739.87</ele>
        <time>2017-06-01T10:24:47Z</time>
      </trkpt>
      <trkpt lat="43.9337" lon="6.24561">
        <ele>739.87</ele>
        <time>2017-06-01T10:25:12Z</time>
      </trkpt>
      <trkpt lat="43.93372" lon="6.24557">
        <ele>739.87</ele>
        <time>2017-06-01T10:25:41Z</time>
      </trkpt>
      <trkpt lat="43.93371" lon="6.24555">
        <ele>739.87</ele>
        <time>2017-06-01T10:26:08Z</time>
      </trkpt>
      <trkpt lat="43.93371" lon="6.24555">
        <ele>739.87</ele>
        <time>2017-06-01T10:26:40Z</time>
      </trkpt>
      <trkpt lat="43.93371" lon="6.24553">
        <ele>740.83</ele>
        <time>2017-06-01T10:27:11Z</time>
      </trkpt>
      <trkpt lat="43.93371" lon="6.24553">
        <ele>740.35</ele>
        <time>2017-06-01T10:27:39Z</time>
      </trkpt>
      <trkpt lat="43.93371" lon="6.24551">
        <ele>740.83</ele>
        <time>2017-06-01T10:28:06Z</time>
      </trkpt>
      <trkpt lat="43.93371" lon="6.24552">
        <ele>741.31</ele>
        <time>2017-06-01T10:28:36Z</time>
      </trkpt>
      <trkpt lat="43.93371" lon="6.24551">
        <ele>741.31</ele>
        <time>2017-06-01T10:29:05Z</time>
      </trkpt>
      <trkpt lat="43.93372" lon="6.2455">
        <ele>741.31</ele>
        <time>2017-06-01T10:29:34Z</time>
      </trkpt>
      <trkpt lat="43.93373" lon="6.2455">
        <ele>741.79</ele>
        <time>2017-06-01T10:30:03Z</time>
      </trkpt>
      <trkpt lat="43.93374" lon="6.2455">
        <ele>741.79</ele>
        <time>2017-06-01T10:30:31Z</time>
      </trkpt>
      <trkpt lat="43.93374" lon="6.24549">
        <ele>741.79</ele>
        <time>2017-06-01T10:31:01Z</time>
      </trkpt>
      <trkpt lat="43.93375" lon="6.24549">
        <ele>741.79</ele>
        <time>2017-06-01T10:31:31Z</time>
      </trkpt>
      <trkpt lat="43.93375" lon="6.2455">
        <ele>741.79</ele>
        <time>2017-06-01T10:32:00Z</time>
      </trkpt>
      <trkpt lat="43.93375" lon="6.24549">
        <ele>741.79</ele>
        <time>2017-06-01T10:32:31Z</time>
      </trkpt>
      <trkpt lat="43.93373" lon="6.24549">
        <ele>741.79</ele>
        <time>2017-06-01T10:32:58Z</time>
      </trkpt>
      <trkpt lat="43.93372" lon="6.24548">
        <ele>742.28</ele>
        <time>2017-06-01T10:33:32Z</time>
      </trkpt>
      <trkpt lat="43.93372" lon="6.24549">
        <ele>742.28</ele>
        <time>2017-06-01T10:33:59Z</time>
      </trkpt>
      <trkpt lat="43.93373" lon="6.24549">
        <ele>742.28</ele>
        <time>2017-06-01T10:34:29Z</time>
      </trkpt>
      <trkpt lat="43.93372" lon="6.24549">
        <ele>742.28</ele>
        <time>2017-06-01T10:34:56Z</time>
      </trkpt>
      <trkpt lat="43.93373" lon="6.2455">
        <ele>742.28</ele>
        <time>2017-06-01T10:35:20Z</time>
      </trkpt>
      <trkpt lat="43.93371" lon="6.24547">
        <ele>742.28</ele>
        <time>2017-06-01T10:35:50Z</time>
      </trkpt>
      <trkpt lat="43.93371" lon="6.24548">
        <ele>742.76</ele>
        <time>2017-06-01T10:36:18Z</time>
      </trkpt>
      <trkpt lat="43.93372" lon="6.2455">
        <ele>742.76</ele>
        <time>2017-06-01T10:36:47Z</time>
      </trkpt>
      <trkpt lat="43.93372" lon="6.24551">
        <ele>742.76</ele>
        <time>2017-06-01T10:37:16Z</time>
      </trkpt>
      <trkpt lat="43.93373" lon="6.24552">
        <ele>742.76</ele>
        <time>2017-06-01T10:37:45Z</time>
      </trkpt>
      <trkpt lat="43.93372" lon="6.24553">
        <ele>742.76</ele>
        <time>2017-06-01T10:38:16Z</time>
      </trkpt>
      <trkpt lat="43.93372" lon="6.24552">
        <ele>743.24</ele>
        <time>2017-06-01T10:38:45Z</time>
      </trkpt>
      <trkpt lat="43.9337" lon="6.24551">
        <ele>743.24</ele>
        <time>2017-06-01T10:39:14Z</time>
      </trkpt>
      <trkpt lat="43.9337" lon="6.2455">
        <ele>742.76</ele>
        <time>2017-06-01T10:39:40Z</time>
      </trkpt>
      <trkpt lat="43.93369" lon="6.24549">
        <ele>742.76</ele>
        <time>2017-06-01T10:40:07Z</time>
      </trkpt>
      <trkpt lat="43.93369" lon="6.24548">
        <ele>743.24</ele>
        <time>2017-06-01T10:40:33Z</time>
      </trkpt>
      <trkpt lat="43.93369" lon="6.24547">
        <ele>743.24</ele>
        <time>2017-06-01T10:40:58Z</time>
      </trkpt>
      <trkpt lat="43.93369" lon="6.24547">
        <ele>743.24</ele>
        <time>2017-06-01T10:41:21Z</time>
      </trkpt>
      <trkpt lat="43.93366" lon="6.24547">
        <ele>743.24</ele>
        <time>2017-06-01T10:41:46Z</time>
      </trkpt>
      <trkpt lat="43.93366" lon="6.24547">
        <ele>743.72</ele>
        <time>2017-06-01T10:42:14Z</time>
      </trkpt>
      <trkpt lat="43.93367" lon="6.24547">
        <ele>743.72</ele>
        <time>2017-06-01T10:42:39Z</time>
      </trkpt>
      <trkpt lat="43.93366" lon="6.24548">
        <ele>744.2</ele>
        <time>2017-06-01T10:43:07Z</time>
      </trkpt>
      <trkpt lat="43.93365" lon="6.24548">
        <ele>744.2</ele>
        <time>2017-06-01T10:43:43Z</time>
      </trkpt>
      <trkpt lat="43.93364" lon="6.24548">
        <ele>744.2</ele>
        <time>2017-06-01T10:44:14Z</time>
      </trkpt>
      <trkpt lat="43.93364" lon="6.24548">
        <ele>744.2</ele>
        <time>2017-06-01T10:44:41Z</time>
      </trkpt>
      <trkpt lat="43.93365" lon="6.24549">
        <ele>744.68</ele>
        <time>2017-06-01T10:45:14Z</time>
      </trkpt>
      <trkpt lat="43.93364" lon="6.24548">
        <ele>744.68</ele>
        <time>2017-06-01T10:45:40Z</time>
      </trkpt>
      <trkpt lat="43.93365" lon="6.24548">
        <ele>745.16</ele>
        <time>2017-06-01T10:46:09Z</time>
      </trkpt>
      <trkpt lat="43.93365" lon="6.24549">
        <ele>745.16</ele>
        <time>2017-06-01T10:46:37Z</time>
      </trkpt>
      <trkpt lat="43.93366" lon="6.24551">
        <ele>745.16</ele>
        <time>2017-06-01T10:47:02Z</time>
      </trkpt>
      <trkpt lat="43.93366" lon="6.24551">
        <ele>745.16</ele>
        <time>2017-06-01T10:47:28Z</time>
      </trkpt>
      <trkpt lat="43.93366" lon="6.24551">
        <ele>745.64</ele>
        <time>2017-06-01T10:47:57Z</time>
      </trkpt>
      <trkpt lat="43.93366" lon="6.24551">
        <ele>745.64</ele>
        <time>2017-06-01T10:48:28Z</time>
      </trkpt>
      <trkpt lat="43.93367" lon="6.2455">
        <ele>745.64</ele>
        <time>2017-06-01T10:48:56Z</time>
      </trkpt>
      <trkpt lat="43.93367" lon="6.2455">
        <ele>745.64</ele>
        <time>2017-06-01T10:49:27Z</time>
      </trkpt>
      <trkpt lat="43.93368" lon="6.24549">
        <ele>746.6</ele>
        <time>2017-06-01T10:49:57Z</time>
      </trkpt>
      <trkpt lat="43.93368" lon="6.2455">
        <ele>746.12</ele>
        <time>2017-06-01T10:50:28Z</time>
      </trkpt>
      <trkpt lat="43.93368" lon="6.24549">
        <ele>746.12</ele>
        <time>2017-06-01T10:50:57Z</time>
      </trkpt>
      <trkpt lat="43.93367" lon="6.2455">
        <ele>746.6</ele>
        <time>2017-06-01T10:51:29Z</time>
      </trkpt>
      <trkpt lat="43.93367" lon="6.24551">
        <ele>746.6</ele>
        <time>2017-06-01T10:51:57Z</time>
      </trkpt>
      <trkpt lat="43.93367" lon="6.24551">
        <ele>746.6</ele>
        <time>2017-06-01T10:52:24Z</time>
      </trkpt>
      <trkpt lat="43.93367" lon="6.24551">
        <ele>746.6</ele>
        <time>2017-06-01T10:52:50Z</time>
      </trkpt>
      <trkpt lat="43.93367" lon="6.24552">
        <ele>746.6</ele>
        <time>2017-06-01T10:53:16Z</time>
      </trkpt>
      <trkpt lat="43.93367" lon="6.24551">
        <ele>747.08</ele>
        <time>2017-06-01T10:53:41Z</time>
      </trkpt>
      <trkpt lat="43.93367" lon="6.24552">
        <ele>747.08</ele>
        <time>2017-06-01T10:54:07Z</time>
      </trkpt>
      <trkpt lat="43.93366" lon="6.24552">
        <ele>747.56</ele>
        <time>2017-06-01T10:54:37Z</time>
      </trkpt>
      <trkpt lat="43.93366" lon="6.24551">
        <ele>747.56</ele>
        <time>2017-06-01T10:55:02Z</time>
      </trkpt>
      <trkpt lat="43.93367" lon="6.24552">
        <ele>747.56</ele>
        <time>2017-06-01T10:55:31Z</time>
      </trkpt>
      <trkpt lat="43.93366" lon="6.24552">
        <ele>748.04</ele>
        <time>2017-06-01T10:55:54Z</time>
      </trkpt>
      <trkpt lat="43.93366" lon="6.24553">
        <ele>748.04</ele>
        <time>2017-06-01T10:56:12Z</time>
      </trkpt>
      <trkpt lat="43.93367" lon="6.24554">
        <ele>748.52</ele>
        <time>2017-06-01T10:56:40Z</time>
      </trkpt>
      <trkpt lat="43.93368" lon="6.24555">
        <ele>748.04</ele>
        <time>2017-06-01T10:57:09Z</time>
      </trkpt>
      <trkpt lat="43.93368" lon="6.24554">
        <ele>748.52</ele>
        <time>2017-06-01T10:57:32Z</time>
      </trkpt>
      <trkpt lat="43.93368" lon="6.24554">
        <ele>748.04</ele>
        <time>2017-06-01T10:57:54Z</time>
      </trkpt>
      <trkpt lat="43.93366" lon="6.24556">
        <ele>748.04</ele>
        <time>2017-06-01T10:58:14Z</time>
      </trkpt>
      <trkpt lat="43.93366" lon="6.24561">
        <ele>748.04</ele>
        <time>2017-06-01T10:58:45Z</time>
      </trkpt>
      <trkpt lat="43.93366" lon="6.2456">
        <ele>748.52</ele>
        <time>2017-06-01T10:59:16Z</time>
      </trkpt>
      <trkpt lat="43.93366" lon="6.24562">
        <ele>748.52</ele>
        <time>2017-06-01T10:59:47Z</time>
      </trkpt>
      <trkpt lat="43.93366" lon="6.2456">
        <ele>748.52</ele>
        <time>2017-06-01T11:00:17Z</time>
      </trkpt>
      <trkpt lat="43.93365" lon="6.24562">
        <ele>748.52</ele>
        <time>2017-06-01T11:00:48Z</time>
      </trkpt>
      <trkpt lat="43.93365" lon="6.24563">
        <ele>748.52</ele>
        <time>2017-06-01T11:01:20Z</time>
      </trkpt>
      <trkpt lat="43.93365" lon="6.24563">
        <ele>749</ele>
        <time>2017-06-01T11:01:48Z</time>
      </trkpt>
      <trkpt lat="43.93366" lon="6.24562">
        <ele>748.52</ele>
        <time>2017-06-01T11:02:16Z</time>
      </trkpt>
      <trkpt lat="43.93366" lon="6.24561">
        <ele>749</ele>
        <time>2017-06-01T11:02:42Z</time>
      </trkpt>
      <trkpt lat="43.93368" lon="6.24559">
        <ele>749</ele>
        <time>2017-06-01T11:03:06Z</time>
      </trkpt>
      <trkpt lat="43.93366" lon="6.2456">
        <ele>749</ele>
        <time>2017-06-01T11:03:24Z</time>
      </trkpt>
      <trkpt lat="43.93368" lon="6.24558">
        <ele>749</ele>
        <time>2017-06-01T11:03:48Z</time>
      </trkpt>
      <trkpt lat="43.93369" lon="6.24559">
        <ele>749</ele>
        <time>2017-06-01T11:04:10Z</time>
      </trkpt>
      <trkpt lat="43.93369" lon="6.24557">
        <ele>749.49</ele>
        <time>2017-06-01T11:04:31Z</time>
      </trkpt>
      <trkpt lat="43.93369" lon="6.24557">
        <ele>749.49</ele>
        <time>2017-06-01T11:05:02Z</time>
      </trkpt>
      <trkpt lat="43.93369" lon="6.24558">
        <ele>749.97</ele>
        <time>2017-06-01T11:05:30Z</time>
      </trkpt>
      <trkpt lat="43.93368" lon="6.24556">
        <ele>749</ele>
        <time>2017-06-01T11:05:56Z</time>
      </trkpt>
      <trkpt lat="43.93366" lon="6.24555">
        <ele>749.49</ele>
        <time>2017-06-01T11:06:25Z</time>
      </trkpt>
      <trkpt lat="43.93365" lon="6.24555">
        <ele>749.49</ele>
        <time>2017-06-01T11:06:52Z</time>
      </trkpt>
      <trkpt lat="43.93366" lon="6.24555">
        <ele>749.49</ele>
        <time>2017-06-01T11:07:23Z</time>
      </trkpt>
      <trkpt lat="43.93365" lon="6.24554">
        <ele>749.49</ele>
        <time>2017-06-01T11:07:50Z</time>
      </trkpt>
      <trkpt lat="43.93365" lon="6.24553">
        <ele>749.97</ele>
        <time>2017-06-01T11:08:25Z</time>
      </trkpt>
      <trkpt lat="43.93365" lon="6.24554">
        <ele>749.97</ele>
        <time>2017-06-01T11:08:52Z</time>
      </trkpt>
      <trkpt lat="43.93364" lon="6.24554">
        <ele>749.97</ele>
        <time>2017-06-01T11:09:24Z</time>
      </trkpt>
      <trkpt lat="43.93364" lon="6.24555">
        <ele>749.97</ele>
        <time>2017-06-01T11:09:55Z</time>
      </trkpt>
      <trkpt lat="43.93364" lon="6.24554">
        <ele>749.97</ele>
        <time>2017-06-01T11:10:23Z</time>
      </trkpt>
      <trkpt lat="43.93364" lon="6.24553">
        <ele>749.97</ele>
        <time>2017-06-01T11:10:49Z</time>
      </trkpt>
      <trkpt lat="43.93364" lon="6.24553">
        <ele>750.45</ele>
        <time>2017-06-01T11:11:16Z</time>
      </trkpt>
      <trkpt lat="43.93364" lon="6.24552">
        <ele>750.45</ele>
        <time>2017-06-01T11:11:44Z</time>
      </trkpt>
      <trkpt lat="43.93364" lon="6.24553">
        <ele>750.45</ele>
        <time>2017-06-01T11:12:11Z</time>
      </trkpt>
      <trkpt lat="43.93364" lon="6.24552">
        <ele>749.97</ele>
        <time>2017-06-01T11:12:44Z</time>
      </trkpt>
      <trkpt lat="43.93362" lon="6.24551">
        <ele>750.45</ele>
        <time>2017-06-01T11:13:15Z</time>
      </trkpt>
      <trkpt lat="43.93363" lon="6.24551">
        <ele>749.97</ele>
        <time>2017-06-01T11:13:46Z</time>
      </trkpt>
      <trkpt lat="43.93364" lon="6.24553">
        <ele>749.97</ele>
        <time>2017-06-01T11:14:19Z</time>
      </trkpt>
      <trkpt lat="43.93364" lon="6.24554">
        <ele>749.97</ele>
        <time>2017-06-01T11:14:51Z</time>
      </trkpt>
      <trkpt lat="43.93363" lon="6.24554">
        <ele>749.97</ele>
        <time>2017-06-01T11:15:26Z</time>
      </trkpt>
      <trkpt lat="43.93364" lon="6.24552">
        <ele>749.97</ele>
        <time>2017-06-01T11:15:58Z</time>
      </trkpt>
      <trkpt lat="43.93364" lon="6.24552">
        <ele>749.97</ele>
        <time>2017-06-01T11:16:33Z</time>
      </trkpt>
      <trkpt lat="43.93364" lon="6.24553">
        <ele>749.97</ele>
        <time>2017-06-01T11:17:03Z</time>
      </trkpt>
      <trkpt lat="43.93364" lon="6.24552">
        <ele>749.97</ele>
        <time>2017-06-01T11:17:28Z</time>
      </trkpt>
      <trkpt lat="43.93363" lon="6.24551">
        <ele>749.97</ele>
        <time>2017-06-01T11:18:03Z</time>
      </trkpt>
      <trkpt lat="43.93362" lon="6.24552">
        <ele>749.97</ele>
        <time>2017-06-01T11:18:38Z</time>
      </trkpt>
      <trkpt lat="43.93362" lon="6.24553">
        <ele>749.97</ele>
        <time>2017-06-01T11:19:06Z</time>
      </trkpt>
      <trkpt lat="43.93361" lon="6.24554">
        <ele>749.97</ele>
        <time>2017-06-01T11:19:37Z</time>
      </trkpt>
      <trkpt lat="43.93361" lon="6.24554">
        <ele>750.45</ele>
        <time>2017-06-01T11:19:56Z</time>
      </trkpt>
      <trkpt lat="43.93361" lon="6.24555">
        <ele>750.45</ele>
        <time>2017-06-01T11:20:27Z</time>
      </trkpt>
      <trkpt lat="43.93362" lon="6.24554">
        <ele>749.49</ele>
        <time>2017-06-01T11:20:53Z</time>
      </trkpt>
      <trkpt lat="43.93361" lon="6.24554">
        <ele>750.45</ele>
        <time>2017-06-01T11:21:17Z</time>
      </trkpt>
      <trkpt lat="43.9336" lon="6.24553">
        <ele>750.45</ele>
        <time>2017-06-01T11:21:48Z</time>
      </trkpt>
      <trkpt lat="43.9336" lon="6.2455">
        <ele>750.45</ele>
        <time>2017-06-01T11:22:18Z</time>
      </trkpt>
      <trkpt lat="43.9336" lon="6.24551">
        <ele>751.41</ele>
        <time>2017-06-01T11:22:40Z</time>
      </trkpt>
      <trkpt lat="43.9336" lon="6.24551">
        <ele>751.41</ele>
        <time>2017-06-01T11:22:57Z</time>
      </trkpt>
      <trkpt lat="43.93361" lon="6.24551">
        <ele>751.41</ele>
        <time>2017-06-01T11:23:21Z</time>
      </trkpt>
      <trkpt lat="43.93362" lon="6.24553">
        <ele>750.45</ele>
        <time>2017-06-01T11:23:40Z</time>
      </trkpt>
      <trkpt lat="43.93371" lon="6.24546">
        <ele>750.45</ele>
        <time>2017-06-01T11:23:54Z</time>
      </trkpt>
      <trkpt lat="43.93374" lon="6.24546">
        <ele>750.45</ele>
        <time>2017-06-01T11:24:16Z</time>
      </trkpt>
      <trkpt lat="43.93374" lon="6.24546">
        <ele>750.45</ele>
        <time>2017-06-01T11:24:35Z</time>
      </trkpt>
      <trkpt lat="43.93376" lon="6.24546">
        <ele>750.45</ele>
        <time>2017-06-01T11:24:41Z</time>
      </trkpt>
      <trkpt lat="43.93378" lon="6.24538">
        <ele>750.93</ele>
        <time>2017-06-01T11:24:54Z</time>
      </trkpt>
      <trkpt lat="43.93375" lon="6.24529">
        <ele>751.41</ele>
        <time>2017-06-01T11:25:06Z</time>
      </trkpt>
      <trkpt lat="43.93378" lon="6.24519">
        <ele>753.33</ele>
        <time>2017-06-01T11:25:24Z</time>
      </trkpt>
      <trkpt lat="43.93386" lon="6.24505">
        <ele>754.77</ele>
        <time>2017-06-01T11:25:40Z</time>
      </trkpt>
      <trkpt lat="43.93392" lon="6.24496">
        <ele>756.21</ele>
        <time>2017-06-01T11:25:56Z</time>
      </trkpt>
      <trkpt lat="43.93399" lon="6.2448">
        <ele>757.18</ele>
        <time>2017-06-01T11:26:12Z</time>
      </trkpt>
      <trkpt lat="43.93399" lon="6.24463">
        <ele>759.1</ele>
        <time>2017-06-01T11:26:28Z</time>
      </trkpt>
      <trkpt lat="43.93405" lon="6.24452">
        <ele>760.54</ele>
        <time>2017-06-01T11:26:47Z</time>
      </trkpt>
      <trkpt lat="43.93411" lon="6.24445">
        <ele>761.98</ele>
        <time>2017-06-01T11:27:04Z</time>
      </trkpt>
      <trkpt lat="43.93413" lon="6.24439">
        <ele>762.94</ele>
        <time>2017-06-01T11:27:21Z</time>
      </trkpt>
      <trkpt lat="43.93417" lon="6.24431">
        <ele>764.39</ele>
        <time>2017-06-01T11:27:36Z</time>
      </trkpt>
      <trkpt lat="43.93434" lon="6.24419">
        <ele>765.83</ele>
        <time>2017-06-01T11:27:51Z</time>
      </trkpt>
      <trkpt lat="43.93446" lon="6.24415">
        <ele>767.27</ele>
        <time>2017-06-01T11:28:04Z</time>
      </trkpt>
      <trkpt lat="43.93458" lon="6.24409">
        <ele>768.71</ele>
        <time>2017-06-01T11:28:20Z</time>
      </trkpt>
      <trkpt lat="43.93474" lon="6.24391">
        <ele>771.11</ele>
        <time>2017-06-01T11:28:35Z</time>
      </trkpt>
      <trkpt lat="43.93481" lon="6.24385">
        <ele>772.56</ele>
        <time>2017-06-01T11:28:47Z</time>
      </trkpt>
      <trkpt lat="43.93487" lon="6.24367">
        <ele>774</ele>
        <time>2017-06-01T11:29:00Z</time>
      </trkpt>
      <trkpt lat="43.93488" lon="6.2435">
        <ele>775.44</ele>
        <time>2017-06-01T11:29:14Z</time>
      </trkpt>
      <trkpt lat="43.93484" lon="6.24335">
        <ele>776.88</ele>
        <time>2017-06-01T11:29:27Z</time>
      </trkpt>
      <trkpt lat="43.93473" lon="6.2433">
        <ele>777.84</ele>
        <time>2017-06-01T11:29:39Z</time>
      </trkpt>
      <trkpt lat="43.93463" lon="6.24334">
        <ele>779.77</ele>
        <time>2017-06-01T11:29:52Z</time>
      </trkpt>
      <trkpt lat="43.93461" lon="6.24335">
        <ele>780.25</ele>
        <time>2017-06-01T11:29:54Z</time>
      </trkpt>
      <trkpt lat="43.93447" lon="6.24336">
        <ele>781.69</ele>
        <time>2017-06-01T11:30:08Z</time>
      </trkpt>
      <trkpt lat="43.93435" lon="6.24334">
        <ele>783.13</ele>
        <time>2017-06-01T11:30:23Z</time>
      </trkpt>
      <trkpt lat="43.93426" lon="6.24342">
        <ele>785.05</ele>
        <time>2017-06-01T11:30:36Z</time>
      </trkpt>
      <trkpt lat="43.93414" lon="6.24347">
        <ele>786.5</ele>
        <time>2017-06-01T11:30:49Z</time>
      </trkpt>
      <trkpt lat="43.93402" lon="6.24346">
        <ele>787.46</ele>
        <time>2017-06-01T11:31:02Z</time>
      </trkpt>
      <trkpt lat="43.93402" lon="6.24347">
        <ele>787.46</ele>
        <time>2017-06-01T11:31:03Z</time>
      </trkpt>
      <trkpt lat="43.9339" lon="6.24351">
        <ele>788.9</ele>
        <time>2017-06-01T11:31:15Z</time>
      </trkpt>
      <trkpt lat="43.93381" lon="6.24353">
        <ele>789.86</ele>
        <time>2017-06-01T11:31:30Z</time>
      </trkpt>
      <trkpt lat="43.93372" lon="6.2435">
        <ele>790.82</ele>
        <time>2017-06-01T11:31:43Z</time>
      </trkpt>
      <trkpt lat="43.93365" lon="6.24348">
        <ele>791.78</ele>
        <time>2017-06-01T11:31:55Z</time>
      </trkpt>
      <trkpt lat="43.93366" lon="6.24349">
        <ele>791.78</ele>
        <time>2017-06-01T11:32:18Z</time>
      </trkpt>
      <trkpt lat="43.93364" lon="6.24347">
        <ele>792.26</ele>
        <time>2017-06-01T11:32:34Z</time>
      </trkpt>
      <trkpt lat="43.93362" lon="6.24345">
        <ele>792.74</ele>
        <time>2017-06-01T11:32:48Z</time>
      </trkpt>
      <trkpt lat="43.93346" lon="6.24342">
        <ele>793.71</ele>
        <time>2017-06-01T11:33:03Z</time>
      </trkpt>
      <trkpt lat="43.93337" lon="6.24337">
        <ele>794.67</ele>
        <time>2017-06-01T11:33:14Z</time>
      </trkpt>
      <trkpt lat="43.93321" lon="6.24331">
        <ele>796.11</ele>
        <time>2017-06-01T11:33:29Z</time>
      </trkpt>
      <trkpt lat="43.93314" lon="6.24325">
        <ele>796.59</ele>
        <time>2017-06-01T11:33:39Z</time>
      </trkpt>
      <trkpt lat="43.93303" lon="6.24322">
        <ele>797.55</ele>
        <time>2017-06-01T11:33:54Z</time>
      </trkpt>
      <trkpt lat="43.93292" lon="6.24314">
        <ele>798.51</ele>
        <time>2017-06-01T11:34:09Z</time>
      </trkpt>
      <trkpt lat="43.93281" lon="6.24308">
        <ele>799.95</ele>
        <time>2017-06-01T11:34:24Z</time>
      </trkpt>
      <trkpt lat="43.93279" lon="6.24308">
        <ele>800.44</ele>
        <time>2017-06-01T11:34:27Z</time>
      </trkpt>
      <trkpt lat="43.9327" lon="6.24308">
        <ele>801.88</ele>
        <time>2017-06-01T11:34:43Z</time>
      </trkpt>
      <trkpt lat="43.93263" lon="6.24299">
        <ele>802.36</ele>
        <time>2017-06-01T11:34:56Z</time>
      </trkpt>
      <trkpt lat="43.93258" lon="6.24289">
        <ele>803.8</ele>
        <time>2017-06-01T11:35:11Z</time>
      </trkpt>
      <trkpt lat="43.93256" lon="6.24281">
        <ele>804.76</ele>
        <time>2017-06-01T11:35:24Z</time>
      </trkpt>
      <trkpt lat="43.93248" lon="6.24272">
        <ele>805.72</ele>
        <time>2017-06-01T11:35:39Z</time>
      </trkpt>
      <trkpt lat="43.9324" lon="6.24277">
        <ele>806.68</ele>
        <time>2017-06-01T11:35:49Z</time>
      </trkpt>
      <trkpt lat="43.93239" lon="6.24278">
        <ele>806.2</ele>
        <time>2017-06-01T11:35:50Z</time>
      </trkpt>
      <trkpt lat="43.93231" lon="6.24263">
        <ele>807.16</ele>
        <time>2017-06-01T11:36:02Z</time>
      </trkpt>
      <trkpt lat="43.93219" lon="6.24245">
        <ele>808.13</ele>
        <time>2017-06-01T11:36:18Z</time>
      </trkpt>
      <trkpt lat="43.93219" lon="6.24219">
        <ele>808.61</ele>
        <time>2017-06-01T11:36:35Z</time>
      </trkpt>
      <trkpt lat="43.93213" lon="6.24219">
        <ele>809.57</ele>
        <time>2017-06-01T11:36:51Z</time>
      </trkpt>
      <trkpt lat="43.93211" lon="6.24215">
        <ele>809.57</ele>
        <time>2017-06-01T11:37:13Z</time>
      </trkpt>
      <trkpt lat="43.93212" lon="6.24216">
        <ele>809.57</ele>
        <time>2017-06-01T11:37:40Z</time>
      </trkpt>
      <trkpt lat="43.93212" lon="6.24214">
        <ele>809.57</ele>
        <time>2017-06-01T11:38:02Z</time>
      </trkpt>
      <trkpt lat="43.93211" lon="6.24212">
        <ele>810.05</ele>
        <time>2017-06-01T11:38:25Z</time>
      </trkpt>
      <trkpt lat="43.93213" lon="6.24216">
        <ele>810.05</ele>
        <time>2017-06-01T11:38:49Z</time>
      </trkpt>
      <trkpt lat="43.93213" lon="6.2421">
        <ele>811.01</ele>
        <time>2017-06-01T11:39:07Z</time>
      </trkpt>
      <trkpt lat="43.93217" lon="6.24205">
        <ele>811.97</ele>
        <time>2017-06-01T11:39:21Z</time>
      </trkpt>
      <trkpt lat="43.93222" lon="6.242">
        <ele>812.93</ele>
        <time>2017-06-01T11:39:36Z</time>
      </trkpt>
      <trkpt lat="43.93232" lon="6.24194">
        <ele>814.37</ele>
        <time>2017-06-01T11:39:49Z</time>
      </trkpt>
      <trkpt lat="43.93238" lon="6.2419">
        <ele>814.85</ele>
        <time>2017-06-01T11:40:07Z</time>
      </trkpt>
      <trkpt lat="43.93245" lon="6.24187">
        <ele>815.82</ele>
        <time>2017-06-01T11:40:20Z</time>
      </trkpt>
      <trkpt lat="43.93253" lon="6.24184">
        <ele>816.3</ele>
        <time>2017-06-01T11:40:31Z</time>
      </trkpt>
      <trkpt lat="43.93265" lon="6.24191">
        <ele>817.74</ele>
        <time>2017-06-01T11:40:48Z</time>
      </trkpt>
      <trkpt lat="43.93281" lon="6.24193">
        <ele>818.22</ele>
        <time>2017-06-01T11:41:03Z</time>
      </trkpt>
      <trkpt lat="43.93287" lon="6.24196">
        <ele>818.7</ele>
        <time>2017-06-01T11:41:09Z</time>
      </trkpt>
      <trkpt lat="43.933" lon="6.24203">
        <ele>819.18</ele>
        <time>2017-06-01T11:41:19Z</time>
      </trkpt>
      <trkpt lat="43.93308" lon="6.24206">
        <ele>819.66</ele>
        <time>2017-06-01T11:41:32Z</time>
      </trkpt>
      <trkpt lat="43.93312" lon="6.24205">
        <ele>819.66</ele>
        <time>2017-06-01T11:41:48Z</time>
      </trkpt>
      <trkpt lat="43.93318" lon="6.24206">
        <ele>820.62</ele>
        <time>2017-06-01T11:42:04Z</time>
      </trkpt>
      <trkpt lat="43.93319" lon="6.24206">
        <ele>821.1</ele>
        <time>2017-06-01T11:42:08Z</time>
      </trkpt>
      <trkpt lat="43.93322" lon="6.24208">
        <ele>821.1</ele>
        <time>2017-06-01T11:42:27Z</time>
      </trkpt>
      <trkpt lat="43.93324" lon="6.24206">
        <ele>821.58</ele>
        <time>2017-06-01T11:42:42Z</time>
      </trkpt>
      <trkpt lat="43.93328" lon="6.24203">
        <ele>822.06</ele>
        <time>2017-06-01T11:42:55Z</time>
      </trkpt>
      <trkpt lat="43.93337" lon="6.24198">
        <ele>823.03</ele>
        <time>2017-06-01T11:43:01Z</time>
      </trkpt>
      <trkpt lat="43.93344" lon="6.24195">
        <ele>823.51</ele>
        <time>2017-06-01T11:43:06Z</time>
      </trkpt>
      <trkpt lat="43.93365" lon="6.24191">
        <ele>824.47</ele>
        <time>2017-06-01T11:43:21Z</time>
      </trkpt>
      <trkpt lat="43.93368" lon="6.24206">
        <ele>825.91</ele>
        <time>2017-06-01T11:43:33Z</time>
      </trkpt>
      <trkpt lat="43.93375" lon="6.24221">
        <ele>827.35</ele>
        <time>2017-06-01T11:43:47Z</time>
      </trkpt>
      <trkpt lat="43.93384" lon="6.24221">
        <ele>828.31</ele>
        <time>2017-06-01T11:43:59Z</time>
      </trkpt>
      <trkpt lat="43.93395" lon="6.24215">
        <ele>829.76</ele>
        <time>2017-06-01T11:44:12Z</time>
      </trkpt>
      <trkpt lat="43.93418" lon="6.24207">
        <ele>830.72</ele>
        <time>2017-06-01T11:44:27Z</time>
      </trkpt>
      <trkpt lat="43.93428" lon="6.24202">
        <ele>831.68</ele>
        <time>2017-06-01T11:44:39Z</time>
      </trkpt>
      <trkpt lat="43.93436" lon="6.2419">
        <ele>833.12</ele>
        <time>2017-06-01T11:44:52Z</time>
      </trkpt>
      <trkpt lat="43.93445" lon="6.24182">
        <ele>834.08</ele>
        <time>2017-06-01T11:45:05Z</time>
      </trkpt>
      <trkpt lat="43.93456" lon="6.24179">
        <ele>834.56</ele>
        <time>2017-06-01T11:45:16Z</time>
      </trkpt>
      <trkpt lat="43.9346" lon="6.24173">
        <ele>835.52</ele>
        <time>2017-06-01T11:45:24Z</time>
      </trkpt>
      <trkpt lat="43.93472" lon="6.24171">
        <ele>836.48</ele>
        <time>2017-06-01T11:45:38Z</time>
      </trkpt>
      <trkpt lat="43.93487" lon="6.24176">
        <ele>837.45</ele>
        <time>2017-06-01T11:45:54Z</time>
      </trkpt>
      <trkpt lat="43.93498" lon="6.24182">
        <ele>838.41</ele>
        <time>2017-06-01T11:46:05Z</time>
      </trkpt>
      <trkpt lat="43.93512" lon="6.24196">
        <ele>838.89</ele>
        <time>2017-06-01T11:46:18Z</time>
      </trkpt>
      <trkpt lat="43.93516" lon="6.24207">
        <ele>840.33</ele>
        <time>2017-06-01T11:46:26Z</time>
      </trkpt>
      <trkpt lat="43.93522" lon="6.24223">
        <ele>841.77</ele>
        <time>2017-06-01T11:46:41Z</time>
      </trkpt>
      <trkpt lat="43.93528" lon="6.24227">
        <ele>842.25</ele>
        <time>2017-06-01T11:46:50Z</time>
      </trkpt>
      <trkpt lat="43.93529" lon="6.2423">
        <ele>842.73</ele>
        <time>2017-06-01T11:46:52Z</time>
      </trkpt>
      <trkpt lat="43.93536" lon="6.24241">
        <ele>844.18</ele>
        <time>2017-06-01T11:47:06Z</time>
      </trkpt>
      <trkpt lat="43.93543" lon="6.24236">
        <ele>844.66</ele>
        <time>2017-06-01T11:47:18Z</time>
      </trkpt>
      <trkpt lat="43.93546" lon="6.24233">
        <ele>846.1</ele>
        <time>2017-06-01T11:47:32Z</time>
      </trkpt>
      <trkpt lat="43.93548" lon="6.2423">
        <ele>846.58</ele>
        <time>2017-06-01T11:47:42Z</time>
      </trkpt>
      <trkpt lat="43.93551" lon="6.24227">
        <ele>847.54</ele>
        <time>2017-06-01T11:47:54Z</time>
      </trkpt>
      <trkpt lat="43.93554" lon="6.24222">
        <ele>848.5</ele>
        <time>2017-06-01T11:48:07Z</time>
      </trkpt>
      <trkpt lat="43.93559" lon="6.24214">
        <ele>848.98</ele>
        <time>2017-06-01T11:48:19Z</time>
      </trkpt>
      <trkpt lat="43.93567" lon="6.24199">
        <ele>849.94</ele>
        <time>2017-06-01T11:48:30Z</time>
      </trkpt>
      <trkpt lat="43.93584" lon="6.24185">
        <ele>850.42</ele>
        <time>2017-06-01T11:48:43Z</time>
      </trkpt>
      <trkpt lat="43.93614" lon="6.24156">
        <ele>851.38</ele>
        <time>2017-06-01T11:48:55Z</time>
      </trkpt>
      <trkpt lat="43.93637" lon="6.24128">
        <ele>852.35</ele>
        <time>2017-06-01T11:49:06Z</time>
      </trkpt>
      <trkpt lat="43.93641" lon="6.24113">
        <ele>853.31</ele>
        <time>2017-06-01T11:49:18Z</time>
      </trkpt>
      <trkpt lat="43.93647" lon="6.24092">
        <ele>854.27</ele>
        <time>2017-06-01T11:49:31Z</time>
      </trkpt>
      <trkpt lat="43.93661" lon="6.24069">
        <ele>854.27</ele>
        <time>2017-06-01T11:49:42Z</time>
      </trkpt>
      <trkpt lat="43.93666" lon="6.24055">
        <ele>855.23</ele>
        <time>2017-06-01T11:49:52Z</time>
      </trkpt>
      <trkpt lat="43.93671" lon="6.24038">
        <ele>855.71</ele>
        <time>2017-06-01T11:50:02Z</time>
      </trkpt>
      <trkpt lat="43.93679" lon="6.24016">
        <ele>857.15</ele>
        <time>2017-06-01T11:50:16Z</time>
      </trkpt>
      <trkpt lat="43.93696" lon="6.23981">
        <ele>858.59</ele>
        <time>2017-06-01T11:50:28Z</time>
      </trkpt>
      <trkpt lat="43.93702" lon="6.23963">
        <ele>859.08</ele>
        <time>2017-06-01T11:50:41Z</time>
      </trkpt>
      <trkpt lat="43.93713" lon="6.2395">
        <ele>860.04</ele>
        <time>2017-06-01T11:50:54Z</time>
      </trkpt>
      <trkpt lat="43.93727" lon="6.23939">
        <ele>861</ele>
        <time>2017-06-01T11:51:09Z</time>
      </trkpt>
      <trkpt lat="43.93726" lon="6.23922">
        <ele>861.96</ele>
        <time>2017-06-01T11:51:22Z</time>
      </trkpt>
      <trkpt lat="43.93724" lon="6.23915">
        <ele>862.44</ele>
        <time>2017-06-01T11:51:27Z</time>
      </trkpt>
      <trkpt lat="43.93722" lon="6.2391">
        <ele>862.92</ele>
        <time>2017-06-01T11:51:31Z</time>
      </trkpt>
      <trkpt lat="43.93714" lon="6.23894">
        <ele>863.88</ele>
        <time>2017-06-01T11:51:45Z</time>
      </trkpt>
      <trkpt lat="43.93713" lon="6.2389">
        <ele>864.36</ele>
        <time>2017-06-01T11:51:48Z</time>
      </trkpt>
      <trkpt lat="43.93706" lon="6.23878">
        <ele>864.84</ele>
        <time>2017-06-01T11:51:59Z</time>
      </trkpt>
      <trkpt lat="43.93704" lon="6.23871">
        <ele>865.32</ele>
        <time>2017-06-01T11:52:03Z</time>
      </trkpt>
      <trkpt lat="43.937" lon="6.23858">
        <ele>866.29</ele>
        <time>2017-06-01T11:52:13Z</time>
      </trkpt>
      <trkpt lat="43.93697" lon="6.23858">
        <ele>866.29</ele>
        <time>2017-06-01T11:52:17Z</time>
      </trkpt>
      <trkpt lat="43.93692" lon="6.23855">
        <ele>867.25</ele>
        <time>2017-06-01T11:52:21Z</time>
      </trkpt>
      <trkpt lat="43.93689" lon="6.2385">
        <ele>867.25</ele>
        <time>2017-06-01T11:52:26Z</time>
      </trkpt>
      <trkpt lat="43.93685" lon="6.2383">
        <ele>868.21</ele>
        <time>2017-06-01T11:52:39Z</time>
      </trkpt>
      <trkpt lat="43.93682" lon="6.23822">
        <ele>868.69</ele>
        <time>2017-06-01T11:52:45Z</time>
      </trkpt>
      <trkpt lat="43.93678" lon="6.23804">
        <ele>869.65</ele>
        <time>2017-06-01T11:52:59Z</time>
      </trkpt>
      <trkpt lat="43.93677" lon="6.23798">
        <ele>870.13</ele>
        <time>2017-06-01T11:53:03Z</time>
      </trkpt>
      <trkpt lat="43.93676" lon="6.23793">
        <ele>870.13</ele>
        <time>2017-06-01T11:53:07Z</time>
      </trkpt>
      <trkpt lat="43.93675" lon="6.23789">
        <ele>870.61</ele>
        <time>2017-06-01T11:53:10Z</time>
      </trkpt>
      <trkpt lat="43.93676" lon="6.23781">
        <ele>870.61</ele>
        <time>2017-06-01T11:53:15Z</time>
      </trkpt>
      <trkpt lat="43.93679" lon="6.23761">
        <ele>872.53</ele>
        <time>2017-06-01T11:53:30Z</time>
      </trkpt>
      <trkpt lat="43.9368" lon="6.23759">
        <ele>873.01</ele>
        <time>2017-06-01T11:53:33Z</time>
      </trkpt>
      <trkpt lat="43.93684" lon="6.2374">
        <ele>874.46</ele>
        <time>2017-06-01T11:53:46Z</time>
      </trkpt>
      <trkpt lat="43.93685" lon="6.23732">
        <ele>874.94</ele>
        <time>2017-06-01T11:53:52Z</time>
      </trkpt>
      <trkpt lat="43.93686" lon="6.23719">
        <ele>875.9</ele>
        <time>2017-06-01T11:54:02Z</time>
      </trkpt>
      <trkpt lat="43.93689" lon="6.23707">
        <ele>876.86</ele>
        <time>2017-06-01T11:54:10Z</time>
      </trkpt>
      <trkpt lat="43.93698" lon="6.23693">
        <ele>877.82</ele>
        <time>2017-06-01T11:54:25Z</time>
      </trkpt>
      <trkpt lat="43.93708" lon="6.2368">
        <ele>879.26</ele>
        <time>2017-06-01T11:54:39Z</time>
      </trkpt>
      <trkpt lat="43.93714" lon="6.23673">
        <ele>880.22</ele>
        <time>2017-06-01T11:54:49Z</time>
      </trkpt>
      <trkpt lat="43.93728" lon="6.23662">
        <ele>881.67</ele>
        <time>2017-06-01T11:55:03Z</time>
      </trkpt>
      <trkpt lat="43.93735" lon="6.23651">
        <ele>882.63</ele>
        <time>2017-06-01T11:55:15Z</time>
      </trkpt>
      <trkpt lat="43.93747" lon="6.2364">
        <ele>884.07</ele>
        <time>2017-06-01T11:55:29Z</time>
      </trkpt>
      <trkpt lat="43.93752" lon="6.23638">
        <ele>884.55</ele>
        <time>2017-06-01T11:55:44Z</time>
      </trkpt>
      <trkpt lat="43.93754" lon="6.23638">
        <ele>884.55</ele>
        <time>2017-06-01T11:56:03Z</time>
      </trkpt>
      <trkpt lat="43.93755" lon="6.23634">
        <ele>884.55</ele>
        <time>2017-06-01T11:56:23Z</time>
      </trkpt>
      <trkpt lat="43.93755" lon="6.23634">
        <ele>884.55</ele>
        <time>2017-06-01T11:56:36Z</time>
      </trkpt>
      <trkpt lat="43.93755" lon="6.23634">
        <ele>884.55</ele>
        <time>2017-06-01T11:56:58Z</time>
      </trkpt>
      <trkpt lat="43.93756" lon="6.23634">
        <ele>884.55</ele>
        <time>2017-06-01T11:57:21Z</time>
      </trkpt>
      <trkpt lat="43.93756" lon="6.23634">
        <ele>884.55</ele>
        <time>2017-06-01T11:57:42Z</time>
      </trkpt>
      <trkpt lat="43.93757" lon="6.23632">
        <ele>884.55</ele>
        <time>2017-06-01T11:57:54Z</time>
      </trkpt>
      <trkpt lat="43.93761" lon="6.23624">
        <ele>885.03</ele>
        <time>2017-06-01T11:58:08Z</time>
      </trkpt>
      <trkpt lat="43.93763" lon="6.23621">
        <ele>885.03</ele>
        <time>2017-06-01T11:58:23Z</time>
      </trkpt>
      <trkpt lat="43.93764" lon="6.23621">
        <ele>885.03</ele>
        <time>2017-06-01T11:58:44Z</time>
      </trkpt>
      <trkpt lat="43.93766" lon="6.2362">
        <ele>884.55</ele>
        <time>2017-06-01T11:59:02Z</time>
      </trkpt>
      <trkpt lat="43.93766" lon="6.23619">
        <ele>884.55</ele>
        <time>2017-06-01T11:59:26Z</time>
      </trkpt>
      <trkpt lat="43.93766" lon="6.23619">
        <ele>884.55</ele>
        <time>2017-06-01T11:59:46Z</time>
      </trkpt>
      <trkpt lat="43.93767" lon="6.23614">
        <ele>884.55</ele>
        <time>2017-06-01T11:59:52Z</time>
      </trkpt>
      <trkpt lat="43.93769" lon="6.23596">
        <ele>885.99</ele>
        <time>2017-06-01T12:00:07Z</time>
      </trkpt>
      <trkpt lat="43.93764" lon="6.23581">
        <ele>886.47</ele>
        <time>2017-06-01T12:00:21Z</time>
      </trkpt>
      <trkpt lat="43.93766" lon="6.23569">
        <ele>886.95</ele>
        <time>2017-06-01T12:00:30Z</time>
      </trkpt>
      <trkpt lat="43.93767" lon="6.2355">
        <ele>887.91</ele>
        <time>2017-06-01T12:00:44Z</time>
      </trkpt>
      <trkpt lat="43.93769" lon="6.23544">
        <ele>888.4</ele>
        <time>2017-06-01T12:00:49Z</time>
      </trkpt>
      <trkpt lat="43.93772" lon="6.23529">
        <ele>888.88</ele>
        <time>2017-06-01T12:01:04Z</time>
      </trkpt>
      <trkpt lat="43.93772" lon="6.23527">
        <ele>888.88</ele>
        <time>2017-06-01T12:01:23Z</time>
      </trkpt>
      <trkpt lat="43.9378" lon="6.23518">
        <ele>887.43</ele>
        <time>2017-06-01T12:01:41Z</time>
      </trkpt>
      <trkpt lat="43.93788" lon="6.23504">
        <ele>885.03</ele>
        <time>2017-06-01T12:01:56Z</time>
      </trkpt>
      <trkpt lat="43.93798" lon="6.23498">
        <ele>882.63</ele>
        <time>2017-06-01T12:02:09Z</time>
      </trkpt>
      <trkpt lat="43.9381" lon="6.23487">
        <ele>880.71</ele>
        <time>2017-06-01T12:02:22Z</time>
      </trkpt>
      <trkpt lat="43.93815" lon="6.23477">
        <ele>878.78</ele>
        <time>2017-06-01T12:02:32Z</time>
      </trkpt>
      <trkpt lat="43.93807" lon="6.23467">
        <ele>876.38</ele>
        <time>2017-06-01T12:02:47Z</time>
      </trkpt>
      <trkpt lat="43.93806" lon="6.23448">
        <ele>873.98</ele>
        <time>2017-06-01T12:03:02Z</time>
      </trkpt>
      <trkpt lat="43.93818" lon="6.23423">
        <ele>871.57</ele>
        <time>2017-06-01T12:03:16Z</time>
      </trkpt>
      <trkpt lat="43.93825" lon="6.23401">
        <ele>868.69</ele>
        <time>2017-06-01T12:03:31Z</time>
      </trkpt>
      <trkpt lat="43.93827" lon="6.23382">
        <ele>865.8</ele>
        <time>2017-06-01T12:03:45Z</time>
      </trkpt>
      <trkpt lat="43.93827" lon="6.23365">
        <ele>863.4</ele>
        <time>2017-06-01T12:03:57Z</time>
      </trkpt>
      <trkpt lat="43.93827" lon="6.23358">
        <ele>862.44</ele>
        <time>2017-06-01T12:04:01Z</time>
      </trkpt>
      <trkpt lat="43.93837" lon="6.23337">
        <ele>860.52</ele>
        <time>2017-06-01T12:04:15Z</time>
      </trkpt>
      <trkpt lat="43.93834" lon="6.23332">
        <ele>858.59</ele>
        <time>2017-06-01T12:04:26Z</time>
      </trkpt>
      <trkpt lat="43.93838" lon="6.23325">
        <ele>855.71</ele>
        <time>2017-06-01T12:04:41Z</time>
      </trkpt>
      <trkpt lat="43.93845" lon="6.23325">
        <ele>853.31</ele>
        <time>2017-06-01T12:04:55Z</time>
      </trkpt>
      <trkpt lat="43.93861" lon="6.2332">
        <ele>851.38</ele>
        <time>2017-06-01T12:05:08Z</time>
      </trkpt>
      <trkpt lat="43.93873" lon="6.23319">
        <ele>848.98</ele>
        <time>2017-06-01T12:05:23Z</time>
      </trkpt>
      <trkpt lat="43.93878" lon="6.23319">
        <ele>846.1</ele>
        <time>2017-06-01T12:05:38Z</time>
      </trkpt>
      <trkpt lat="43.93877" lon="6.23316">
        <ele>844.18</ele>
        <time>2017-06-01T12:05:50Z</time>
      </trkpt>
      <trkpt lat="43.93878" lon="6.23314">
        <ele>842.25</ele>
        <time>2017-06-01T12:06:02Z</time>
      </trkpt>
      <trkpt lat="43.93888" lon="6.23315">
        <ele>840.81</ele>
        <time>2017-06-01T12:06:09Z</time>
      </trkpt>
      <trkpt lat="43.93893" lon="6.23316">
        <ele>840.33</ele>
        <time>2017-06-01T12:06:12Z</time>
      </trkpt>
      <trkpt lat="43.9394" lon="6.23327">
        <ele>838.41</ele>
        <time>2017-06-01T12:06:27Z</time>
      </trkpt>
      <trkpt lat="43.93951" lon="6.23335">
        <ele>836.48</ele>
        <time>2017-06-01T12:06:38Z</time>
      </trkpt>
      <trkpt lat="43.93957" lon="6.23337">
        <ele>835.52</ele>
        <time>2017-06-01T12:06:43Z</time>
      </trkpt>
      <trkpt lat="43.93969" lon="6.23341">
        <ele>833.12</ele>
        <time>2017-06-01T12:06:54Z</time>
      </trkpt>
      <trkpt lat="43.9397" lon="6.23342">
        <ele>832.64</ele>
        <time>2017-06-01T12:06:56Z</time>
      </trkpt>
      <trkpt lat="43.93981" lon="6.23344">
        <ele>830.72</ele>
        <time>2017-06-01T12:07:09Z</time>
      </trkpt>
      <trkpt lat="43.9399" lon="6.23346">
        <ele>828.79</ele>
        <time>2017-06-01T12:07:18Z</time>
      </trkpt>
      <trkpt lat="43.93996" lon="6.23353">
        <ele>827.83</ele>
        <time>2017-06-01T12:07:26Z</time>
      </trkpt>
      <trkpt lat="43.94" lon="6.23363">
        <ele>827.35</ele>
        <time>2017-06-01T12:07:33Z</time>
      </trkpt>
      <trkpt lat="43.94007" lon="6.23369">
        <ele>826.39</ele>
        <time>2017-06-01T12:07:40Z</time>
      </trkpt>
      <trkpt lat="43.94021" lon="6.23371">
        <ele>824.47</ele>
        <time>2017-06-01T12:07:53Z</time>
      </trkpt>
      <trkpt lat="43.94024" lon="6.23374">
        <ele>823.51</ele>
        <time>2017-06-01T12:07:57Z</time>
      </trkpt>
      <trkpt lat="43.94032" lon="6.2338">
        <ele>822.06</ele>
        <time>2017-06-01T12:08:08Z</time>
      </trkpt>
      <trkpt lat="43.94037" lon="6.23385">
        <ele>820.62</ele>
        <time>2017-06-01T12:08:18Z</time>
      </trkpt>
      <trkpt lat="43.94051" lon="6.23386">
        <ele>818.7</ele>
        <time>2017-06-01T12:08:30Z</time>
      </trkpt>
      <trkpt lat="43.94066" lon="6.23388">
        <ele>817.26</ele>
        <time>2017-06-01T12:08:42Z</time>
      </trkpt>
      <trkpt lat="43.94074" lon="6.23396">
        <ele>815.82</ele>
        <time>2017-06-01T12:08:52Z</time>
      </trkpt>
      <trkpt lat="43.94083" lon="6.23404">
        <ele>813.89</ele>
        <time>2017-06-01T12:09:06Z</time>
      </trkpt>
      <trkpt lat="43.94091" lon="6.23411">
        <ele>811.97</ele>
        <time>2017-06-01T12:09:18Z</time>
      </trkpt>
      <trkpt lat="43.94099" lon="6.23418">
        <ele>810.05</ele>
        <time>2017-06-01T12:09:31Z</time>
      </trkpt>
      <trkpt lat="43.94107" lon="6.23438">
        <ele>808.61</ele>
        <time>2017-06-01T12:09:46Z</time>
      </trkpt>
      <trkpt lat="43.94113" lon="6.23453">
        <ele>807.64</ele>
        <time>2017-06-01T12:09:59Z</time>
      </trkpt>
      <trkpt lat="43.94112" lon="6.23456">
        <ele>807.64</ele>
        <time>2017-06-01T12:10:02Z</time>
      </trkpt>
      <trkpt lat="43.94119" lon="6.23469">
        <ele>807.16</ele>
        <time>2017-06-01T12:10:15Z</time>
      </trkpt>
      <trkpt lat="43.9412" lon="6.23471">
        <ele>807.16</ele>
        <time>2017-06-01T12:10:17Z</time>
      </trkpt>
      <trkpt lat="43.94127" lon="6.23491">
        <ele>806.68</ele>
        <time>2017-06-01T12:10:31Z</time>
      </trkpt>
      <trkpt lat="43.94133" lon="6.23493">
        <ele>806.2</ele>
        <time>2017-06-01T12:10:46Z</time>
      </trkpt>
      <trkpt lat="43.94133" lon="6.23492">
        <ele>807.16</ele>
        <time>2017-06-01T12:11:09Z</time>
      </trkpt>
      <trkpt lat="43.94133" lon="6.23493">
        <ele>805.72</ele>
        <time>2017-06-01T12:11:34Z</time>
      </trkpt>
      <trkpt lat="43.94134" lon="6.23492">
        <ele>805.24</ele>
        <time>2017-06-01T12:11:57Z</time>
      </trkpt>
      <trkpt lat="43.94139" lon="6.23487">
        <ele>805.24</ele>
        <time>2017-06-01T12:12:03Z</time>
      </trkpt>
      <trkpt lat="43.94141" lon="6.23473">
        <ele>805.24</ele>
        <time>2017-06-01T12:12:14Z</time>
      </trkpt>
      <trkpt lat="43.94149" lon="6.23458">
        <ele>805.24</ele>
        <time>2017-06-01T12:12:27Z</time>
      </trkpt>
      <trkpt lat="43.94149" lon="6.23445">
        <ele>804.28</ele>
        <time>2017-06-01T12:12:40Z</time>
      </trkpt>
      <trkpt lat="43.94154" lon="6.23428">
        <ele>804.76</ele>
        <time>2017-06-01T12:12:52Z</time>
      </trkpt>
      <trkpt lat="43.94162" lon="6.23412">
        <ele>804.28</ele>
        <time>2017-06-01T12:13:05Z</time>
      </trkpt>
      <trkpt lat="43.94164" lon="6.23397">
        <ele>804.28</ele>
        <time>2017-06-01T12:13:18Z</time>
      </trkpt>
      <trkpt lat="43.94156" lon="6.23385">
        <ele>804.28</ele>
        <time>2017-06-01T12:13:33Z</time>
      </trkpt>
      <trkpt lat="43.9415" lon="6.23363">
        <ele>803.8</ele>
        <time>2017-06-01T12:13:47Z</time>
      </trkpt>
      <trkpt lat="43.94149" lon="6.23348">
        <ele>803.8</ele>
        <time>2017-06-01T12:13:55Z</time>
      </trkpt>
      <trkpt lat="43.94146" lon="6.23341">
        <ele>803.32</ele>
        <time>2017-06-01T12:14:02Z</time>
      </trkpt>
      <trkpt lat="43.94144" lon="6.23331">
        <ele>803.32</ele>
        <time>2017-06-01T12:14:10Z</time>
      </trkpt>
      <trkpt lat="43.94138" lon="6.23323">
        <ele>802.84</ele>
        <time>2017-06-01T12:14:18Z</time>
      </trkpt>
      <trkpt lat="43.94135" lon="6.23316">
        <ele>802.36</ele>
        <time>2017-06-01T12:14:25Z</time>
      </trkpt>
      <trkpt lat="43.94132" lon="6.23312">
        <ele>802.84</ele>
        <time>2017-06-01T12:14:28Z</time>
      </trkpt>
      <trkpt lat="43.94116" lon="6.23304">
        <ele>802.84</ele>
        <time>2017-06-01T12:14:41Z</time>
      </trkpt>
      <trkpt lat="43.94114" lon="6.23302">
        <ele>802.36</ele>
        <time>2017-06-01T12:14:43Z</time>
      </trkpt>
      <trkpt lat="43.9411" lon="6.23296">
        <ele>802.36</ele>
        <time>2017-06-01T12:14:48Z</time>
      </trkpt>
      <trkpt lat="43.941" lon="6.23283">
        <ele>802.36</ele>
        <time>2017-06-01T12:15:03Z</time>
      </trkpt>
      <trkpt lat="43.94095" lon="6.23259">
        <ele>802.36</ele>
        <time>2017-06-01T12:15:18Z</time>
      </trkpt>
      <trkpt lat="43.94087" lon="6.23243">
        <ele>801.4</ele>
        <time>2017-06-01T12:15:31Z</time>
      </trkpt>
      <trkpt lat="43.94095" lon="6.2324">
        <ele>800.92</ele>
        <time>2017-06-01T12:15:45Z</time>
      </trkpt>
      <trkpt lat="43.94103" lon="6.2324">
        <ele>800.44</ele>
        <time>2017-06-01T12:15:57Z</time>
      </trkpt>
      <trkpt lat="43.94111" lon="6.23245">
        <ele>799.95</ele>
        <time>2017-06-01T12:16:10Z</time>
      </trkpt>
      <trkpt lat="43.94132" lon="6.23253">
        <ele>799.47</ele>
        <time>2017-06-01T12:16:23Z</time>
      </trkpt>
      <trkpt lat="43.94144" lon="6.2325">
        <ele>798.99</ele>
        <time>2017-06-01T12:16:32Z</time>
      </trkpt>
      <trkpt lat="43.94156" lon="6.2325">
        <ele>798.99</ele>
        <time>2017-06-01T12:16:42Z</time>
      </trkpt>
      <trkpt lat="43.94167" lon="6.23249">
        <ele>798.99</ele>
        <time>2017-06-01T12:16:55Z</time>
      </trkpt>
      <trkpt lat="43.94175" lon="6.23247">
        <ele>798.99</ele>
        <time>2017-06-01T12:17:04Z</time>
      </trkpt>
      <trkpt lat="43.94185" lon="6.2325">
        <ele>798.51</ele>
        <time>2017-06-01T12:17:12Z</time>
      </trkpt>
      <trkpt lat="43.94195" lon="6.23248">
        <ele>798.51</ele>
        <time>2017-06-01T12:17:21Z</time>
      </trkpt>
      <trkpt lat="43.94214" lon="6.23251">
        <ele>798.51</ele>
        <time>2017-06-01T12:17:34Z</time>
      </trkpt>
      <trkpt lat="43.94229" lon="6.2325">
        <ele>798.51</ele>
        <time>2017-06-01T12:17:47Z</time>
      </trkpt>
      <trkpt lat="43.9423" lon="6.2325">
        <ele>798.51</ele>
        <time>2017-06-01T12:17:48Z</time>
      </trkpt>
      <trkpt lat="43.94244" lon="6.23248">
        <ele>798.03</ele>
        <time>2017-06-01T12:18:00Z</time>
      </trkpt>
      <trkpt lat="43.94258" lon="6.23245">
        <ele>798.51</ele>
        <time>2017-06-01T12:18:14Z</time>
      </trkpt>
      <trkpt lat="43.94268" lon="6.23247">
        <ele>798.51</ele>
        <time>2017-06-01T12:18:28Z</time>
      </trkpt>
      <trkpt lat="43.94277" lon="6.23247">
        <ele>798.51</ele>
        <time>2017-06-01T12:18:40Z</time>
      </trkpt>
      <trkpt lat="43.9428" lon="6.23248">
        <ele>798.03</ele>
        <time>2017-06-01T12:18:43Z</time>
      </trkpt>
      <trkpt lat="43.94296" lon="6.2325">
        <ele>798.03</ele>
        <time>2017-06-01T12:18:56Z</time>
      </trkpt>
      <trkpt lat="43.94307" lon="6.23253">
        <ele>798.51</ele>
        <time>2017-06-01T12:19:09Z</time>
      </trkpt>
      <trkpt lat="43.9432" lon="6.23257">
        <ele>798.03</ele>
        <time>2017-06-01T12:19:22Z</time>
      </trkpt>
      <trkpt lat="43.9434" lon="6.23257">
        <ele>798.03</ele>
        <time>2017-06-01T12:19:39Z</time>
      </trkpt>
      <trkpt lat="43.94343" lon="6.23252">
        <ele>798.03</ele>
        <time>2017-06-01T12:19:43Z</time>
      </trkpt>
      <trkpt lat="43.94343" lon="6.23246">
        <ele>798.51</ele>
        <time>2017-06-01T12:19:47Z</time>
      </trkpt>
      <trkpt lat="43.94335" lon="6.23231">
        <ele>798.03</ele>
        <time>2017-06-01T12:20:01Z</time>
      </trkpt>
      <trkpt lat="43.94332" lon="6.23222">
        <ele>798.03</ele>
        <time>2017-06-01T12:20:10Z</time>
      </trkpt>
      <trkpt lat="43.94331" lon="6.23218">
        <ele>798.03</ele>
        <time>2017-06-01T12:20:12Z</time>
      </trkpt>
      <trkpt lat="43.94329" lon="6.23203">
        <ele>798.03</ele>
        <time>2017-06-01T12:20:23Z</time>
      </trkpt>
      <trkpt lat="43.94324" lon="6.23193">
        <ele>798.03</ele>
        <time>2017-06-01T12:20:36Z</time>
      </trkpt>
      <trkpt lat="43.94321" lon="6.2319">
        <ele>798.03</ele>
        <time>2017-06-01T12:20:41Z</time>
      </trkpt>
      <trkpt lat="43.9432" lon="6.23184">
        <ele>798.03</ele>
        <time>2017-06-01T12:20:46Z</time>
      </trkpt>
      <trkpt lat="43.94319" lon="6.23175">
        <ele>798.03</ele>
        <time>2017-06-01T12:20:51Z</time>
      </trkpt>
      <trkpt lat="43.94316" lon="6.23169">
        <ele>798.03</ele>
        <time>2017-06-01T12:21:00Z</time>
      </trkpt>
      <trkpt lat="43.94307" lon="6.23155">
        <ele>798.03</ele>
        <time>2017-06-01T12:21:14Z</time>
      </trkpt>
      <trkpt lat="43.94308" lon="6.23143">
        <ele>797.55</ele>
        <time>2017-06-01T12:21:21Z</time>
      </trkpt>
      <trkpt lat="43.94311" lon="6.23121">
        <ele>795.63</ele>
        <time>2017-06-01T12:21:35Z</time>
      </trkpt>
      <trkpt lat="43.94314" lon="6.23121">
        <ele>793.71</ele>
        <time>2017-06-01T12:21:49Z</time>
      </trkpt>
      <trkpt lat="43.94313" lon="6.23129">
        <ele>791.78</ele>
        <time>2017-06-01T12:22:05Z</time>
      </trkpt>
      <trkpt lat="43.94311" lon="6.2314">
        <ele>789.86</ele>
        <time>2017-06-01T12:22:18Z</time>
      </trkpt>
      <trkpt lat="43.94315" lon="6.23143">
        <ele>787.94</ele>
        <time>2017-06-01T12:22:29Z</time>
      </trkpt>
      <trkpt lat="43.9432" lon="6.23137">
        <ele>787.46</ele>
        <time>2017-06-01T12:22:36Z</time>
      </trkpt>
      <trkpt lat="43.94326" lon="6.23132">
        <ele>785.53</ele>
        <time>2017-06-01T12:22:44Z</time>
      </trkpt>
      <trkpt lat="43.94338" lon="6.23129">
        <ele>783.61</ele>
        <time>2017-06-01T12:22:56Z</time>
      </trkpt>
      <trkpt lat="43.94345" lon="6.23129">
        <ele>781.69</ele>
        <time>2017-06-01T12:23:06Z</time>
      </trkpt>
      <trkpt lat="43.9435" lon="6.23132">
        <ele>779.77</ele>
        <time>2017-06-01T12:23:19Z</time>
      </trkpt>
      <trkpt lat="43.94352" lon="6.23138">
        <ele>776.88</ele>
        <time>2017-06-01T12:23:31Z</time>
      </trkpt>
      <trkpt lat="43.94348" lon="6.23141">
        <ele>774.96</ele>
        <time>2017-06-01T12:23:44Z</time>
      </trkpt>
      <trkpt lat="43.94346" lon="6.23152">
        <ele>773.04</ele>
        <time>2017-06-01T12:23:55Z</time>
      </trkpt>
      <trkpt lat="43.94346" lon="6.23155">
        <ele>770.63</ele>
        <time>2017-06-01T12:24:07Z</time>
      </trkpt>
      <trkpt lat="43.94353" lon="6.23155">
        <ele>768.23</ele>
        <time>2017-06-01T12:24:20Z</time>
      </trkpt>
      <trkpt lat="43.94354" lon="6.23156">
        <ele>767.75</ele>
        <time>2017-06-01T12:24:27Z</time>
      </trkpt>
      <trkpt lat="43.94365" lon="6.23154">
        <ele>765.83</ele>
        <time>2017-06-01T12:24:39Z</time>
      </trkpt>
      <trkpt lat="43.94379" lon="6.23148">
        <ele>763.42</ele>
        <time>2017-06-01T12:24:52Z</time>
      </trkpt>
      <trkpt lat="43.9438" lon="6.23145">
        <ele>762.46</ele>
        <time>2017-06-01T12:24:58Z</time>
      </trkpt>
      <trkpt lat="43.94384" lon="6.23156">
        <ele>760.54</ele>
        <time>2017-06-01T12:25:12Z</time>
      </trkpt>
      <trkpt lat="43.94384" lon="6.23155">
        <ele>760.06</ele>
        <time>2017-06-01T12:25:16Z</time>
      </trkpt>
      <trkpt lat="43.94389" lon="6.2314">
        <ele>757.66</ele>
        <time>2017-06-01T12:25:31Z</time>
      </trkpt>
      <trkpt lat="43.94393" lon="6.23139">
        <ele>754.77</ele>
        <time>2017-06-01T12:25:43Z</time>
      </trkpt>
      <trkpt lat="43.94394" lon="6.23148">
        <ele>752.85</ele>
        <time>2017-06-01T12:25:53Z</time>
      </trkpt>
      <trkpt lat="43.944" lon="6.23152">
        <ele>750.93</ele>
        <time>2017-06-01T12:26:06Z</time>
      </trkpt>
      <trkpt lat="43.944" lon="6.23139">
        <ele>748.04</ele>
        <time>2017-06-01T12:26:21Z</time>
      </trkpt>
      <trkpt lat="43.94402" lon="6.23125">
        <ele>745.64</ele>
        <time>2017-06-01T12:26:34Z</time>
      </trkpt>
      <trkpt lat="43.94404" lon="6.23132">
        <ele>743.72</ele>
        <time>2017-06-01T12:26:47Z</time>
      </trkpt>
      <trkpt lat="43.94405" lon="6.23136">
        <ele>742.76</ele>
        <time>2017-06-01T12:26:52Z</time>
      </trkpt>
      <trkpt lat="43.94408" lon="6.23143">
        <ele>740.83</ele>
        <time>2017-06-01T12:27:06Z</time>
      </trkpt>
      <trkpt lat="43.94407" lon="6.23142">
        <ele>738.91</ele>
        <time>2017-06-01T12:27:14Z</time>
      </trkpt>
      <trkpt lat="43.94406" lon="6.2314">
        <ele>738.43</ele>
        <time>2017-06-01T12:27:17Z</time>
      </trkpt>
      <trkpt lat="43.94403" lon="6.23139">
        <ele>737.95</ele>
        <time>2017-06-01T12:27:20Z</time>
      </trkpt>
      <trkpt lat="43.94405" lon="6.2313">
        <ele>736.51</ele>
        <time>2017-06-01T12:27:30Z</time>
      </trkpt>
      <trkpt lat="43.94406" lon="6.23118">
        <ele>734.1</ele>
        <time>2017-06-01T12:27:44Z</time>
      </trkpt>
      <trkpt lat="43.94407" lon="6.23116">
        <ele>732.66</ele>
        <time>2017-06-01T12:27:54Z</time>
      </trkpt>
      <trkpt lat="43.94407" lon="6.23122">
        <ele>731.22</ele>
        <time>2017-06-01T12:28:03Z</time>
      </trkpt>
      <trkpt lat="43.94406" lon="6.23123">
        <ele>730.74</ele>
        <time>2017-06-01T12:28:05Z</time>
      </trkpt>
      <trkpt lat="43.94407" lon="6.23127">
        <ele>731.22</ele>
        <time>2017-06-01T12:28:08Z</time>
      </trkpt>
      <trkpt lat="43.94413" lon="6.23139">
        <ele>728.34</ele>
        <time>2017-06-01T12:28:18Z</time>
      </trkpt>
      <trkpt lat="43.94419" lon="6.23144">
        <ele>727.86</ele>
        <time>2017-06-01T12:28:23Z</time>
      </trkpt>
      <trkpt lat="43.94418" lon="6.23155">
        <ele>726.41</ele>
        <time>2017-06-01T12:28:31Z</time>
      </trkpt>
      <trkpt lat="43.94419" lon="6.23159">
        <ele>725.93</ele>
        <time>2017-06-01T12:28:35Z</time>
      </trkpt>
      <trkpt lat="43.94423" lon="6.23168">
        <ele>724.49</ele>
        <time>2017-06-01T12:28:52Z</time>
      </trkpt>
      <trkpt lat="43.94423" lon="6.23173">
        <ele>724.01</ele>
        <time>2017-06-01T12:29:05Z</time>
      </trkpt>
      <trkpt lat="43.94421" lon="6.23176">
        <ele>722.57</ele>
        <time>2017-06-01T12:29:29Z</time>
      </trkpt>
      <trkpt lat="43.94422" lon="6.23177">
        <ele>724.01</ele>
        <time>2017-06-01T12:29:46Z</time>
      </trkpt>
      <trkpt lat="43.94423" lon="6.23179">
        <ele>724.01</ele>
        <time>2017-06-01T12:30:06Z</time>
      </trkpt>
      <trkpt lat="43.94425" lon="6.23181">
        <ele>724.01</ele>
        <time>2017-06-01T12:30:31Z</time>
      </trkpt>
      <trkpt lat="43.94426" lon="6.23182">
        <ele>723.53</ele>
        <time>2017-06-01T12:30:51Z</time>
      </trkpt>
      <trkpt lat="43.94428" lon="6.23183">
        <ele>722.57</ele>
        <time>2017-06-01T12:31:01Z</time>
      </trkpt>
      <trkpt lat="43.94431" lon="6.23182">
        <ele>722.09</ele>
        <time>2017-06-01T12:31:19Z</time>
      </trkpt>
      <trkpt lat="43.94431" lon="6.23184">
        <ele>722.09</ele>
        <time>2017-06-01T12:31:26Z</time>
      </trkpt>
      <trkpt lat="43.94438" lon="6.23191">
        <ele>720.65</ele>
        <time>2017-06-01T12:31:41Z</time>
      </trkpt>
      <trkpt lat="43.94439" lon="6.23192">
        <ele>720.16</ele>
        <time>2017-06-01T12:31:51Z</time>
      </trkpt>
      <trkpt lat="43.94438" lon="6.23186">
        <ele>719.2</ele>
        <time>2017-06-01T12:32:11Z</time>
      </trkpt>
      <trkpt lat="43.94436" lon="6.23181">
        <ele>717.76</ele>
        <time>2017-06-01T12:32:18Z</time>
      </trkpt>
      <trkpt lat="43.94435" lon="6.23166">
        <ele>715.36</ele>
        <time>2017-06-01T12:32:30Z</time>
      </trkpt>
      <trkpt lat="43.94435" lon="6.23157">
        <ele>713.92</ele>
        <time>2017-06-01T12:32:36Z</time>
      </trkpt>
      <trkpt lat="43.94439" lon="6.23141">
        <ele>711.99</ele>
        <time>2017-06-01T12:32:52Z</time>
      </trkpt>
      <trkpt lat="43.94442" lon="6.23144">
        <ele>710.55</ele>
        <time>2017-06-01T12:33:02Z</time>
      </trkpt>
      <trkpt lat="43.94444" lon="6.23157">
        <ele>709.11</ele>
        <time>2017-06-01T12:33:15Z</time>
      </trkpt>
      <trkpt lat="43.94444" lon="6.23159">
        <ele>707.67</ele>
        <time>2017-06-01T12:33:32Z</time>
      </trkpt>
      <trkpt lat="43.94443" lon="6.23152">
        <ele>706.71</ele>
        <time>2017-06-01T12:33:44Z</time>
      </trkpt>
      <trkpt lat="43.94446" lon="6.23146">
        <ele>703.82</ele>
        <time>2017-06-01T12:33:59Z</time>
      </trkpt>
      <trkpt lat="43.94449" lon="6.23157">
        <ele>701.9</ele>
        <time>2017-06-01T12:34:15Z</time>
      </trkpt>
      <trkpt lat="43.94454" lon="6.23167">
        <ele>700.46</ele>
        <time>2017-06-01T12:34:30Z</time>
      </trkpt>
      <trkpt lat="43.94453" lon="6.23173">
        <ele>698.05</ele>
        <time>2017-06-01T12:34:42Z</time>
      </trkpt>
      <trkpt lat="43.94461" lon="6.23176">
        <ele>696.13</ele>
        <time>2017-06-01T12:34:56Z</time>
      </trkpt>
      <trkpt lat="43.94461" lon="6.23165">
        <ele>694.69</ele>
        <time>2017-06-01T12:35:07Z</time>
      </trkpt>
      <trkpt lat="43.94463" lon="6.23155">
        <ele>693.25</ele>
        <time>2017-06-01T12:35:19Z</time>
      </trkpt>
      <trkpt lat="43.94463" lon="6.23149">
        <ele>693.25</ele>
        <time>2017-06-01T12:35:31Z</time>
      </trkpt>
      <trkpt lat="43.94468" lon="6.23142">
        <ele>690.84</ele>
        <time>2017-06-01T12:35:45Z</time>
      </trkpt>
      <trkpt lat="43.94471" lon="6.23142">
        <ele>689.4</ele>
        <time>2017-06-01T12:35:56Z</time>
      </trkpt>
      <trkpt lat="43.94471" lon="6.23149">
        <ele>688.44</ele>
        <time>2017-06-01T12:36:08Z</time>
      </trkpt>
      <trkpt lat="43.94472" lon="6.23156">
        <ele>686.52</ele>
        <time>2017-06-01T12:36:21Z</time>
      </trkpt>
      <trkpt lat="43.94472" lon="6.2316">
        <ele>684.6</ele>
        <time>2017-06-01T12:36:33Z</time>
      </trkpt>
      <trkpt lat="43.94479" lon="6.23154">
        <ele>683.15</ele>
        <time>2017-06-01T12:36:46Z</time>
      </trkpt>
      <trkpt lat="43.94486" lon="6.23146">
        <ele>681.71</ele>
        <time>2017-06-01T12:36:57Z</time>
      </trkpt>
      <trkpt lat="43.94484" lon="6.23134">
        <ele>680.27</ele>
        <time>2017-06-01T12:37:09Z</time>
      </trkpt>
      <trkpt lat="43.94491" lon="6.23131">
        <ele>678.35</ele>
        <time>2017-06-01T12:37:23Z</time>
      </trkpt>
      <trkpt lat="43.94493" lon="6.23131">
        <ele>676.91</ele>
        <time>2017-06-01T12:37:35Z</time>
      </trkpt>
      <trkpt lat="43.94491" lon="6.23135">
        <ele>674.98</ele>
        <time>2017-06-01T12:37:46Z</time>
      </trkpt>
      <trkpt lat="43.9449" lon="6.23137">
        <ele>674.02</ele>
        <time>2017-06-01T12:37:52Z</time>
      </trkpt>
      <trkpt lat="43.94489" lon="6.23145">
        <ele>673.54</ele>
        <time>2017-06-01T12:38:03Z</time>
      </trkpt>
      <trkpt lat="43.94487" lon="6.23148">
        <ele>673.06</ele>
        <time>2017-06-01T12:38:20Z</time>
      </trkpt>
      <trkpt lat="43.94491" lon="6.23148">
        <ele>673.06</ele>
        <time>2017-06-01T12:38:43Z</time>
      </trkpt>
      <trkpt lat="43.9449" lon="6.23147">
        <ele>673.06</ele>
        <time>2017-06-01T12:39:11Z</time>
      </trkpt>
      <trkpt lat="43.94489" lon="6.23146">
        <ele>672.1</ele>
        <time>2017-06-01T12:39:25Z</time>
      </trkpt>
      <trkpt lat="43.9449" lon="6.23146">
        <ele>671.62</ele>
        <time>2017-06-01T12:39:43Z</time>
      </trkpt>
      <trkpt lat="43.94489" lon="6.23145">
        <ele>673.06</ele>
        <time>2017-06-01T12:40:00Z</time>
      </trkpt>
      <trkpt lat="43.94489" lon="6.23145">
        <ele>673.06</ele>
        <time>2017-06-01T12:40:03Z</time>
      </trkpt>
      <trkpt lat="43.94488" lon="6.23145">
        <ele>672.58</ele>
        <time>2017-06-01T12:40:16Z</time>
      </trkpt>
      <trkpt lat="43.9449" lon="6.23147">
        <ele>672.58</ele>
        <time>2017-06-01T12:40:33Z</time>
      </trkpt>
      <trkpt lat="43.9449" lon="6.23147">
        <ele>672.58</ele>
        <time>2017-06-01T12:41:03Z</time>
      </trkpt>
      <trkpt lat="43.94489" lon="6.23142">
        <ele>672.1</ele>
        <time>2017-06-01T12:41:19Z</time>
      </trkpt>
      <trkpt lat="43.94493" lon="6.23142">
        <ele>670.18</ele>
        <time>2017-06-01T12:41:32Z</time>
      </trkpt>
      <trkpt lat="43.94495" lon="6.23141">
        <ele>670.18</ele>
        <time>2017-06-01T12:41:35Z</time>
      </trkpt>
      <trkpt lat="43.945" lon="6.23146">
        <ele>668.25</ele>
        <time>2017-06-01T12:41:48Z</time>
      </trkpt>
      <trkpt lat="43.94503" lon="6.23147">
        <ele>668.25</ele>
        <time>2017-06-01T12:41:53Z</time>
      </trkpt>
      <trkpt lat="43.94508" lon="6.23147">
        <ele>668.25</ele>
        <time>2017-06-01T12:42:08Z</time>
      </trkpt>
      <trkpt lat="43.94501" lon="6.23156">
        <ele>668.73</ele>
        <time>2017-06-01T12:42:31Z</time>
      </trkpt>
      <trkpt lat="43.94501" lon="6.23155">
        <ele>668.73</ele>
        <time>2017-06-01T12:42:47Z</time>
      </trkpt>
      <trkpt lat="43.94497" lon="6.2316">
        <ele>668.73</ele>
        <time>2017-06-01T12:43:07Z</time>
      </trkpt>
      <trkpt lat="43.94499" lon="6.23161">
        <ele>668.25</ele>
        <time>2017-06-01T12:43:21Z</time>
      </trkpt>
      <trkpt lat="43.94501" lon="6.23163">
        <ele>667.77</ele>
        <time>2017-06-01T12:43:46Z</time>
      </trkpt>
      <trkpt lat="43.94502" lon="6.23162">
        <ele>666.81</ele>
        <time>2017-06-01T12:43:58Z</time>
      </trkpt>
      <trkpt lat="43.94507" lon="6.23159">
        <ele>666.81</ele>
        <time>2017-06-01T12:44:03Z</time>
      </trkpt>
      <trkpt lat="43.94515" lon="6.23161">
        <ele>665.37</ele>
        <time>2017-06-01T12:44:14Z</time>
      </trkpt>
      <trkpt lat="43.94517" lon="6.23163">
        <ele>664.89</ele>
        <time>2017-06-01T12:44:18Z</time>
      </trkpt>
      <trkpt lat="43.94521" lon="6.23173">
        <ele>662.97</ele>
        <time>2017-06-01T12:44:29Z</time>
      </trkpt>
      <trkpt lat="43.94533" lon="6.23174">
        <ele>661.04</ele>
        <time>2017-06-01T12:44:41Z</time>
      </trkpt>
      <trkpt lat="43.94541" lon="6.2317">
        <ele>659.6</ele>
        <time>2017-06-01T12:44:53Z</time>
      </trkpt>
      <trkpt lat="43.94542" lon="6.23168">
        <ele>658.64</ele>
        <time>2017-06-01T12:45:05Z</time>
      </trkpt>
      <trkpt lat="43.94542" lon="6.23168">
        <ele>657.2</ele>
        <time>2017-06-01T12:45:16Z</time>
      </trkpt>
      <trkpt lat="43.94542" lon="6.23169">
        <ele>657.2</ele>
        <time>2017-06-01T12:45:17Z</time>
      </trkpt>
      <trkpt lat="43.94543" lon="6.23169">
        <ele>657.2</ele>
        <time>2017-06-01T12:45:19Z</time>
      </trkpt>
      <trkpt lat="43.94547" lon="6.23176">
        <ele>655.76</ele>
        <time>2017-06-01T12:45:30Z</time>
      </trkpt>
      <trkpt lat="43.94548" lon="6.23178">
        <ele>655.28</ele>
        <time>2017-06-01T12:45:32Z</time>
      </trkpt>
      <trkpt lat="43.94557" lon="6.23186">
        <ele>653.35</ele>
        <time>2017-06-01T12:45:42Z</time>
      </trkpt>
      <trkpt lat="43.94557" lon="6.23186">
        <ele>653.35</ele>
        <time>2017-06-01T12:45:43Z</time>
      </trkpt>
      <trkpt lat="43.94557" lon="6.23186">
        <ele>652.87</ele>
        <time>2017-06-01T12:45:44Z</time>
      </trkpt>
      <trkpt lat="43.94554" lon="6.23192">
        <ele>650.95</ele>
        <time>2017-06-01T12:45:53Z</time>
      </trkpt>
      <trkpt lat="43.9456" lon="6.23194">
        <ele>649.03</ele>
        <time>2017-06-01T12:46:04Z</time>
      </trkpt>
      <trkpt lat="43.94561" lon="6.23194">
        <ele>648.55</ele>
        <time>2017-06-01T12:46:05Z</time>
      </trkpt>
      <trkpt lat="43.94564" lon="6.23196">
        <ele>648.55</ele>
        <time>2017-06-01T12:46:10Z</time>
      </trkpt>
      <trkpt lat="43.94579" lon="6.23198">
        <ele>645.66</ele>
        <time>2017-06-01T12:46:25Z</time>
      </trkpt>
      <trkpt lat="43.94576" lon="6.23199">
        <ele>645.66</ele>
        <time>2017-06-01T12:46:30Z</time>
      </trkpt>
      <trkpt lat="43.94567" lon="6.23216">
        <ele>645.18</ele>
        <time>2017-06-01T12:46:57Z</time>
      </trkpt>
      <trkpt lat="43.94583" lon="6.23217">
        <ele>643.26</ele>
        <time>2017-06-01T12:47:11Z</time>
      </trkpt>
      <trkpt lat="43.94603" lon="6.23226">
        <ele>641.34</ele>
        <time>2017-06-01T12:47:24Z</time>
      </trkpt>
      <trkpt lat="43.94607" lon="6.23226">
        <ele>641.34</ele>
        <time>2017-06-01T12:47:27Z</time>
      </trkpt>
      <trkpt lat="43.94612" lon="6.23225">
        <ele>640.86</ele>
        <time>2017-06-01T12:47:31Z</time>
      </trkpt>
      <trkpt lat="43.94614" lon="6.23225">
        <ele>640.38</ele>
        <time>2017-06-01T12:47:32Z</time>
      </trkpt>
      <trkpt lat="43.9462" lon="6.23224">
        <ele>639.89</ele>
        <time>2017-06-01T12:47:36Z</time>
      </trkpt>
      <trkpt lat="43.94633" lon="6.23226">
        <ele>638.93</ele>
        <time>2017-06-01T12:47:42Z</time>
      </trkpt>
      <trkpt lat="43.94629" lon="6.23225">
        <ele>638.45</ele>
        <time>2017-06-01T12:47:59Z</time>
      </trkpt>
      <trkpt lat="43.94666" lon="6.23211">
        <ele>637.97</ele>
        <time>2017-06-01T12:48:14Z</time>
      </trkpt>
      <trkpt lat="43.94667" lon="6.23211">
        <ele>637.97</ele>
        <time>2017-06-01T12:48:17Z</time>
      </trkpt>
      <trkpt lat="43.94669" lon="6.23212">
        <ele>637.49</ele>
        <time>2017-06-01T12:48:23Z</time>
      </trkpt>
      <trkpt lat="43.94671" lon="6.2321">
        <ele>637.49</ele>
        <time>2017-06-01T12:48:24Z</time>
      </trkpt>
      <trkpt lat="43.94674" lon="6.23207">
        <ele>637.97</ele>
        <time>2017-06-01T12:48:31Z</time>
      </trkpt>
      <trkpt lat="43.94677" lon="6.23209">
        <ele>637.49</ele>
        <time>2017-06-01T12:48:33Z</time>
      </trkpt>
      <trkpt lat="43.94685" lon="6.23207">
        <ele>636.53</ele>
        <time>2017-06-01T12:48:42Z</time>
      </trkpt>
      <trkpt lat="43.94689" lon="6.2321">
        <ele>636.05</ele>
        <time>2017-06-01T12:48:48Z</time>
      </trkpt>
      <trkpt lat="43.94693" lon="6.23212">
        <ele>635.09</ele>
        <time>2017-06-01T12:48:50Z</time>
      </trkpt>
      <trkpt lat="43.94698" lon="6.23216">
        <ele>633.65</ele>
        <time>2017-06-01T12:48:53Z</time>
      </trkpt>
      <trkpt lat="43.94711" lon="6.23223">
        <ele>632.2</ele>
        <time>2017-06-01T12:49:05Z</time>
      </trkpt>
      <trkpt lat="43.9472" lon="6.23231">
        <ele>629.8</ele>
        <time>2017-06-01T12:49:18Z</time>
      </trkpt>
      <trkpt lat="43.94721" lon="6.23232">
        <ele>629.32</ele>
        <time>2017-06-01T12:49:23Z</time>
      </trkpt>
      <trkpt lat="43.94723" lon="6.23234">
        <ele>628.84</ele>
        <time>2017-06-01T12:49:29Z</time>
      </trkpt>
      <trkpt lat="43.94734" lon="6.23229">
        <ele>627.88</ele>
        <time>2017-06-01T12:49:43Z</time>
      </trkpt>
      <trkpt lat="43.94736" lon="6.23228">
        <ele>627.88</ele>
        <time>2017-06-01T12:50:00Z</time>
      </trkpt>
      <trkpt lat="43.94743" lon="6.23224">
        <ele>627.88</ele>
        <time>2017-06-01T12:50:13Z</time>
      </trkpt>
      <trkpt lat="43.94747" lon="6.23215">
        <ele>628.36</ele>
        <time>2017-06-01T12:50:30Z</time>
      </trkpt>
      <trkpt lat="43.94738" lon="6.2321">
        <ele>628.36</ele>
        <time>2017-06-01T12:50:42Z</time>
      </trkpt>
      <trkpt lat="43.94743" lon="6.23207">
        <ele>627.88</ele>
        <time>2017-06-01T12:50:54Z</time>
      </trkpt>
      <trkpt lat="43.94751" lon="6.23204">
        <ele>628.36</ele>
        <time>2017-06-01T12:51:06Z</time>
      </trkpt>
      <trkpt lat="43.94746" lon="6.23199">
        <ele>628.36</ele>
        <time>2017-06-01T12:51:24Z</time>
      </trkpt>
      <trkpt lat="43.94743" lon="6.23198">
        <ele>628.36</ele>
        <time>2017-06-01T12:51:37Z</time>
      </trkpt>
      <trkpt lat="43.94746" lon="6.23198">
        <ele>628.84</ele>
        <time>2017-06-01T12:51:54Z</time>
      </trkpt>
      <trkpt lat="43.94746" lon="6.23199">
        <ele>628.84</ele>
        <time>2017-06-01T12:51:57Z</time>
      </trkpt>
      <trkpt lat="43.94739" lon="6.232">
        <ele>629.32</ele>
        <time>2017-06-01T12:52:12Z</time>
      </trkpt>
      <trkpt lat="43.94742" lon="6.23199">
        <ele>629.32</ele>
        <time>2017-06-01T12:52:24Z</time>
      </trkpt>
      <trkpt lat="43.94745" lon="6.23198">
        <ele>629.32</ele>
        <time>2017-06-01T12:52:28Z</time>
      </trkpt>
      <trkpt lat="43.94747" lon="6.23193">
        <ele>629.32</ele>
        <time>2017-06-01T12:52:41Z</time>
      </trkpt>
      <trkpt lat="43.94751" lon="6.23196">
        <ele>629.32</ele>
        <time>2017-06-01T12:52:58Z</time>
      </trkpt>
      <trkpt lat="43.94751" lon="6.23198">
        <ele>629.8</ele>
        <time>2017-06-01T12:53:11Z</time>
      </trkpt>
      <trkpt lat="43.94753" lon="6.23201">
        <ele>629.8</ele>
        <time>2017-06-01T12:53:14Z</time>
      </trkpt>
      <trkpt lat="43.94761" lon="6.23206">
        <ele>629.8</ele>
        <time>2017-06-01T12:53:27Z</time>
      </trkpt>
      <trkpt lat="43.94757" lon="6.232">
        <ele>629.32</ele>
        <time>2017-06-01T12:53:37Z</time>
      </trkpt>
      <trkpt lat="43.94754" lon="6.23194">
        <ele>629.32</ele>
        <time>2017-06-01T12:53:55Z</time>
      </trkpt>
      <trkpt lat="43.94769" lon="6.23182">
        <ele>629.32</ele>
        <time>2017-06-01T12:54:08Z</time>
      </trkpt>
      <trkpt lat="43.94777" lon="6.23159">
        <ele>629.32</ele>
        <time>2017-06-01T12:54:16Z</time>
      </trkpt>
      <trkpt lat="43.94779" lon="6.23154">
        <ele>629.32</ele>
        <time>2017-06-01T12:54:18Z</time>
      </trkpt>
      <trkpt lat="43.94777" lon="6.23144">
        <ele>629.32</ele>
        <time>2017-06-01T12:54:23Z</time>
      </trkpt>
      <trkpt lat="43.94769" lon="6.23126">
        <ele>629.8</ele>
        <time>2017-06-01T12:54:32Z</time>
      </trkpt>
      <trkpt lat="43.94763" lon="6.23107">
        <ele>630.28</ele>
        <time>2017-06-01T12:54:43Z</time>
      </trkpt>
      <trkpt lat="43.94752" lon="6.2309">
        <ele>630.28</ele>
        <time>2017-06-01T12:54:54Z</time>
      </trkpt>
      <trkpt lat="43.94751" lon="6.23086">
        <ele>630.28</ele>
        <time>2017-06-01T12:54:56Z</time>
      </trkpt>
      <trkpt lat="43.94752" lon="6.23079">
        <ele>629.8</ele>
        <time>2017-06-01T12:55:02Z</time>
      </trkpt>
      <trkpt lat="43.94752" lon="6.23072">
        <ele>629.32</ele>
        <time>2017-06-01T12:55:06Z</time>
      </trkpt>
      <trkpt lat="43.94754" lon="6.23056">
        <ele>629.32</ele>
        <time>2017-06-01T12:55:15Z</time>
      </trkpt>
      <trkpt lat="43.9475" lon="6.23048">
        <ele>628.36</ele>
        <time>2017-06-01T12:55:20Z</time>
      </trkpt>
      <trkpt lat="43.94748" lon="6.23035">
        <ele>628.36</ele>
        <time>2017-06-01T12:55:29Z</time>
      </trkpt>
      <trkpt lat="43.94747" lon="6.23034">
        <ele>628.36</ele>
        <time>2017-06-01T12:55:41Z</time>
      </trkpt>
      <trkpt lat="43.94746" lon="6.23029">
        <ele>628.36</ele>
        <time>2017-06-01T12:56:01Z</time>
      </trkpt>
      <trkpt lat="43.94746" lon="6.23028">
        <ele>628.36</ele>
        <time>2017-06-01T12:56:02Z</time>
      </trkpt>
      <trkpt lat="43.94747" lon="6.23025">
        <ele>627.88</ele>
        <time>2017-06-01T12:56:05Z</time>
      </trkpt>
      <trkpt lat="43.94749" lon="6.23019">
        <ele>627.88</ele>
        <time>2017-06-01T12:56:09Z</time>
      </trkpt>
      <trkpt lat="43.94753" lon="6.23003">
        <ele>626.92</ele>
        <time>2017-06-01T12:56:22Z</time>
      </trkpt>
      <trkpt lat="43.94754" lon="6.22999">
        <ele>626.92</ele>
        <time>2017-06-01T12:56:25Z</time>
      </trkpt>
      <trkpt lat="43.94755" lon="6.22997">
        <ele>626.44</ele>
        <time>2017-06-01T12:56:27Z</time>
      </trkpt>
      <trkpt lat="43.94759" lon="6.22988">
        <ele>626.44</ele>
        <time>2017-06-01T12:56:34Z</time>
      </trkpt>
      <trkpt lat="43.9476" lon="6.22975">
        <ele>625.96</ele>
        <time>2017-06-01T12:56:42Z</time>
      </trkpt>
      <trkpt lat="43.94762" lon="6.22968">
        <ele>625.47</ele>
        <time>2017-06-01T12:56:48Z</time>
      </trkpt>
      <trkpt lat="43.94764" lon="6.22964">
        <ele>625.47</ele>
        <time>2017-06-01T12:56:51Z</time>
      </trkpt>
      <trkpt lat="43.94763" lon="6.22947">
        <ele>624.99</ele>
        <time>2017-06-01T12:57:03Z</time>
      </trkpt>
      <trkpt lat="43.94764" lon="6.22925">
        <ele>624.03</ele>
        <time>2017-06-01T12:57:18Z</time>
      </trkpt>
      <trkpt lat="43.94763" lon="6.22915">
        <ele>622.59</ele>
        <time>2017-06-01T12:57:32Z</time>
      </trkpt>
      <trkpt lat="43.94772" lon="6.22917">
        <ele>621.63</ele>
        <time>2017-06-01T12:57:46Z</time>
      </trkpt>
      <trkpt lat="43.94773" lon="6.22913">
        <ele>620.19</ele>
        <time>2017-06-01T12:57:58Z</time>
      </trkpt>
      <trkpt lat="43.94772" lon="6.22912">
        <ele>620.19</ele>
        <time>2017-06-01T12:58:08Z</time>
      </trkpt>
      <trkpt lat="43.94779" lon="6.22911">
        <ele>619.71</ele>
        <time>2017-06-01T12:58:13Z</time>
      </trkpt>
      <trkpt lat="43.94785" lon="6.22908">
        <ele>619.71</ele>
        <time>2017-06-01T12:58:25Z</time>
      </trkpt>
      <trkpt lat="43.94775" lon="6.22912">
        <ele>621.63</ele>
        <time>2017-06-01T12:58:40Z</time>
      </trkpt>
      <trkpt lat="43.94766" lon="6.22911">
        <ele>623.07</ele>
        <time>2017-06-01T12:58:53Z</time>
      </trkpt>
      <trkpt lat="43.94766" lon="6.22909">
        <ele>623.07</ele>
        <time>2017-06-01T12:58:56Z</time>
      </trkpt>
      <trkpt lat="43.94766" lon="6.22906">
        <ele>622.59</ele>
        <time>2017-06-01T12:58:59Z</time>
      </trkpt>
      <trkpt lat="43.9477" lon="6.22892">
        <ele>622.11</ele>
        <time>2017-06-01T12:59:12Z</time>
      </trkpt>
      <trkpt lat="43.94775" lon="6.22878">
        <ele>621.15</ele>
        <time>2017-06-01T12:59:24Z</time>
      </trkpt>
      <trkpt lat="43.94778" lon="6.22872">
        <ele>621.15</ele>
        <time>2017-06-01T12:59:30Z</time>
      </trkpt>
      <trkpt lat="43.94779" lon="6.2287">
        <ele>621.15</ele>
        <time>2017-06-01T12:59:32Z</time>
      </trkpt>
      <trkpt lat="43.94789" lon="6.22856">
        <ele>620.67</ele>
        <time>2017-06-01T12:59:46Z</time>
      </trkpt>
      <trkpt lat="43.94791" lon="6.22851">
        <ele>620.67</ele>
        <time>2017-06-01T12:59:51Z</time>
      </trkpt>
      <trkpt lat="43.94793" lon="6.22844">
        <ele>620.19</ele>
        <time>2017-06-01T12:59:59Z</time>
      </trkpt>
      <trkpt lat="43.94786" lon="6.22829">
        <ele>619.23</ele>
        <time>2017-06-01T13:00:13Z</time>
      </trkpt>
      <trkpt lat="43.94786" lon="6.22826">
        <ele>619.23</ele>
        <time>2017-06-01T13:00:15Z</time>
      </trkpt>
      <trkpt lat="43.94779" lon="6.22818">
        <ele>618.75</ele>
        <time>2017-06-01T13:00:24Z</time>
      </trkpt>
      <trkpt lat="43.94771" lon="6.22811">
        <ele>618.26</ele>
        <time>2017-06-01T13:00:32Z</time>
      </trkpt>
      <trkpt lat="43.94763" lon="6.22794">
        <ele>617.78</ele>
        <time>2017-06-01T13:00:45Z</time>
      </trkpt>
      <trkpt lat="43.94761" lon="6.22786">
        <ele>617.3</ele>
        <time>2017-06-01T13:01:00Z</time>
      </trkpt>
      <trkpt lat="43.9476" lon="6.22783">
        <ele>615.86</ele>
        <time>2017-06-01T13:01:12Z</time>
      </trkpt>
      <trkpt lat="43.94761" lon="6.22781">
        <ele>615.38</ele>
        <time>2017-06-01T13:01:27Z</time>
      </trkpt>
      <trkpt lat="43.94762" lon="6.22777">
        <ele>614.9</ele>
        <time>2017-06-01T13:01:44Z</time>
      </trkpt>
      <trkpt lat="43.94759" lon="6.22779">
        <ele>614.9</ele>
        <time>2017-06-01T13:02:14Z</time>
      </trkpt>
      <trkpt lat="43.9476" lon="6.22778">
        <ele>614.42</ele>
        <time>2017-06-01T13:02:45Z</time>
      </trkpt>
      <trkpt lat="43.94759" lon="6.22779">
        <ele>614.42</ele>
        <time>2017-06-01T13:03:18Z</time>
      </trkpt>
      <trkpt lat="43.94759" lon="6.22779">
        <ele>614.42</ele>
        <time>2017-06-01T13:03:50Z</time>
      </trkpt>
      <trkpt lat="43.9476" lon="6.22778">
        <ele>614.42</ele>
        <time>2017-06-01T13:04:16Z</time>
      </trkpt>
      <trkpt lat="43.94761" lon="6.22779">
        <ele>614.42</ele>
        <time>2017-06-01T13:04:44Z</time>
      </trkpt>
      <trkpt lat="43.94761" lon="6.2278">
        <ele>614.42</ele>
        <time>2017-06-01T13:05:14Z</time>
      </trkpt>
      <trkpt lat="43.94761" lon="6.2278">
        <ele>614.42</ele>
        <time>2017-06-01T13:05:43Z</time>
      </trkpt>
      <trkpt lat="43.94763" lon="6.22779">
        <ele>614.9</ele>
        <time>2017-06-01T13:06:13Z</time>
      </trkpt>
      <trkpt lat="43.94762" lon="6.2278">
        <ele>614.9</ele>
        <time>2017-06-01T13:06:44Z</time>
      </trkpt>
      <trkpt lat="43.94762" lon="6.2278">
        <ele>614.42</ele>
        <time>2017-06-01T13:07:14Z</time>
      </trkpt>
      <trkpt lat="43.94762" lon="6.2278">
        <ele>614.42</ele>
        <time>2017-06-01T13:07:40Z</time>
      </trkpt>
      <trkpt lat="43.94761" lon="6.22781">
        <ele>614.9</ele>
        <time>2017-06-01T13:08:08Z</time>
      </trkpt>
      <trkpt lat="43.94761" lon="6.22782">
        <ele>614.9</ele>
        <time>2017-06-01T13:08:39Z</time>
      </trkpt>
      <trkpt lat="43.94762" lon="6.22782">
        <ele>614.9</ele>
        <time>2017-06-01T13:09:08Z</time>
      </trkpt>
      <trkpt lat="43.94763" lon="6.2278">
        <ele>614.9</ele>
        <time>2017-06-01T13:09:33Z</time>
      </trkpt>
      <trkpt lat="43.94762" lon="6.2278">
        <ele>614.9</ele>
        <time>2017-06-01T13:09:55Z</time>
      </trkpt>
      <trkpt lat="43.94761" lon="6.2278">
        <ele>614.9</ele>
        <time>2017-06-01T13:10:15Z</time>
      </trkpt>
      <trkpt lat="43.94759" lon="6.2278">
        <ele>614.9</ele>
        <time>2017-06-01T13:10:35Z</time>
      </trkpt>
      <trkpt lat="43.94757" lon="6.2278">
        <ele>614.9</ele>
        <time>2017-06-01T13:10:58Z</time>
      </trkpt>
      <trkpt lat="43.94755" lon="6.22781">
        <ele>614.9</ele>
        <time>2017-06-01T13:11:24Z</time>
      </trkpt>
      <trkpt lat="43.94757" lon="6.2278">
        <ele>615.38</ele>
        <time>2017-06-01T13:11:50Z</time>
      </trkpt>
      <trkpt lat="43.94759" lon="6.22778">
        <ele>615.38</ele>
        <time>2017-06-01T13:12:15Z</time>
      </trkpt>
      <trkpt lat="43.94759" lon="6.22777">
        <ele>615.38</ele>
        <time>2017-06-01T13:12:35Z</time>
      </trkpt>
      <trkpt lat="43.94759" lon="6.22776">
        <ele>615.38</ele>
        <time>2017-06-01T13:12:53Z</time>
      </trkpt>
      <trkpt lat="43.94759" lon="6.22777">
        <ele>615.38</ele>
        <time>2017-06-01T13:13:13Z</time>
      </trkpt>
      <trkpt lat="43.94759" lon="6.22776">
        <ele>615.38</ele>
        <time>2017-06-01T13:13:34Z</time>
      </trkpt>
      <trkpt lat="43.94759" lon="6.22777">
        <ele>614.9</ele>
        <time>2017-06-01T13:14:00Z</time>
      </trkpt>
      <trkpt lat="43.94759" lon="6.22778">
        <ele>615.38</ele>
        <time>2017-06-01T13:14:24Z</time>
      </trkpt>
      <trkpt lat="43.94759" lon="6.22778">
        <ele>615.38</ele>
        <time>2017-06-01T13:14:46Z</time>
      </trkpt>
      <trkpt lat="43.94759" lon="6.22781">
        <ele>615.38</ele>
        <time>2017-06-01T13:15:11Z</time>
      </trkpt>
      <trkpt lat="43.94761" lon="6.2278">
        <ele>615.38</ele>
        <time>2017-06-01T13:15:33Z</time>
      </trkpt>
      <trkpt lat="43.9476" lon="6.2278">
        <ele>615.38</ele>
        <time>2017-06-01T13:15:58Z</time>
      </trkpt>
      <trkpt lat="43.9476" lon="6.22779">
        <ele>615.86</ele>
        <time>2017-06-01T13:16:19Z</time>
      </trkpt>
      <trkpt lat="43.9476" lon="6.2278">
        <ele>615.38</ele>
        <time>2017-06-01T13:16:39Z</time>
      </trkpt>
      <trkpt lat="43.9476" lon="6.22779">
        <ele>615.86</ele>
        <time>2017-06-01T13:17:00Z</time>
      </trkpt>
      <trkpt lat="43.9476" lon="6.2278">
        <ele>615.38</ele>
        <time>2017-06-01T13:17:24Z</time>
      </trkpt>
      <trkpt lat="43.94761" lon="6.22782">
        <ele>615.86</ele>
        <time>2017-06-01T13:17:50Z</time>
      </trkpt>
      <trkpt lat="43.94762" lon="6.22782">
        <ele>615.86</ele>
        <time>2017-06-01T13:18:16Z</time>
      </trkpt>
      <trkpt lat="43.94763" lon="6.22782">
        <ele>615.86</ele>
        <time>2017-06-01T13:18:38Z</time>
      </trkpt>
      <trkpt lat="43.94764" lon="6.22781">
        <ele>615.86</ele>
        <time>2017-06-01T13:19:04Z</time>
      </trkpt>
      <trkpt lat="43.94765" lon="6.22781">
        <ele>615.86</ele>
        <time>2017-06-01T13:19:23Z</time>
      </trkpt>
      <trkpt lat="43.94766" lon="6.2278">
        <ele>616.34</ele>
        <time>2017-06-01T13:19:39Z</time>
      </trkpt>
      <trkpt lat="43.94766" lon="6.2278">
        <ele>615.86</ele>
        <time>2017-06-01T13:19:46Z</time>
      </trkpt>
      <trkpt lat="43.94762" lon="6.22779">
        <ele>616.34</ele>
        <time>2017-06-01T13:20:02Z</time>
      </trkpt>
      <trkpt lat="43.94763" lon="6.22779">
        <ele>615.86</ele>
        <time>2017-06-01T13:20:22Z</time>
      </trkpt>
      <trkpt lat="43.94764" lon="6.22779">
        <ele>615.86</ele>
        <time>2017-06-01T13:20:30Z</time>
      </trkpt>
      <trkpt lat="43.94761" lon="6.22777">
        <ele>615.86</ele>
        <time>2017-06-01T13:20:44Z</time>
      </trkpt>
      <trkpt lat="43.94762" lon="6.22778">
        <ele>615.86</ele>
        <time>2017-06-01T13:21:04Z</time>
      </trkpt>
      <trkpt lat="43.94763" lon="6.22778">
        <ele>615.86</ele>
        <time>2017-06-01T13:21:22Z</time>
      </trkpt>
      <trkpt lat="43.94763" lon="6.22778">
        <ele>615.86</ele>
        <time>2017-06-01T13:21:43Z</time>
      </trkpt>
      <trkpt lat="43.94764" lon="6.22778">
        <ele>615.38</ele>
        <time>2017-06-01T13:22:06Z</time>
      </trkpt>
      <trkpt lat="43.94764" lon="6.22777">
        <ele>615.38</ele>
        <time>2017-06-01T13:22:33Z</time>
      </trkpt>
      <trkpt lat="43.94764" lon="6.22778">
        <ele>615.38</ele>
        <time>2017-06-01T13:22:58Z</time>
      </trkpt>
      <trkpt lat="43.94764" lon="6.22778">
        <ele>614.9</ele>
        <time>2017-06-01T13:23:21Z</time>
      </trkpt>
      <trkpt lat="43.94764" lon="6.2278">
        <ele>615.38</ele>
        <time>2017-06-01T13:23:47Z</time>
      </trkpt>
      <trkpt lat="43.94764" lon="6.22779">
        <ele>614.9</ele>
        <time>2017-06-01T13:24:10Z</time>
      </trkpt>
      <trkpt lat="43.94765" lon="6.22778">
        <ele>615.38</ele>
        <time>2017-06-01T13:24:36Z</time>
      </trkpt>
      <trkpt lat="43.94767" lon="6.22776">
        <ele>614.9</ele>
        <time>2017-06-01T13:25:03Z</time>
      </trkpt>
      <trkpt lat="43.94767" lon="6.22778">
        <ele>615.38</ele>
        <time>2017-06-01T13:25:31Z</time>
      </trkpt>
      <trkpt lat="43.94767" lon="6.22778">
        <ele>615.38</ele>
        <time>2017-06-01T13:25:56Z</time>
      </trkpt>
      <trkpt lat="43.94766" lon="6.22779">
        <ele>614.9</ele>
        <time>2017-06-01T13:26:19Z</time>
      </trkpt>
      <trkpt lat="43.94766" lon="6.22779">
        <ele>614.9</ele>
        <time>2017-06-01T13:26:41Z</time>
      </trkpt>
      <trkpt lat="43.94765" lon="6.2278">
        <ele>614.9</ele>
        <time>2017-06-01T13:27:05Z</time>
      </trkpt>
      <trkpt lat="43.94766" lon="6.22779">
        <ele>614.9</ele>
        <time>2017-06-01T13:27:26Z</time>
      </trkpt>
      <trkpt lat="43.94768" lon="6.22778">
        <ele>615.86</ele>
        <time>2017-06-01T13:27:41Z</time>
      </trkpt>
      <trkpt lat="43.94767" lon="6.22778">
        <ele>615.38</ele>
        <time>2017-06-01T13:28:01Z</time>
      </trkpt>
      <trkpt lat="43.94766" lon="6.22778">
        <ele>615.38</ele>
        <time>2017-06-01T13:28:16Z</time>
      </trkpt>
      <trkpt lat="43.94764" lon="6.22779">
        <ele>617.3</ele>
        <time>2017-06-01T13:28:30Z</time>
      </trkpt>
      <trkpt lat="43.94762" lon="6.22779">
        <ele>617.3</ele>
        <time>2017-06-01T13:28:51Z</time>
      </trkpt>
      <trkpt lat="43.94758" lon="6.22773">
        <ele>617.3</ele>
        <time>2017-06-01T13:29:11Z</time>
      </trkpt>
      <trkpt lat="43.94749" lon="6.22765">
        <ele>616.82</ele>
        <time>2017-06-01T13:29:25Z</time>
      </trkpt>
      <trkpt lat="43.94746" lon="6.22762">
        <ele>616.34</ele>
        <time>2017-06-01T13:29:30Z</time>
      </trkpt>
      <trkpt lat="43.94743" lon="6.22759">
        <ele>616.34</ele>
        <time>2017-06-01T13:29:32Z</time>
      </trkpt>
      <trkpt lat="43.94734" lon="6.22749">
        <ele>616.82</ele>
        <time>2017-06-01T13:29:45Z</time>
      </trkpt>
      <trkpt lat="43.94732" lon="6.22745">
        <ele>616.34</ele>
        <time>2017-06-01T13:29:48Z</time>
      </trkpt>
      <trkpt lat="43.9473" lon="6.22742">
        <ele>615.86</ele>
        <time>2017-06-01T13:29:51Z</time>
      </trkpt>
      <trkpt lat="43.94728" lon="6.22738">
        <ele>615.86</ele>
        <time>2017-06-01T13:29:55Z</time>
      </trkpt>
      <trkpt lat="43.94726" lon="6.22736">
        <ele>615.86</ele>
        <time>2017-06-01T13:29:57Z</time>
      </trkpt>
      <trkpt lat="43.94721" lon="6.22728">
        <ele>614.9</ele>
        <time>2017-06-01T13:30:07Z</time>
      </trkpt>
      <trkpt lat="43.9472" lon="6.22727">
        <ele>614.9</ele>
        <time>2017-06-01T13:30:09Z</time>
      </trkpt>
      <trkpt lat="43.94712" lon="6.22719">
        <ele>614.42</ele>
        <time>2017-06-01T13:30:21Z</time>
      </trkpt>
      <trkpt lat="43.94701" lon="6.22707">
        <ele>613.94</ele>
        <time>2017-06-01T13:30:34Z</time>
      </trkpt>
      <trkpt lat="43.94696" lon="6.22696">
        <ele>613.46</ele>
        <time>2017-06-01T13:30:49Z</time>
      </trkpt>
      <trkpt lat="43.94701" lon="6.22685">
        <ele>613.94</ele>
        <time>2017-06-01T13:31:04Z</time>
      </trkpt>
      <trkpt lat="43.94697" lon="6.22683">
        <ele>612.02</ele>
        <time>2017-06-01T13:31:15Z</time>
      </trkpt>
      <trkpt lat="43.94693" lon="6.22677">
        <ele>611.54</ele>
        <time>2017-06-01T13:31:20Z</time>
      </trkpt>
      <trkpt lat="43.9469" lon="6.22675">
        <ele>611.06</ele>
        <time>2017-06-01T13:31:23Z</time>
      </trkpt>
      <trkpt lat="43.94686" lon="6.22667">
        <ele>610.57</ele>
        <time>2017-06-01T13:31:30Z</time>
      </trkpt>
      <trkpt lat="43.94683" lon="6.22654">
        <ele>610.09</ele>
        <time>2017-06-01T13:31:41Z</time>
      </trkpt>
      <trkpt lat="43.94683" lon="6.22644">
        <ele>610.09</ele>
        <time>2017-06-01T13:31:48Z</time>
      </trkpt>
      <trkpt lat="43.94681" lon="6.22631">
        <ele>609.61</ele>
        <time>2017-06-01T13:31:56Z</time>
      </trkpt>
      <trkpt lat="43.94679" lon="6.22619">
        <ele>609.13</ele>
        <time>2017-06-01T13:32:03Z</time>
      </trkpt>
      <trkpt lat="43.94679" lon="6.22613">
        <ele>609.13</ele>
        <time>2017-06-01T13:32:07Z</time>
      </trkpt>
      <trkpt lat="43.9468" lon="6.22598">
        <ele>608.65</ele>
        <time>2017-06-01T13:32:20Z</time>
      </trkpt>
      <trkpt lat="43.9469" lon="6.22586">
        <ele>608.65</ele>
        <time>2017-06-01T13:32:34Z</time>
      </trkpt>
      <trkpt lat="43.94705" lon="6.22576">
        <ele>608.65</ele>
        <time>2017-06-01T13:32:47Z</time>
      </trkpt>
      <trkpt lat="43.9472" lon="6.22563">
        <ele>608.17</ele>
        <time>2017-06-01T13:33:01Z</time>
      </trkpt>
      <trkpt lat="43.9472" lon="6.22554">
        <ele>608.17</ele>
        <time>2017-06-01T13:33:14Z</time>
      </trkpt>
      <trkpt lat="43.94727" lon="6.22551">
        <ele>607.69</ele>
        <time>2017-06-01T13:33:29Z</time>
      </trkpt>
      <trkpt lat="43.94734" lon="6.22551">
        <ele>607.69</ele>
        <time>2017-06-01T13:33:43Z</time>
      </trkpt>
      <trkpt lat="43.94737" lon="6.22555">
        <ele>607.21</ele>
        <time>2017-06-01T13:33:55Z</time>
      </trkpt>
      <trkpt lat="43.94737" lon="6.22554">
        <ele>606.25</ele>
        <time>2017-06-01T13:34:15Z</time>
      </trkpt>
      <trkpt lat="43.94739" lon="6.22556">
        <ele>606.25</ele>
        <time>2017-06-01T13:34:33Z</time>
      </trkpt>
      <trkpt lat="43.94739" lon="6.22561">
        <ele>605.77</ele>
        <time>2017-06-01T13:34:45Z</time>
      </trkpt>
      <trkpt lat="43.94741" lon="6.22564">
        <ele>605.29</ele>
        <time>2017-06-01T13:34:59Z</time>
      </trkpt>
      <trkpt lat="43.9474" lon="6.22564">
        <ele>605.29</ele>
        <time>2017-06-01T13:35:23Z</time>
      </trkpt>
      <trkpt lat="43.94741" lon="6.22564">
        <ele>605.29</ele>
        <time>2017-06-01T13:35:41Z</time>
      </trkpt>
      <trkpt lat="43.94744" lon="6.22564">
        <ele>605.29</ele>
        <time>2017-06-01T13:36:01Z</time>
      </trkpt>
      <trkpt lat="43.94744" lon="6.22564">
        <ele>604.81</ele>
        <time>2017-06-01T13:36:19Z</time>
      </trkpt>
      <trkpt lat="43.94749" lon="6.22563">
        <ele>604.81</ele>
        <time>2017-06-01T13:36:32Z</time>
      </trkpt>
      <trkpt lat="43.9476" lon="6.2255">
        <ele>604.33</ele>
        <time>2017-06-01T13:36:45Z</time>
      </trkpt>
      <trkpt lat="43.94762" lon="6.22548">
        <ele>604.33</ele>
        <time>2017-06-01T13:36:47Z</time>
      </trkpt>
      <trkpt lat="43.94768" lon="6.22538">
        <ele>604.33</ele>
        <time>2017-06-01T13:36:59Z</time>
      </trkpt>
      <trkpt lat="43.94776" lon="6.22528">
        <ele>604.33</ele>
        <time>2017-06-01T13:37:12Z</time>
      </trkpt>
      <trkpt lat="43.94782" lon="6.22522">
        <ele>604.33</ele>
        <time>2017-06-01T13:37:20Z</time>
      </trkpt>
      <trkpt lat="43.94789" lon="6.2251">
        <ele>603.85</ele>
        <time>2017-06-01T13:37:33Z</time>
      </trkpt>
      <trkpt lat="43.94789" lon="6.22509">
        <ele>603.85</ele>
        <time>2017-06-01T13:37:34Z</time>
      </trkpt>
      <trkpt lat="43.94793" lon="6.22501">
        <ele>603.85</ele>
        <time>2017-06-01T13:37:41Z</time>
      </trkpt>
      <trkpt lat="43.94797" lon="6.22486">
        <ele>603.36</ele>
        <time>2017-06-01T13:37:54Z</time>
      </trkpt>
      <trkpt lat="43.94801" lon="6.2247">
        <ele>602.88</ele>
        <time>2017-06-01T13:38:08Z</time>
      </trkpt>
      <trkpt lat="43.94802" lon="6.22455">
        <ele>602.88</ele>
        <time>2017-06-01T13:38:21Z</time>
      </trkpt>
      <trkpt lat="43.94803" lon="6.22449">
        <ele>602.4</ele>
        <time>2017-06-01T13:38:27Z</time>
      </trkpt>
      <trkpt lat="43.94803" lon="6.22445">
        <ele>602.4</ele>
        <time>2017-06-01T13:38:30Z</time>
      </trkpt>
      <trkpt lat="43.94802" lon="6.22428">
        <ele>601.92</ele>
        <time>2017-06-01T13:38:42Z</time>
      </trkpt>
      <trkpt lat="43.94806" lon="6.22413">
        <ele>601.92</ele>
        <time>2017-06-01T13:38:53Z</time>
      </trkpt>
      <trkpt lat="43.94805" lon="6.22396">
        <ele>601.92</ele>
        <time>2017-06-01T13:39:07Z</time>
      </trkpt>
      <trkpt lat="43.94806" lon="6.22385">
        <ele>601.92</ele>
        <time>2017-06-01T13:39:15Z</time>
      </trkpt>
      <trkpt lat="43.94804" lon="6.22377">
        <ele>601.92</ele>
        <time>2017-06-01T13:39:21Z</time>
      </trkpt>
      <trkpt lat="43.94804" lon="6.22354">
        <ele>601.92</ele>
        <time>2017-06-01T13:39:36Z</time>
      </trkpt>
      <trkpt lat="43.94803" lon="6.2235">
        <ele>601.92</ele>
        <time>2017-06-01T13:39:38Z</time>
      </trkpt>
      <trkpt lat="43.94801" lon="6.22349">
        <ele>602.4</ele>
        <time>2017-06-01T13:39:40Z</time>
      </trkpt>
      <trkpt lat="43.94801" lon="6.22333">
        <ele>602.88</ele>
        <time>2017-06-01T13:39:51Z</time>
      </trkpt>
      <trkpt lat="43.94801" lon="6.22316">
        <ele>602.88</ele>
        <time>2017-06-01T13:40:03Z</time>
      </trkpt>
      <trkpt lat="43.94806" lon="6.22303">
        <ele>603.85</ele>
        <time>2017-06-01T13:40:14Z</time>
      </trkpt>
      <trkpt lat="43.94806" lon="6.223">
        <ele>603.85</ele>
        <time>2017-06-01T13:40:16Z</time>
      </trkpt>
      <trkpt lat="43.94806" lon="6.22282">
        <ele>604.81</ele>
        <time>2017-06-01T13:40:30Z</time>
      </trkpt>
      <trkpt lat="43.94806" lon="6.22281">
        <ele>604.81</ele>
        <time>2017-06-01T13:40:31Z</time>
      </trkpt>
      <trkpt lat="43.94806" lon="6.22276">
        <ele>604.81</ele>
        <time>2017-06-01T13:40:34Z</time>
      </trkpt>
      <trkpt lat="43.9481" lon="6.22258">
        <ele>605.77</ele>
        <time>2017-06-01T13:40:47Z</time>
      </trkpt>
      <trkpt lat="43.94815" lon="6.22246">
        <ele>607.21</ele>
        <time>2017-06-01T13:40:57Z</time>
      </trkpt>
      <trkpt lat="43.94823" lon="6.22235">
        <ele>607.69</ele>
        <time>2017-06-01T13:41:07Z</time>
      </trkpt>
      <trkpt lat="43.94833" lon="6.2222">
        <ele>609.13</ele>
        <time>2017-06-01T13:41:21Z</time>
      </trkpt>
      <trkpt lat="43.94834" lon="6.22213">
        <ele>608.17</ele>
        <time>2017-06-01T13:41:33Z</time>
      </trkpt>
      <trkpt lat="43.94835" lon="6.22212">
        <ele>608.65</ele>
        <time>2017-06-01T13:41:48Z</time>
      </trkpt>
      <trkpt lat="43.94833" lon="6.2221">
        <ele>608.17</ele>
        <time>2017-06-01T13:41:57Z</time>
      </trkpt>
      <trkpt lat="43.94834" lon="6.22209">
        <ele>608.17</ele>
        <time>2017-06-01T13:42:17Z</time>
      </trkpt>
      <trkpt lat="43.94833" lon="6.22208">
        <ele>608.65</ele>
        <time>2017-06-01T13:42:35Z</time>
      </trkpt>
      <trkpt lat="43.94833" lon="6.22208">
        <ele>609.13</ele>
        <time>2017-06-01T13:42:51Z</time>
      </trkpt>
      <trkpt lat="43.94834" lon="6.22208">
        <ele>608.65</ele>
        <time>2017-06-01T13:43:17Z</time>
      </trkpt>
    </trkseg>
  </trk>
</gpx>